Provisional Data: East Fork First Fork Sinnemahoning Creek near Logue, PA


Please select a monitoring station.
Please select start date.
Please select start date.

Toggle Unit: C/F Toggle Unit: C/F
Sample Time Temperature (C) Temperature (F) Specific Conductivity (mS/cm) pH   Turbidity (NTU+) DO (mg/L)
5/4/2021 12:00:00 AM 9.82 49.676 0.038 6.71 6.68 10.21
5/4/2021 12:15:00 AM 9.8 49.64 0.038 6.71 6.23 10.22
5/4/2021 12:30:00 AM 9.78 49.604 0.038 6.7 6.06 10.22
5/4/2021 12:45:00 AM 9.77 49.586 0.038 6.7 6.17 10.23
5/4/2021 1:00:00 AM 9.74 49.532 0.038 6.7 6.14 10.23
5/4/2021 1:15:00 AM 9.73 49.514 0.038 6.7 6.08 10.24
5/4/2021 1:30:00 AM 9.71 49.478 0.038 6.69 6.04 10.24
5/4/2021 1:45:00 AM 9.69 49.442 0.038 6.69 6.2 10.25
5/4/2021 2:00:00 AM 9.68 49.424 0.038 6.69 6.13 10.25
5/4/2021 2:15:00 AM 9.66 49.388 0.038 6.69 6.14 10.25
5/4/2021 2:30:00 AM 9.65 49.37 0.038 6.69 6.28 10.25
5/4/2021 2:45:00 AM 9.64 49.352 0.038 6.69 6.22 10.26
5/4/2021 3:00:00 AM 9.62 49.316 0.038 6.69 6.29 10.27
5/4/2021 3:15:00 AM 9.61 49.298 0.038 6.68 6.46 10.26
5/4/2021 3:30:00 AM 9.6 49.28 0.038 6.68 5.97 10.26
5/4/2021 3:45:00 AM 9.59 49.262 0.038 6.68 6.04 10.27
5/4/2021 4:00:00 AM 9.58 49.244 0.038 6.68 6.42 10.27
5/4/2021 4:15:00 AM 9.58 49.244 0.038 6.69 6.23 10.27
5/4/2021 4:30:00 AM 9.57 49.226 0.038 6.69 6.41 10.27
5/4/2021 4:45:00 AM 9.56 49.208 0.038 6.68 6.07 10.27
5/4/2021 5:00:00 AM 9.56 49.208 0.038 6.68 6.48 10.27
5/4/2021 5:15:00 AM 9.55 49.19 0.038 6.69 6.08 10.27
5/4/2021 5:30:00 AM 9.54 49.172 0.038 6.68 6.1 10.28
5/4/2021 5:45:00 AM 9.53 49.154 0.038 6.67 6.15 10.27
5/4/2021 6:00:00 AM 9.53 49.154 0.038 6.66 6.44 10.28
5/4/2021 6:15:00 AM 9.53 49.154 0.038 6.67 6.8 10.28
5/4/2021 6:30:00 AM 9.52 49.136 0.038 6.68 6.21 10.3
5/4/2021 6:45:00 AM 9.52 49.136 0.038 6.68 6.49 10.3
5/4/2021 7:00:00 AM 9.52 49.136 0.038 6.67 5.88 10.31
5/4/2021 7:15:00 AM 9.53 49.154 0.038 6.68 6.2 10.33
5/4/2021 7:30:00 AM 9.54 49.172 0.038 6.69 6.14 10.35
5/4/2021 7:45:00 AM 9.57 49.226 0.038 6.71 6.09 10.39
5/4/2021 8:00:00 AM 9.6 49.28 0.038 6.74 5.83 10.43
5/4/2021 8:15:00 AM 9.64 49.352 0.038 6.76 5.71 10.44
5/4/2021 8:30:00 AM 9.69 49.442 0.038 6.79 5.71 10.46
5/4/2021 8:45:00 AM 9.75 49.55 0.038 6.82 5.82 10.47
5/4/2021 9:00:00 AM 9.79 49.622 0.038 6.82 5.59 10.47
5/4/2021 9:15:00 AM 9.84 49.712 0.038 6.83 5.66 10.49
5/4/2021 9:30:00 AM 9.9 49.82 0.038 6.86 5.57 10.51
5/4/2021 9:45:00 AM 10 50 0.038 6.88 5.54 10.5
5/4/2021 10:00:00 AM 10.17 50.306 0.038 6.9 5.61 10.49
5/4/2021 10:15:00 AM 10.36 50.648 0.038 6.92 5.42 10.48
5/4/2021 10:30:00 AM 10.47 50.846 0.038 6.9 6.33 10.45
5/4/2021 10:45:00 AM 10.47 50.846 0.038 6.89 6.07 10.43
5/4/2021 11:00:00 AM 10.56 51.008 0.038 6.89 5.73 10.42
5/4/2021 11:15:00 AM 10.73 51.314 0.038 6.91 5.65 10.42
5/4/2021 11:30:00 AM 10.89 51.602 0.038 6.96 6.31 10.39
5/4/2021 11:45:00 AM 11.07 51.926 0.037 6.95 5.33 10.35
5/4/2021 12:00:00 PM 11.22 52.196 0.037 6.95 7.6 10.32
5/4/2021 12:15:00 PM 11.32 52.376 0.037 6.96 5.13 10.32
5/4/2021 12:30:00 PM 11.42 52.556 0.037 6.96 5.78 10.29
5/4/2021 12:45:00 PM 11.54 52.772 0.037 6.95 5.44 10.25
5/4/2021 1:00:00 PM 11.62 52.916 0.037 6.96 6.36 10.21
5/4/2021 1:15:00 PM 11.65 52.97 0.037 6.97 6.4 10.18
5/4/2021 1:30:00 PM 11.69 53.042 0.037 6.96 5.6 10.16
5/4/2021 1:45:00 PM 11.7 53.06 0.037 6.94 5.02 10.12
5/4/2021 2:00:00 PM 11.71 53.078 0.037 6.95 4.87 10.11
5/4/2021 2:15:00 PM 11.73 53.114 0.037 6.95 5.29 10.12
5/4/2021 2:30:00 PM 11.75 53.15 0.037 6.95 5.41 10.09
5/4/2021 2:45:00 PM 11.77 53.186 0.037 6.92 4.9 10.04
5/4/2021 3:00:00 PM 11.76 53.168 0.037 6.9 6.62 10.02
5/4/2021 3:15:00 PM 11.71 53.078 0.037 6.9 6.27 10
5/4/2021 3:30:00 PM 11.66 52.988 0.037 6.86 5.09 9.99
5/4/2021 3:45:00 PM 11.64 52.952 0.037 6.87 5 10
5/4/2021 4:00:00 PM 11.63 52.934 0.037 6.86 5.39 9.99
5/4/2021 4:15:00 PM 11.63 52.934 0.037 6.83 5.09 9.95
5/4/2021 4:30:00 PM 11.66 52.988 0.035 6.82 7.85 9.91
5/4/2021 4:45:00 PM 11.66 52.988 0.037 6.8 6.38 9.92
5/4/2021 5:00:00 PM 11.63 52.934 0.037 6.83 4.99 9.94
5/4/2021 5:15:00 PM 11.65 52.97 0.037 6.85 10.76 9.97
5/4/2021 5:30:00 PM 11.67 53.006 0.037 6.86 6.08 9.98
5/4/2021 5:45:00 PM 11.7 53.06 0.037 6.87 6.2 9.98
5/4/2021 6:00:00 PM 11.7 53.06 0.037 6.85 5.36 9.95
5/4/2021 6:15:00 PM 11.69 53.042 0.037 6.85 6.03 9.93
5/4/2021 6:30:00 PM 11.68 53.024 0.038 6.84 6.38 9.96
5/4/2021 6:45:00 PM 11.66 52.988 0.038 6.86 6.4 9.97
5/4/2021 7:00:00 PM 11.62 52.916 0.038 6.86 5.21 9.96
5/4/2021 7:15:00 PM 11.59 52.862 0.038 6.85 5.51 9.92
5/4/2021 7:30:00 PM 11.57 52.826 0.038 6.84 4.85 9.89
5/4/2021 7:45:00 PM 11.53 52.754 0.038 6.83 5.9 9.86
5/4/2021 8:00:00 PM 11.48 52.664 0.038 6.8 5.74 9.84
5/4/2021 8:15:00 PM 11.42 52.556 0.038 6.79 4.68 9.83
5/4/2021 8:30:00 PM 11.38 52.484 0.038 6.77 5.05 9.83
5/4/2021 8:45:00 PM 11.33 52.394 0.038 6.77 4.91 9.83
5/4/2021 9:00:00 PM 11.28 52.304 0.038 6.76 5.19 9.83
5/4/2021 9:15:00 PM 11.22 52.196 0.038 6.74 4.74 9.84
5/4/2021 9:30:00 PM 11.17 52.106 0.038 6.75 4.94 9.85
5/4/2021 9:45:00 PM 11.12 52.016 0.039 6.74 5.2 9.86
5/4/2021 10:00:00 PM 11.08 51.944 0.039 6.75 5.18 9.86
5/4/2021 10:15:00 PM 11.03 51.854 0.039 6.74 4.86 9.88
5/4/2021 10:30:00 PM 10.98 51.764 0.039 6.73 5.14 9.9
5/4/2021 10:45:00 PM 10.93 51.674 0.039 6.71 5.16 9.91
5/4/2021 11:00:00 PM 10.89 51.602 0.039 6.71 4.85 9.92
5/4/2021 11:15:00 PM 10.85 51.53 0.039 6.71 4.85 9.93
5/4/2021 11:30:00 PM 10.83 51.494 0.039 6.71 4.84 9.94
5/4/2021 11:45:00 PM 10.8 51.44 0.039 6.72 5.56 9.94
5/5/2021 12:00:00 AM 10.79 51.422 0.039 6.74 4.82 9.95
5/5/2021 12:15:00 AM 10.75 51.35 0.039 6.75 4.94 9.96
5/5/2021 12:30:00 AM 10.71 51.278 0.039 6.76 4.94 9.97
5/5/2021 12:45:00 AM 10.67 51.206 0.039 6.75 5.14 9.97
5/5/2021 1:00:00 AM 10.63 51.134 0.039 6.75 5.27 9.98
5/5/2021 1:15:00 AM 10.59 51.062 0.039 6.75 5.11 9.97
5/5/2021 1:30:00 AM 10.55 50.99 0.039 6.74 5.36 10
5/5/2021 1:45:00 AM 10.52 50.936 0.039 6.74 4.72 10.01
5/5/2021 2:00:00 AM 10.49 50.882 0.039 6.74 4.89 10.02
5/5/2021 2:15:00 AM 10.46 50.828 0.039 6.73 5.04 10.03
5/5/2021 2:30:00 AM 10.42 50.756 0.039 6.73 5.06 10.04
5/5/2021 2:45:00 AM 10.39 50.702 0.039 6.74 5.22 10.05
5/5/2021 3:00:00 AM 10.36 50.648 0.039 6.74 4.58 10.06
5/5/2021 3:15:00 AM 10.33 50.594 0.039 6.72 4.7 10.07
5/5/2021 3:30:00 AM 10.29 50.522 0.039 6.72 4.68 10.08
5/5/2021 3:45:00 AM 10.26 50.468 0.039 6.72 4.49 10.08
5/5/2021 4:00:00 AM 10.23 50.414 0.039 6.73 4.71 10.09
5/5/2021 4:15:00 AM 10.2 50.36 0.039 6.72 4.76 10.1
5/5/2021 4:30:00 AM 10.17 50.306 0.039 6.73 4.95 10.11
5/5/2021 4:45:00 AM 10.14 50.252 0.039 6.71 4.85 10.11
5/5/2021 5:00:00 AM 10.12 50.216 0.039 6.72 4.52 10.12
5/5/2021 5:15:00 AM 10.1 50.18 0.039 6.71 4.53 10.13
5/5/2021 5:30:00 AM 10.07 50.126 0.039 6.72 4.48 10.13
5/5/2021 5:45:00 AM 10.06 50.108 0.039 6.72 4.65 10.13
5/5/2021 6:00:00 AM 10.04 50.072 0.039 6.72 6.08 10.14
5/5/2021 6:15:00 AM 10.02 50.036 0.039 6.73 4.82 10.15
5/5/2021 6:30:00 AM 10.01 50.018 0.039 6.74 4.64 10.16
5/5/2021 6:45:00 AM 10.01 50.018 0.039 6.76 4.46 10.17
5/5/2021 7:00:00 AM 10 50 0.039 6.77 4.99 10.19
5/5/2021 7:15:00 AM 9.98 49.964 0.039 6.78 3.99 10.22
5/5/2021 7:30:00 AM 9.97 49.946 0.039 6.79 4.07 10.24
5/5/2021 7:45:00 AM 9.97 49.946 0.039 6.8 4.03 10.25
5/5/2021 8:00:00 AM 9.96 49.928 0.039 6.81 3.85 10.26
5/5/2021 8:15:00 AM 9.96 49.928 0.039 6.82 5.72 10.28
5/5/2021 8:30:00 AM 9.94 49.892 0.039 6.83 4.48 10.3
5/5/2021 8:45:00 AM 9.93 49.874 0.039 6.83 4.03 10.29
5/5/2021 9:00:00 AM 9.93 49.874 0.039 6.84 6.77 10.3
5/5/2021 9:15:00 AM 9.93 49.874 0.039 6.84 3.99 10.33
5/5/2021 9:30:00 AM 9.93 49.874 0.039 6.84 3.89 10.34
5/5/2021 9:45:00 AM 9.94 49.892 0.039 6.85 3.75 10.37
5/5/2021 10:00:00 AM 9.96 49.928 0.039 6.87 4.01 10.4
5/5/2021 10:15:00 AM 9.99 49.982 0.039 6.89 3.76 10.44
5/5/2021 10:30:00 AM 10.02 50.036 0.038 6.9 3.93 10.45
5/5/2021 10:45:00 AM 10.05 50.09 0.038 6.9 3.82 10.46
5/5/2021 11:00:00 AM 10.08 50.144 0.038 6.92 3.94 10.47
5/5/2021 11:15:00 AM 10.1 50.18 0.038 6.92 4.24 10.44
5/5/2021 11:30:00 AM 10.11 50.198 0.038 6.93 3.83 10.43
5/5/2021 11:45:00 AM 10.12 50.216 0.038 6.93 3.96 10.44
5/5/2021 12:00:00 PM 10.15 50.27 0.038 6.94 4.07 10.47
5/5/2021 12:15:00 PM 10.14 50.252 0.038 6.93 4.31 10.46
5/5/2021 12:30:00 PM 10.14 50.252 0.038 6.93 3.75 10.47
5/5/2021 12:45:00 PM 10.11 50.198 0.038 6.93 3.63 10.46
5/5/2021 1:00:00 PM 10.09 50.162 0.038 6.93 3.92 10.46
5/5/2021 1:15:00 PM 10.09 50.162 0.038 6.88 4.08 10.48
5/5/2021 1:30:00 PM 10.11 50.198 0.038 6.92 3.93 10.48
5/5/2021 1:45:00 PM 10.15 50.27 0.038 6.95 3.93 10.49
5/5/2021 2:00:00 PM 10.2 50.36 0.038 6.96 3.68 10.5
5/5/2021 2:15:00 PM 10.27 50.486 0.038 6.94 3.82 10.51
5/5/2021 2:30:00 PM 10.31 50.558 0.038 6.96 4.13 10.51
5/5/2021 2:45:00 PM 10.34 50.612 0.038 6.95 3.86 10.5
5/5/2021 3:00:00 PM 10.3 50.54 0.038 6.96 3.88 10.5
5/5/2021 3:15:00 PM 10.27 50.486 0.038 6.97 3.86 10.5
5/5/2021 3:30:00 PM 10.25 50.45 0.038 6.98 3.72 10.5
5/5/2021 3:45:00 PM 10.29 50.522 0.038 6.97 3.96 10.52
5/5/2021 4:00:00 PM 10.34 50.612 0.038 6.99 3.81 10.52
5/5/2021 4:15:00 PM 10.45 50.81 0.038 7 3.87 10.51
5/5/2021 4:30:00 PM 10.45 50.81 0.038 7 3.64 10.49
5/5/2021 4:45:00 PM 10.46 50.828 0.038 7 4.46 10.48
5/5/2021 5:00:00 PM 10.45 50.81 0.038 7 3.82 10.47
5/5/2021 5:15:00 PM 10.41 50.738 0.038 6.99 4.06 10.47
5/5/2021 5:30:00 PM 10.37 50.666 0.038 6.99 3.9 10.46
5/5/2021 5:45:00 PM 10.34 50.612 0.038 6.97 4.14 10.45
5/5/2021 6:00:00 PM 10.32 50.576 0.038 6.97 3.77 10.45
5/5/2021 6:15:00 PM 10.25 50.45 0.038 6.97 3.94 10.44
5/5/2021 6:30:00 PM 10.17 50.306 0.038 6.94 4.12 10.43
5/5/2021 6:45:00 PM 10.09 50.162 0.038 6.92 4.32 10.42
5/5/2021 7:00:00 PM 10.01 50.018 0.038 6.9 15.55 10.42
5/5/2021 7:15:00 PM 9.93 49.874 0.038 6.66 4.99 10.4
5/5/2021 7:30:00 PM 9.86 49.748 0.038 6.85 3.79 10.39
5/5/2021 7:45:00 PM 9.78 49.604 0.038 6.84 4.07 10.38
5/5/2021 8:00:00 PM 9.71 49.478 0.039 6.83 30.56 10.39
5/5/2021 8:15:00 PM 9.66 49.388 0.039 6.84 4.02 10.38
5/5/2021 8:30:00 PM 9.6 49.28 0.039 6.8 8.97 10.38
5/5/2021 8:45:00 PM 9.54 49.172 0.039 6.8 3.95 10.38
5/5/2021 9:00:00 PM 9.48 49.064 0.039 6.8 4.21 10.39
5/5/2021 9:15:00 PM 9.42 48.956 0.039 6.8 4.11 10.39
5/5/2021 9:30:00 PM 9.37 48.866 0.039 6.81 4.04 10.41
5/5/2021 9:45:00 PM 9.32 48.776 0.039 6.8 4.25 10.41
5/5/2021 10:00:00 PM 9.27 48.686 0.039 6.8 4.29 10.42
5/5/2021 10:15:00 PM 9.22 48.596 0.039 6.8 3.95 10.44
5/5/2021 10:30:00 PM 9.17 48.506 0.039 6.81 3.81 10.45
5/5/2021 10:45:00 PM 9.12 48.416 0.039 6.81 3.91 10.48
5/5/2021 11:00:00 PM 9.07 48.326 0.039 6.8 4.01 10.5
5/5/2021 11:15:00 PM 9.01 48.218 0.039 6.8 4.16 10.51
5/5/2021 11:30:00 PM 8.97 48.146 0.039 6.8 3.95 10.52
5/5/2021 11:45:00 PM 8.93 48.074 0.039 6.8 5.08 10.53
5/6/2021 12:00:00 AM 8.88 47.984 0.039 6.8 3.82 10.54
5/6/2021 12:15:00 AM 8.83 47.894 0.039 6.8 3.96 10.56
5/6/2021 12:30:00 AM 8.79 47.822 0.039 6.79 3.89 10.58
5/6/2021 12:45:00 AM 8.75 47.75 0.039 6.79 3.89 10.58
5/6/2021 1:00:00 AM 8.71 47.678 0.039 6.8 4 10.59
5/6/2021 1:15:00 AM 8.68 47.624 0.039 6.79 3.86 10.6
5/6/2021 1:30:00 AM 8.63 47.534 0.039 6.79 3.92 10.62
5/6/2021 1:45:00 AM 8.59 47.462 0.039 6.79 4.36 10.63
5/6/2021 2:00:00 AM 8.55 47.39 0.039 6.79 4.21 10.64
5/6/2021 2:15:00 AM 8.51 47.318 0.039 6.79 3.79 10.65
5/6/2021 2:30:00 AM 8.47 47.246 0.039 6.78 3.7 10.66
5/6/2021 2:45:00 AM 8.42 47.156 0.039 6.76 3.99 10.68
5/6/2021 3:00:00 AM 8.39 47.102 0.039 6.76 3.76 10.69
5/6/2021 3:15:00 AM 8.34 47.012 0.039 6.76 4.08 10.7
5/6/2021 3:30:00 AM 8.29 46.922 0.039 6.77 3.92 10.71
5/6/2021 3:45:00 AM 8.25 46.85 0.039 6.76 3.73 10.73
5/6/2021 4:00:00 AM 8.22 46.796 0.039 6.76 3.77 10.74
5/6/2021 4:15:00 AM 8.18 46.724 0.039 6.77 3.78 10.75
5/6/2021 4:30:00 AM 8.15 46.67 0.039 6.76 3.77 10.75
5/6/2021 4:45:00 AM 8.13 46.634 0.039 6.76 3.78 10.77
5/6/2021 5:00:00 AM 8.1 46.58 0.039 6.76 3.83 10.78
5/6/2021 5:15:00 AM 8.07 46.526 0.039 6.76 3.69 10.78
5/6/2021 5:30:00 AM 8.05 46.49 0.039 6.76 3.95 10.79
5/6/2021 5:45:00 AM 8.02 46.436 0.039 6.77 3.93 10.8
5/6/2021 6:00:00 AM 7.99 46.382 0.039 6.76 7.12 10.81
5/6/2021 6:15:00 AM 7.95 46.31 0.039 6.77 4.03 10.81
5/6/2021 6:30:00 AM 7.92 46.256 0.039 6.77 4.39 10.85
5/6/2021 6:45:00 AM 7.88 46.184 0.039 6.78 5.26 10.88
5/6/2021 7:00:00 AM 7.85 46.13 0.039 6.78 4.06 10.91
5/6/2021 7:15:00 AM 7.82 46.076 0.039 6.79 4.27 10.95
5/6/2021 7:30:00 AM 7.8 46.04 0.039 6.8 4.39 10.97
5/6/2021 7:45:00 AM 7.79 46.022 0.039 6.8 7.06 11.01
5/6/2021 8:00:00 AM 7.79 46.022 0.039 6.81 5 11.04
5/6/2021 8:15:00 AM 7.8 46.04 0.039 6.83 3.91 11.06
5/6/2021 8:30:00 AM 7.83 46.094 0.038 6.83 56.93 11.06
5/6/2021 8:45:00 AM 7.86 46.148 0.039 6.85 5.09 11.07
5/6/2021 9:00:00 AM 7.95 46.31 0.039 6.87 4.74 11.06
5/6/2021 9:15:00 AM 8.05 46.49 0.039 6.88 5.12 11.1
5/6/2021 9:30:00 AM 8.11 46.598 0.039 6.89 4.22 11.11
5/6/2021 9:45:00 AM 8.17 46.706 0.039 6.91 4.3 11.11
5/6/2021 10:00:00 AM 8.29 46.922 0.039 6.9 3.08 11.1
5/6/2021 10:15:00 AM 8.42 47.156 0.039 6.91 4.01 11.08
5/6/2021 10:30:00 AM 8.55 47.39 0.038 6.92 3.87 11.05
5/6/2021 10:45:00 AM 8.7 47.66 0.038 6.93 3.59 11.03
5/6/2021 11:00:00 AM 8.62 47.516 0.038 6.92 5.48 11.02
5/6/2021 11:15:00 AM 8.81 47.858 0.038 6.93 2.99 11
5/6/2021 11:30:00 AM 8.95 48.11 0.038 6.94 2.9 10.98
5/6/2021 11:45:00 AM 9.06 48.308 0.038 6.94 2.91 10.95
5/6/2021 12:00:00 PM 9.33 48.794 0.038 6.95 3.37 10.89
5/6/2021 12:15:00 PM 9.6 49.28 0.038 6.97 2.71 10.84
5/6/2021 12:30:00 PM 9.87 49.766 0.038 6.98 2.66 10.77
5/6/2021 12:45:00 PM 9.95 49.91 0.038 6.95 3.67 10.72
5/6/2021 1:00:00 PM 10.11 50.198 0.038 6.95 3.64 10.7
5/6/2021 1:15:00 PM 10.26 50.468 0.038 6.96 3.02 10.65
5/6/2021 1:30:00 PM 10.39 50.702 0.038 6.99 2.89 10.61
5/6/2021 1:45:00 PM 10.44 50.792 0.038 6.98 4.67 10.59
5/6/2021 2:00:00 PM 10.48 50.864 0.038 6.99 6 10.57
5/6/2021 2:15:00 PM 10.5 50.9 0.038 6.96 3.25 10.55
5/6/2021 2:30:00 PM 10.52 50.936 0.038 6.99 3.18 10.55
5/6/2021 2:45:00 PM 10.51 50.918 0.038 6.95 3.19 10.52
5/6/2021 3:00:00 PM 10.51 50.918 0.038 6.96 2.86 10.52
5/6/2021 3:15:00 PM 10.53 50.954 0.038 6.96 3.15 10.53
5/6/2021 3:30:00 PM 10.52 50.936 0.038 6.96 2.89 10.52
5/6/2021 3:45:00 PM 10.51 50.918 0.038 6.94 3.33 10.52
5/6/2021 4:00:00 PM 10.52 50.936 0.038 6.95 3.17 10.51
5/6/2021 4:15:00 PM 10.56 51.008 0.038 6.95 2.73 10.51
5/6/2021 4:30:00 PM 10.6 51.08 0.038 6.94 2.93 10.49
5/6/2021 4:45:00 PM 10.62 51.116 0.038 6.95 3.31 10.48
5/6/2021 5:00:00 PM 10.64 51.152 0.038 6.97 2.74 10.47
5/6/2021 5:15:00 PM 10.61 51.098 0.038 6.96 2.8 10.45
5/6/2021 5:30:00 PM 10.55 50.99 0.038 6.91 2.75 10.44
5/6/2021 5:45:00 PM 10.49 50.882 0.038 6.92 3.37 10.42
5/6/2021 6:00:00 PM 10.46 50.828 0.038 6.9 3.15 10.42
5/6/2021 6:15:00 PM 10.44 50.792 0.038 6.91 2.94 10.41
5/6/2021 6:30:00 PM 10.42 50.756 0.038 6.88 3.03 10.4
5/6/2021 6:45:00 PM 10.37 50.666 0.038 6.87 2.95 10.37
5/6/2021 7:00:00 PM 10.32 50.576 0.038 6.87 2.8 10.36
5/6/2021 7:15:00 PM 10.25 50.45 0.038 6.85 2.9 10.35
5/6/2021 7:30:00 PM 10.17 50.306 0.038 6.84 2.94 10.34
5/6/2021 7:45:00 PM 10.08 50.144 0.038 6.83 3.22 10.33
5/6/2021 8:00:00 PM 9.99 49.982 0.038 6.79 2.82 10.32
5/6/2021 8:15:00 PM 9.89 49.802 0.038 6.77 2.82 10.32
5/6/2021 8:30:00 PM 9.79 49.622 0.039 6.76 2.95 10.32
5/6/2021 8:45:00 PM 9.69 49.442 0.039 6.76 2.93 10.33
5/6/2021 9:00:00 PM 9.6 49.28 0.039 6.75 2.92 10.34
5/6/2021 9:15:00 PM 9.51 49.118 0.039 6.74 3.04 10.35
5/6/2021 9:30:00 PM 9.42 48.956 0.039 6.72 3.02 10.38
5/6/2021 9:45:00 PM 9.32 48.776 0.039 6.72 2.97 10.4
5/6/2021 10:00:00 PM 9.23 48.614 0.039 6.72 2.97 10.42
5/6/2021 10:15:00 PM 9.13 48.434 0.039 6.69 2.99 10.45
5/6/2021 10:30:00 PM 9.04 48.272 0.039 6.69 3.25 10.48
5/6/2021 10:45:00 PM 8.94 48.092 0.039 6.7 3.02 10.5
5/6/2021 11:00:00 PM 8.85 47.93 0.039 6.71 2.96 10.53
5/6/2021 11:15:00 PM 8.76 47.768 0.039 6.7 3.27 10.56
5/6/2021 11:30:00 PM 8.67 47.606 0.039 6.72 3.07 10.58
5/6/2021 11:45:00 PM 8.57 47.426 0.039 6.7 2.94 10.6
5/7/2021 12:00:00 AM 8.48 47.264 0.039 6.7 2.95 10.63
5/7/2021 12:15:00 AM 8.39 47.102 0.039 6.69 2.92 10.66
5/7/2021 12:30:00 AM 8.3 46.94 0.039 6.69 3.14 10.69
5/7/2021 12:45:00 AM 8.21 46.778 0.039 6.68 3.34 10.71
5/7/2021 1:00:00 AM 8.13 46.634 0.039 6.67 3.08 10.73
5/7/2021 1:15:00 AM 8.05 46.49 0.039 6.66 2.92 10.76
5/7/2021 1:30:00 AM 7.96 46.328 0.039 6.69 2.85 10.78
5/7/2021 1:45:00 AM 7.88 46.184 0.039 6.7 2.92 10.8
5/7/2021 2:00:00 AM 7.8 46.04 0.039 6.72 3.01 10.83
5/7/2021 2:15:00 AM 7.73 45.914 0.039 6.7 3.01 10.85
5/7/2021 2:30:00 AM 7.66 45.788 0.039 6.75 2.84 10.87
5/7/2021 2:45:00 AM 7.6 45.68 0.039 6.76 3.07 10.89
5/7/2021 3:00:00 AM 7.53 45.554 0.039 6.74 3.29 10.91
5/7/2021 3:15:00 AM 7.47 45.446 0.039 6.72 2.92 10.93
5/7/2021 3:30:00 AM 7.4 45.32 0.039 6.72 3.07 10.94
5/7/2021 3:45:00 AM 7.34 45.212 0.039 6.71 3.15 10.96
5/7/2021 4:00:00 AM 7.27 45.086 0.039 6.7 2.93 10.98
5/7/2021 4:15:00 AM 7.2 44.96 0.039 6.69 2.91 11
5/7/2021 4:30:00 AM 7.14 44.852 0.039 6.7 2.78 11.02
5/7/2021 4:45:00 AM 7.07 44.726 0.039 6.7 2.82 11.04
5/7/2021 5:00:00 AM 7.01 44.618 0.039 6.7 2.8 11.06
5/7/2021 5:15:00 AM 6.95 44.51 0.039 6.7 2.98 11.08
5/7/2021 5:30:00 AM 6.89 44.402 0.039 6.7 2.73 11.08
5/7/2021 5:45:00 AM 6.83 44.294 0.039 6.69 2.81 11.11
5/7/2021 6:00:00 AM 6.78 44.204 0.039 6.69 2.98 11.12
5/7/2021 6:15:00 AM 6.73 44.114 0.039 6.71 3.37 11.14
5/7/2021 6:30:00 AM 6.69 44.042 0.039 6.72 3.12 11.18
5/7/2021 6:45:00 AM 6.66 43.988 0.039 6.73 2.92 11.21
5/7/2021 7:00:00 AM 6.64 43.952 0.039 6.73 2.67 11.25
5/7/2021 7:15:00 AM 6.63 43.934 0.039 6.74 2.87 11.29
5/7/2021 7:30:00 AM 6.64 43.952 0.039 6.76 2.8 11.32
5/7/2021 7:45:00 AM 6.65 43.97 0.039 6.77 3.09 11.35
5/7/2021 8:00:00 AM 6.67 44.006 0.039 6.79 2.92 11.37
5/7/2021 8:15:00 AM 6.71 44.078 0.039 6.79 3.04 11.39
5/7/2021 8:30:00 AM 6.77 44.186 0.039 6.8 2.6 11.41
5/7/2021 8:45:00 AM 6.83 44.294 0.039 6.81 2.52 11.42
5/7/2021 9:00:00 AM 6.9 44.42 0.039 6.81 2.55 11.41
5/7/2021 9:15:00 AM 6.99 44.582 0.038 6.84 2.69 11.4
5/7/2021 9:30:00 AM 7.07 44.726 0.038 6.86 2.69 11.39
5/7/2021 9:45:00 AM 7.17 44.906 0.038 6.87 2.42 11.37
5/7/2021 10:00:00 AM 7.3 45.14 0.038 6.87 2.6 11.35
5/7/2021 10:15:00 AM 7.48 45.464 0.038 6.89 2.56 11.31
5/7/2021 10:30:00 AM 7.66 45.788 0.038 6.91 2.59 11.28
5/7/2021 10:45:00 AM 7.73 45.914 0.038 6.91 2.53 11.24
5/7/2021 11:00:00 AM 7.76 45.968 0.038 6.89 2.72 11.23
5/7/2021 11:15:00 AM 7.82 46.076 0.038 6.9 2.63 11.2
5/7/2021 11:30:00 AM 7.88 46.184 0.038 6.9 2.52 11.19
5/7/2021 11:45:00 AM 7.96 46.328 0.038 6.91 2.65 11.15
5/7/2021 12:00:00 PM 8.15 46.67 0.038 6.92 2.51 11.14
5/7/2021 12:15:00 PM 8.21 46.778 0.038 6.92 2.5 11.12
5/7/2021 12:30:00 PM 8.33 46.994 0.038 6.92 2.45 11.1
5/7/2021 12:45:00 PM 8.44 47.192 0.038 6.93 2.78 11.06
5/7/2021 1:00:00 PM 8.47 47.246 0.038 6.92 2.55 11.03
5/7/2021 1:15:00 PM 8.49 47.282 0.038 6.9 2.79 10.99
5/7/2021 1:30:00 PM 8.52 47.336 0.038 6.9 2.56 10.96
5/7/2021 1:45:00 PM 8.53 47.354 0.038 6.89 2.63 10.94
5/7/2021 2:00:00 PM 8.54 47.372 0.038 6.89 2.65 10.91
5/7/2021 2:15:00 PM 8.56 47.408 0.038 6.87 2.59 10.88
5/7/2021 2:30:00 PM 8.56 47.408 0.038 6.86 2.74 10.84
5/7/2021 2:45:00 PM 8.57 47.426 0.038 6.85 2.72 10.83
5/7/2021 3:00:00 PM 8.59 47.462 0.038 6.86 2.87 10.83
5/7/2021 3:15:00 PM 8.62 47.516 0.038 6.86 2.62 10.84
5/7/2021 3:30:00 PM 8.64 47.552 0.038 6.85 2.67 10.83
5/7/2021 3:45:00 PM 8.67 47.606 0.038 6.85 2.57 10.83
5/7/2021 4:00:00 PM 8.68 47.624 0.038 6.85 2.74 10.82
5/7/2021 4:15:00 PM 8.69 47.642 0.038 6.86 2.85 10.82
5/7/2021 4:30:00 PM 8.69 47.642 0.038 6.85 2.61 10.81
5/7/2021 4:45:00 PM 8.69 47.642 0.038 6.84 2.76 10.8
5/7/2021 5:00:00 PM 8.68 47.624 0.038 6.83 3.18 10.79
5/7/2021 5:15:00 PM 8.69 47.642 0.038 6.83 2.84 10.78
5/7/2021 5:30:00 PM 8.68 47.624 0.038 6.83 2.76 10.76
5/7/2021 5:45:00 PM 8.68 47.624 0.038 6.83 2.9 10.77
5/7/2021 6:00:00 PM 8.68 47.624 0.035 6.85 2.85 10.77
5/7/2021 6:15:00 PM 8.66 47.588 0.033 6.83 2.86 10.77
5/7/2021 6:30:00 PM 8.65 47.57 0.038 6.62 3.46 10.75
5/7/2021 6:45:00 PM 8.63 47.534 0.038 6.81 3.22 10.75
5/7/2021 7:00:00 PM 8.61 47.498 0.038 6.8 3.02 10.74
5/7/2021 7:15:00 PM 8.58 47.444 0.038 6.8 2.77 10.75
5/7/2021 7:30:00 PM 8.55 47.39 0.038 6.8 2.84 10.74
5/7/2021 7:45:00 PM 8.51 47.318 0.038 6.8 2.81 10.73
5/7/2021 8:00:00 PM 8.48 47.264 0.038 6.79 3.02 10.72
5/7/2021 8:15:00 PM 8.45 47.21 0.038 6.79 3.02 10.71
5/7/2021 8:30:00 PM 8.42 47.156 0.038 6.78 3.1 10.7
5/7/2021 8:45:00 PM 8.38 47.084 0.038 6.77 3.31 10.69
5/7/2021 9:00:00 PM 8.35 47.03 0.038 6.76 3.22 10.68
5/7/2021 9:15:00 PM 8.31 46.958 0.038 6.76 2.93 10.69
5/7/2021 9:30:00 PM 8.27 46.886 0.038 6.74 3.2 10.69
5/7/2021 9:45:00 PM 8.23 46.814 0.038 6.76 3.22 10.7
5/7/2021 10:00:00 PM 8.18 46.724 0.038 6.75 3.32 10.7
5/7/2021 10:15:00 PM 8.14 46.652 0.038 6.75 3.64 10.71
5/7/2021 10:30:00 PM 8.09 46.562 0.038 6.74 3.55 10.73
5/7/2021 10:45:00 PM 8.05 46.49 0.039 6.75 3.2 10.74
5/7/2021 11:00:00 PM 8 46.4 0.039 6.74 3.08 10.75
5/7/2021 11:15:00 PM 7.94 46.292 0.039 6.74 3 10.76
5/7/2021 11:30:00 PM 7.9 46.22 0.039 6.73 3.02 10.78
5/7/2021 11:45:00 PM 7.85 46.13 0.039 6.73 2.96 10.8
5/8/2021 12:00:00 AM 7.82 46.076 0.039 6.73 2.94 10.81
5/8/2021 12:15:00 AM 7.79 46.022 0.039 6.73 3.03 10.82
5/8/2021 12:30:00 AM 7.77 45.986 0.039 6.74 3.07 10.82
5/8/2021 12:45:00 AM 7.74 45.932 0.039 6.73 3.2 10.83
5/8/2021 1:00:00 AM 7.72 45.896 0.039 6.74 2.89 10.84
5/8/2021 1:15:00 AM 7.69 45.842 0.039 6.74 2.94 10.85
5/8/2021 1:30:00 AM 7.67 45.806 0.039 6.74 3.12 10.85
5/8/2021 1:45:00 AM 7.64 45.752 0.039 6.73 2.97 10.85
5/8/2021 2:00:00 AM 7.62 45.716 0.039 6.73 2.94 10.86
5/8/2021 2:15:00 AM 7.59 45.662 0.039 6.73 3.04 10.87
5/8/2021 2:30:00 AM 7.56 45.608 0.039 6.74 2.95 10.87
5/8/2021 2:45:00 AM 7.54 45.572 0.039 6.74 3.1 10.88
5/8/2021 3:00:00 AM 7.51 45.518 0.039 6.73 2.75 10.89
5/8/2021 3:15:00 AM 7.48 45.464 0.039 6.74 2.99 10.89
5/8/2021 3:30:00 AM 7.45 45.41 0.039 6.73 2.84 10.9
5/8/2021 3:45:00 AM 7.42 45.356 0.039 6.74 3.11 10.9
5/8/2021 4:00:00 AM 7.38 45.284 0.039 6.72 2.92 10.91
5/8/2021 4:15:00 AM 7.35 45.23 0.039 6.74 2.93 10.92
5/8/2021 4:30:00 AM 7.32 45.176 0.039 6.75 2.95 10.93
5/8/2021 4:45:00 AM 7.3 45.14 0.039 6.75 3.36 10.94
5/8/2021 5:00:00 AM 7.26 45.068 0.039 6.73 2.76 10.95
5/8/2021 5:15:00 AM 7.23 45.014 0.039 6.73 2.77 10.96
5/8/2021 5:30:00 AM 7.2 44.96 0.039 6.73 3.22 10.97
5/8/2021 5:45:00 AM 7.18 44.924 0.039 6.74 2.78 10.98
5/8/2021 6:00:00 AM 7.16 44.888 0.039 6.73 2.83 10.99
5/8/2021 6:15:00 AM 7.15 44.87 0.039 6.75 3.06 11
5/8/2021 6:30:00 AM 7.13 44.834 0.039 6.74 2.75 11.03
5/8/2021 6:45:00 AM 7.12 44.816 0.039 6.74 2.9 11.05
5/8/2021 7:00:00 AM 7.12 44.816 0.039 6.75 2.91 11.08
5/8/2021 7:15:00 AM 7.12 44.816 0.039 6.76 2.69 11.1
5/8/2021 7:30:00 AM 7.11 44.798 0.039 6.76 2.8 11.12
5/8/2021 7:45:00 AM 7.11 44.798 0.039 6.78 2.78 11.15
5/8/2021 8:00:00 AM 7.1 44.78 0.039 6.78 2.73 11.17
5/8/2021 8:15:00 AM 7.11 44.798 0.039 6.79 3.37 11.21
5/8/2021 8:30:00 AM 7.12 44.816 0.039 6.79 3.07 11.23
5/8/2021 8:45:00 AM 7.16 44.888 0.038 6.83 3.12 11.26
5/8/2021 9:00:00 AM 7.19 44.942 0.038 6.84 2.64 11.27
5/8/2021 9:15:00 AM 7.22 44.996 0.038 6.85 2.83 11.27
5/8/2021 9:30:00 AM 7.26 45.068 0.038 6.84 2.56 11.28
5/8/2021 9:45:00 AM 7.33 45.194 0.038 6.86 2.69 11.29
5/8/2021 10:00:00 AM 7.37 45.266 0.038 6.87 2.6 11.28
5/8/2021 10:15:00 AM 7.39 45.302 0.038 6.87 2.86 11.24
5/8/2021 10:30:00 AM 7.43 45.374 0.038 6.86 2.64 11.24
5/8/2021 10:45:00 AM 7.45 45.41 0.038 6.86 2.68 11.24
5/8/2021 11:00:00 AM 7.48 45.464 0.038 6.87 2.61 11.25
5/8/2021 11:15:00 AM 7.5 45.5 0.038 6.87 2.5 11.25
5/8/2021 11:30:00 AM 7.6 45.68 0.038 6.89 2.67 11.25
5/8/2021 11:45:00 AM 7.65 45.77 0.038 6.88 2.75 11.23
5/8/2021 12:00:00 PM 7.81 46.058 0.038 6.89 2.57 11.22
5/8/2021 12:15:00 PM 7.86 46.148 0.038 6.9 2.54 11.2
5/8/2021 12:30:00 PM 8.07 46.526 0.038 6.9 2.9 11.18
5/8/2021 12:45:00 PM 8.23 46.814 0.038 6.92 2.67 11.13
5/8/2021 1:00:00 PM 8.27 46.886 0.038 6.92 2.93 11.08
5/8/2021 1:15:00 PM 8.41 47.138 0.038 6.92 2.53 11.05
5/8/2021 1:30:00 PM 8.49 47.282 0.038 6.93 2.66 11.06
5/8/2021 1:45:00 PM 8.64 47.552 0.038 6.94 2.59 11.01
5/8/2021 2:00:00 PM 8.72 47.696 0.038 6.93 2.68 10.93
5/8/2021 2:15:00 PM 8.91 48.038 0.038 6.93 2.54 10.93
5/8/2021 2:30:00 PM 8.87 47.966 0.038 6.93 2.56 10.94
5/8/2021 2:45:00 PM 8.88 47.984 0.038 6.93 2.66 10.89
5/8/2021 3:00:00 PM 9.11 48.398 0.038 6.94 2.56 10.86
5/8/2021 3:15:00 PM 9.14 48.452 0.038 6.95 11.9 10.87
5/8/2021 3:30:00 PM 9.12 48.416 0.038 6.94 2.82 10.84
5/8/2021 3:45:00 PM 9.07 48.326 0.038 6.91 2.75 10.8
5/8/2021 4:00:00 PM 9.19 48.542 0.038 6.92 2.61 10.81
5/8/2021 4:15:00 PM 9.26 48.668 0.038 6.93 2.89 10.81
5/8/2021 4:30:00 PM 9.23 48.614 0.038 6.92 3 10.79
5/8/2021 4:45:00 PM 9.17 48.506 0.038 6.9 2.94 10.74
5/8/2021 5:00:00 PM 9.1 48.38 0.038 6.89 2.71 10.73
5/8/2021 5:15:00 PM 9.07 48.326 0.038 6.88 2.91 10.74
5/8/2021 5:30:00 PM 9.02 48.236 0.038 6.88 2.79 10.75
5/8/2021 5:45:00 PM 8.99 48.182 0.038 6.88 2.89 10.78
5/8/2021 6:00:00 PM 8.97 48.146 0.038 6.89 2.8 10.79
5/8/2021 6:15:00 PM 8.91 48.038 0.038 6.87 2.75 10.79
5/8/2021 6:30:00 PM 8.84 47.912 0.038 6.86 2.64 10.79
5/8/2021 6:45:00 PM 8.79 47.822 0.038 6.86 2.67 10.78
5/8/2021 7:00:00 PM 8.78 47.804 0.038 6.86 2.54 10.78
5/8/2021 7:15:00 PM 8.75 47.75 0.038 6.85 2.75 10.78
5/8/2021 7:30:00 PM 8.74 47.732 0.038 6.85 3.27 10.76
5/8/2021 7:45:00 PM 8.7 47.66 0.038 6.84 2.76 10.75
5/8/2021 8:00:00 PM 8.64 47.552 0.038 6.82 2.9 10.73
5/8/2021 8:15:00 PM 8.6 47.48 0.038 6.81 3 10.72
5/8/2021 8:30:00 PM 8.55 47.39 0.038 6.79 2.82 10.7
5/8/2021 8:45:00 PM 8.51 47.318 0.038 6.79 2.97 10.69
5/8/2021 9:00:00 PM 8.45 47.21 0.038 6.78 2.71 10.69
5/8/2021 9:15:00 PM 8.4 47.12 0.038 6.76 3.04 10.69
5/8/2021 9:30:00 PM 8.36 47.048 0.039 6.76 3.29 10.7
5/8/2021 9:45:00 PM 8.31 46.958 0.039 6.76 2.91 10.72
5/8/2021 10:00:00 PM 8.27 46.886 0.039 6.75 3.03 10.73
5/8/2021 10:15:00 PM 8.22 46.796 0.039 6.75 2.88 10.74
5/8/2021 10:30:00 PM 8.16 46.688 0.039 6.75 3.1 10.75
5/8/2021 10:45:00 PM 8.1 46.58 0.039 6.75 2.85 10.77
5/8/2021 11:00:00 PM 8.05 46.49 0.039 6.74 3.11 10.79
5/8/2021 11:15:00 PM 7.98 46.364 0.039 6.75 2.98 10.81
5/8/2021 11:30:00 PM 7.92 46.256 0.039 6.76 2.98 10.82
5/8/2021 11:45:00 PM 7.86 46.148 0.039 6.75 2.83 10.84
5/9/2021 12:00:00 AM 7.8 46.04 0.039 6.75 3.05 10.86
5/9/2021 12:15:00 AM 7.75 45.95 0.039 6.75 2.79 10.88
5/9/2021 12:30:00 AM 7.69 45.842 0.039 6.74 2.91 10.9
5/9/2021 12:45:00 AM 7.64 45.752 0.039 6.75 2.95 10.92
5/9/2021 1:00:00 AM 7.58 45.644 0.039 6.75 3.41 10.94
5/9/2021 1:15:00 AM 7.54 45.572 0.039 6.75 2.83 10.94
5/9/2021 1:30:00 AM 7.49 45.482 0.039 6.74 2.82 10.96
5/9/2021 1:45:00 AM 7.43 45.374 0.039 6.75 2.7 10.97
5/9/2021 2:00:00 AM 7.37 45.266 0.039 6.74 2.76 10.98
5/9/2021 2:15:00 AM 7.3 45.14 0.039 6.75 2.97 11.01
5/9/2021 2:30:00 AM 7.25 45.05 0.039 6.74 2.75 11.03
5/9/2021 2:45:00 AM 7.18 44.924 0.039 6.74 2.77 11.05
5/9/2021 3:00:00 AM 7.12 44.816 0.039 6.73 2.93 11.07
5/9/2021 3:15:00 AM 7.06 44.708 0.039 6.73 2.95 11.08
5/9/2021 3:30:00 AM 7.01 44.618 0.039 6.73 2.7 11.11
5/9/2021 3:45:00 AM 6.95 44.51 0.039 6.74 2.68 11.12
5/9/2021 4:00:00 AM 6.9 44.42 0.039 6.74 2.7 11.14
5/9/2021 4:15:00 AM 6.85 44.33 0.039 6.74 2.85 11.15
5/9/2021 4:30:00 AM 6.8 44.24 0.039 6.74 2.72 11.17
5/9/2021 4:45:00 AM 6.76 44.168 0.039 6.74 2.72 11.19
5/9/2021 5:00:00 AM 6.72 44.096 0.039 6.75 2.9 11.2
5/9/2021 5:15:00 AM 6.69 44.042 0.039 6.73 2.7 11.21
5/9/2021 5:30:00 AM 6.65 43.97 0.039 6.74 2.85 11.22
5/9/2021 5:45:00 AM 6.6 43.88 0.039 6.74 2.79 11.24
5/9/2021 6:00:00 AM 6.56 43.808 0.039 6.74 2.75 11.25
5/9/2021 6:15:00 AM 6.51 43.718 0.039 6.74 2.7 11.28
5/9/2021 6:30:00 AM 6.48 43.664 0.039 6.73 2.76 11.31
5/9/2021 6:45:00 AM 6.46 43.628 0.039 6.73 2.99 11.34
5/9/2021 7:00:00 AM 6.43 43.574 0.039 6.74 2.77 11.37
5/9/2021 7:15:00 AM 6.41 43.538 0.039 6.76 2.66 11.41
5/9/2021 7:30:00 AM 6.41 43.538 0.039 6.78 2.6 11.45
5/9/2021 7:45:00 AM 6.41 43.538 0.039 6.78 2.55 11.49
5/9/2021 8:00:00 AM 6.43 43.574 0.039 6.8 2.5 11.53
5/9/2021 8:15:00 AM 6.46 43.628 0.039 6.81 2.54 11.56
5/9/2021 8:30:00 AM 6.49 43.682 0.039 6.82 2.59 11.57
5/9/2021 8:45:00 AM 6.53 43.754 0.039 6.84 2.5 11.56
5/9/2021 9:00:00 AM 6.59 43.862 0.039 6.85 2.44 11.57
5/9/2021 9:15:00 AM 6.67 44.006 0.039 6.85 2.52 11.55
5/9/2021 9:30:00 AM 6.78 44.204 0.038 6.87 2.61 11.55
5/9/2021 9:45:00 AM 6.9 44.42 0.038 6.87 2.62 11.53
5/9/2021 10:00:00 AM 7.01 44.618 0.038 6.88 2.79 11.51
5/9/2021 10:15:00 AM 7.06 44.708 0.038 6.89 2.47 11.48
5/9/2021 10:30:00 AM 7.09 44.762 0.038 6.88 2.53 11.46
5/9/2021 10:45:00 AM 7.12 44.816 0.038 6.88 2.53 11.45
5/9/2021 11:00:00 AM 7.16 44.888 0.038 6.89 2.74 11.43
5/9/2021 11:15:00 AM 7.21 44.978 0.038 6.9 2.76 11.42
5/9/2021 11:30:00 AM 7.26 45.068 0.038 6.9 2.45 11.4
5/9/2021 11:45:00 AM 7.29 45.122 0.038 6.9 2.57 11.39
5/9/2021 12:00:00 PM 7.3 45.14 0.038 6.89 2.35 11.37
5/9/2021 12:15:00 PM 7.3 45.14 0.038 6.89 2.53 11.35
5/9/2021 12:30:00 PM 7.31 45.158 0.038 6.89 2.61 11.34
5/9/2021 12:45:00 PM 7.31 45.158 0.038 6.89 2.56 11.34
5/9/2021 1:00:00 PM 7.3 45.14 0.038 6.87 2.65 11.31
5/9/2021 1:15:00 PM 7.29 45.122 0.038 6.87 2.71 11.3
5/9/2021 1:30:00 PM 7.27 45.086 0.038 6.85 2.72 11.29
5/9/2021 1:45:00 PM 7.22 44.996 0.038 6.84 2.94 11.29
5/9/2021 2:00:00 PM 7.19 44.942 0.038 6.83 2.6 11.29
5/9/2021 2:15:00 PM 7.15 44.87 0.038 6.83 2.96 11.3
5/9/2021 2:30:00 PM 7.13 44.834 0.038 6.83 2.76 11.29
5/9/2021 2:45:00 PM 7.08 44.744 0.038 6.82 2.79 11.28
5/9/2021 3:00:00 PM 6.99 44.582 0.038 6.8 2.6 11.28
5/9/2021 3:15:00 PM 6.83 44.294 0.038 6.79 2.85 11.28
5/9/2021 3:30:00 PM 6.64 43.952 0.038 6.76 2.73 11.29
5/9/2021 3:45:00 PM 6.52 43.736 0.037 6.77 2.84 11.32
5/9/2021 4:00:00 PM 6.38 43.484 0.037 6.76 3 11.35
5/9/2021 4:15:00 PM 6.29 43.322 0.037 6.77 3.05 11.39
5/9/2021 4:30:00 PM 6.22 43.196 0.038 6.77 3.15 11.41
5/9/2021 4:45:00 PM 6.19 43.142 0.038 6.76 4.52 11.43
5/9/2021 5:00:00 PM 6.18 43.124 0.038 6.76 4.07 11.44
5/9/2021 5:15:00 PM 6.17 43.106 0.038 6.76 4 11.43
5/9/2021 5:30:00 PM 6.17 43.106 0.038 6.76 4.77 11.43
5/9/2021 5:45:00 PM 6.16 43.088 0.038 6.75 4.35 11.43
5/9/2021 6:00:00 PM 6.14 43.052 0.038 6.75 4.39 11.42
5/9/2021 6:15:00 PM 6.12 43.016 0.038 6.74 3.93 11.41
5/9/2021 6:30:00 PM 6.11 42.998 0.038 6.71 4.9 11.41
5/9/2021 6:45:00 PM 6.09 42.962 0.038 6.72 4.4 11.39
5/9/2021 7:00:00 PM 6.07 42.926 0.038 6.73 4.93 11.38
5/9/2021 7:15:00 PM 6.05 42.89 0.038 6.73 5.06 11.37
5/9/2021 7:30:00 PM 6.02 42.836 0.038 6.73 6.15 11.37
5/9/2021 7:45:00 PM 6 42.8 0.039 6.73 5.84 11.37
5/9/2021 8:00:00 PM 5.98 42.764 0.039 6.73 7.38 11.37
5/9/2021 8:15:00 PM 5.96 42.728 0.039 6.72 7.99 11.36
5/9/2021 8:30:00 PM 5.95 42.71 0.039 6.72 8.25 11.36
5/9/2021 8:45:00 PM 5.94 42.692 0.039 6.73 9.22 11.36
5/9/2021 9:00:00 PM 5.93 42.674 0.039 6.72 9.18 11.37
5/9/2021 9:15:00 PM 5.93 42.674 0.039 6.72 9.53 11.36
5/9/2021 9:30:00 PM 5.93 42.674 0.038 6.71 10.11 11.36
5/9/2021 9:45:00 PM 5.94 42.692 0.039 6.72 10.53 11.37
5/9/2021 10:00:00 PM 5.95 42.71 0.039 6.71 11.01 11.36
5/9/2021 10:15:00 PM 5.96 42.728 0.039 6.72 11.16 11.36
5/9/2021 10:30:00 PM 5.98 42.764 0.039 6.67 11.64 11.35
5/9/2021 10:45:00 PM 5.99 42.782 0.038 6.64 10.68 11.35
5/9/2021 11:00:00 PM 6.01 42.818 0.038 6.65 10.96 11.34
5/9/2021 11:15:00 PM 6.03 42.854 0.038 6.64 11.96 11.34
5/9/2021 11:30:00 PM 6.05 42.89 0.038 6.62 11.74 11.33
5/9/2021 11:45:00 PM 6.07 42.926 0.038 6.6 11.49 11.32
5/10/2021 12:00:00 AM 6.09 42.962 0.038 6.6 12.21 11.32
5/10/2021 12:15:00 AM 6.12 43.016 0.038 6.62 11.67 11.31
5/10/2021 12:30:00 AM 6.15 43.07 0.038 6.62 14.23 11.3
5/10/2021 12:45:00 AM 6.17 43.106 0.038 6.6 12.74 11.29
5/10/2021 1:00:00 AM 6.2 43.16 0.037 6.64 13.47 11.29
5/10/2021 1:15:00 AM 6.22 43.196 0.037 6.64 12.54 11.29
5/10/2021 1:30:00 AM 6.25 43.25 0.037 6.63 14.9 11.28
5/10/2021 1:45:00 AM 6.27 43.286 0.037 6.64 14.54 11.28
5/10/2021 2:00:00 AM 6.3 43.34 0.024 6.65 13.89 11.28
5/10/2021 2:15:00 AM 6.32 43.376 0.026 6.62 14.32 11.28
5/10/2021 2:30:00 AM 6.35 43.43 0.025 6.46 13.13 11.26
5/10/2021 2:45:00 AM 6.38 43.484 0.022 6.43 13.48 11.26
5/10/2021 3:00:00 AM 6.4 43.52 0.02 6.43 13.51 11.26
5/10/2021 3:15:00 AM 6.42 43.556 0.027 6.49 13.84 11.22
5/10/2021 3:30:00 AM 6.43 43.574 0.026 6.5 15.12 11.24
5/10/2021 3:45:00 AM 6.45 43.61 0.025 6.44 14.94 11.24
5/10/2021 4:00:00 AM 6.46 43.628 0.023 6.44 12.47 11.24
5/10/2021 4:15:00 AM 6.48 43.664 0.022 6.47 14.24 11.24
5/10/2021 4:30:00 AM 6.5 43.7 0.022 6.44 14.2 11.22
5/10/2021 4:45:00 AM 6.52 43.736 0.021 6.43 15.12 11.22
5/10/2021 5:00:00 AM 6.54 43.772 0.02 6.42 15.38 11.24
5/10/2021 5:15:00 AM 6.55 43.79 0.019 6.41 16.01 11.24
5/10/2021 5:30:00 AM 6.57 43.826 0.03 6.43 16.81 11.1
5/10/2021 5:45:00 AM 6.58 43.844 0.028 6.46 15.39 11.19
5/10/2021 6:00:00 AM 6.6 43.88 0.027 6.48 23.77 11.18
5/10/2021 6:15:00 AM 6.61 43.898 0.026 6.46 15.87 11.17
5/10/2021 6:30:00 AM 6.63 43.934 0.026 6.46 16.32 11.15
5/10/2021 6:45:00 AM 6.64 43.952 0.025 6.46 16.86 11.19
5/10/2021 7:00:00 AM 6.66 43.988 0.024 6.46 16.39 11.17
5/10/2021 7:15:00 AM 6.68 44.024 0.024 6.45 19.15 11.21
5/10/2021 7:30:00 AM 6.71 44.078 0.023 6.47 108.69 11.26
5/10/2021 7:45:00 AM 6.72 44.096 0.023 6.45 67.06 11.26
5/10/2021 8:00:00 AM 6.75 44.15 0.022 6.43 28.83 11.24
5/10/2021 8:15:00 AM 6.79 44.222 0.022 6.44 20.13 11.28
5/10/2021 8:30:00 AM 6.82 44.276 0.022 6.45 18.02 11.26
5/10/2021 8:45:00 AM 6.87 44.366 0.021 6.51 16.13 11.16
5/10/2021 9:00:00 AM 6.93 44.474 0.021 6.52 16.21 11.25
5/10/2021 9:15:00 AM 7 44.6 0.02 6.52 11.95 11.21
5/10/2021 9:30:00 AM 7.09 44.762 0.019 6.49 16.73 11.23
5/10/2021 9:45:00 AM 7.18 44.924 0.019 6.5 62.39 11.22
5/10/2021 10:00:00 AM 7.28 45.104 0.019 6.53 19.13 11.23
5/10/2021 10:15:00 AM 7.4 45.32 0.019 6.55 15.81 11.21
5/10/2021 10:30:00 AM 7.52 45.536 0.023 6.56 15.69 11.18
5/10/2021 10:45:00 AM 7.65 45.77 0.022 6.62 17.1 11.18
5/10/2021 11:00:00 AM 7.79 46.022 0.021 6.63 17.54 11.15
5/10/2021 11:15:00 AM 7.93 46.274 0.021 6.61 15.64 11.12
5/10/2021 11:30:00 AM 8.09 46.562 0.02 6.61 13.83 11.09
5/10/2021 11:45:00 AM 8.27 46.886 0.019 6.6 20.79 11.07
5/10/2021 12:00:00 PM 8.36 47.048 0.025 6.54 13.12 11
5/10/2021 12:15:00 PM 8.4 47.12 0.024 6.52 13 11.01
5/10/2021 12:30:00 PM 8.47 47.246 0.022 6.56 15.45 10.98
5/10/2021 12:45:00 PM 8.5 47.3 0.022 6.52 14.05 10.96
5/10/2021 1:00:00 PM 8.54 47.372 0.021 6.53 12.06 10.95
5/10/2021 1:15:00 PM 8.66 47.588 0.021 6.5 13.38 10.92
5/10/2021 1:30:00 PM 8.79 47.822 0.021 6.6 14.89 10.9
5/10/2021 1:45:00 PM 8.98 48.164 0.021 6.62 13.48 10.86
5/10/2021 2:00:00 PM 9.07 48.326 0.02 6.59 14.39 10.83
5/10/2021 2:15:00 PM 9.14 48.452 0.02 6.64 23.45 10.79
5/10/2021 2:30:00 PM 9.19 48.542 0.02 6.6 13.06 10.78
5/10/2021 2:45:00 PM 9.18 48.524 0.019 6.53 13.45 10.78
5/10/2021 3:00:00 PM 9.17 48.506 0.023 6.49 13.52 10.76
5/10/2021 3:15:00 PM 9.18 48.524 0.022 6.51 12.55 10.77
5/10/2021 3:30:00 PM 9.13 48.434 0.021 6.49 13.09 10.76
5/10/2021 3:45:00 PM 9.09 48.362 0.02 6.47 12.98 10.76
5/10/2021 4:00:00 PM 9.06 48.308 0.019 6.5 11.53 10.75
5/10/2021 4:15:00 PM 9.04 48.272 0.024 6.52 13.98 10.76
5/10/2021 4:30:00 PM 9.01 48.218 0.022 6.51 11.11 10.76
5/10/2021 4:45:00 PM 8.99 48.182 0.021 6.51 11.46 10.77
5/10/2021 5:00:00 PM 8.93 48.074 0.02 6.53 10.09 10.77
5/10/2021 5:15:00 PM 8.89 48.002 0.021 6.56 12.34 10.78
5/10/2021 5:30:00 PM 8.89 48.002 0.021 6.58 11.06 10.78
5/10/2021 5:45:00 PM 8.86 47.948 0.028 6.52 10.45 10.78
5/10/2021 6:00:00 PM 8.83 47.894 0.024 6.49 10.91 10.78
5/10/2021 6:15:00 PM 8.79 47.822 0.028 6.52 10.46 10.78
5/10/2021 6:30:00 PM 8.74 47.732 0.031 6.52 10.6 10.75
5/10/2021 6:45:00 PM 8.68 47.624 0.029 6.54 12.2 10.77
5/10/2021 7:00:00 PM 8.61 47.498 0.028 6.53 12.94 10.78
5/10/2021 7:15:00 PM 8.54 47.372 0.027 6.5 12.65 10.79
5/10/2021 7:30:00 PM 8.47 47.246 0.025 6.48 8.97 10.8
5/10/2021 7:45:00 PM 8.4 47.12 0.024 6.48 15.39 10.81
5/10/2021 8:00:00 PM 8.33 46.994 0.023 6.5 10.29 10.81
5/10/2021 8:15:00 PM 8.25 46.85 0.022 6.48 9.2 10.82
5/10/2021 8:30:00 PM 8.18 46.724 0.02 6.49 10.51 10.83
5/10/2021 8:45:00 PM 8.11 46.598 0.018 6.45 8.63 10.85
5/10/2021 9:00:00 PM 8.04 46.472 0.018 6.47 8.47 10.86
5/10/2021 9:15:00 PM 7.97 46.346 0.02 6.47 9.13 10.87
5/10/2021 9:30:00 PM 7.91 46.238 0.022 6.45 9.98 10.86
5/10/2021 9:45:00 PM 7.84 46.112 0.032 6.44 10.35 10.9
5/10/2021 10:00:00 PM 7.79 46.022 0.032 6.41 8.22 10.93
5/10/2021 10:15:00 PM 7.73 45.914 0.031 6.4 9.88 10.94
5/10/2021 10:30:00 PM 7.68 45.824 0.032 6.37 8.68 10.96
5/10/2021 10:45:00 PM 7.63 45.734 0.031 6.38 7.68 10.97
5/10/2021 11:00:00 PM 7.58 45.644 0.031 6.43 10.78 10.99
5/10/2021 11:15:00 PM 7.53 45.554 0.031 6.43 8.67 11
5/10/2021 11:30:00 PM 7.48 45.464 0.031 6.43 7.82 11.02
5/10/2021 11:45:00 PM 7.44 45.392 0.031 6.44 8.57 11.02
5/11/2021 12:00:00 AM 7.39 45.302 0.031 6.43 8.18 11.03
5/11/2021 12:15:00 AM 7.35 45.23 0.031 6.43 8.01 11.03
5/11/2021 12:30:00 AM 7.31 45.158 0.03 6.42 8 11.05
5/11/2021 12:45:00 AM 7.27 45.086 0.03 6.42 9.26 11.06
5/11/2021 1:00:00 AM 7.24 45.032 0.03 6.43 8.78 11.08
5/11/2021 1:15:00 AM 7.2 44.96 0.03 6.44 8.22 11.09
5/11/2021 1:30:00 AM 7.17 44.906 0.03 6.43 8.04 11.09
5/11/2021 1:45:00 AM 7.13 44.834 0.03 6.43 7.49 11.11
5/11/2021 2:00:00 AM 7.1 44.78 0.029 6.43 8.35 11.12
5/11/2021 2:15:00 AM 7.06 44.708 0.029 6.44 9.32 11.13
5/11/2021 2:30:00 AM 7.03 44.654 0.029 6.44 7.83 11.12
5/11/2021 2:45:00 AM 7 44.6 0.029 6.44 8.58 11.12
5/11/2021 3:00:00 AM 6.97 44.546 0.029 6.46 9.12 11.12
5/11/2021 3:15:00 AM 6.95 44.51 0.029 6.46 9.38 11.09
5/11/2021 3:30:00 AM 6.93 44.474 0.029 6.47 11.84 11.12
5/11/2021 3:45:00 AM 6.91 44.438 0.028 6.49 10.07 11.16
5/11/2021 4:00:00 AM 6.9 44.42 0.028 6.48 9.29 11.15
5/11/2021 4:15:00 AM 6.88 44.384 0.028 6.47 10.97 11.17
5/11/2021 4:30:00 AM 6.85 44.33 0.028 6.51 9.65 11.19
5/11/2021 4:45:00 AM 6.82 44.276 0.028 6.45 9.3 11.18
5/11/2021 5:00:00 AM 6.78 44.204 0.028 6.43 10.74 11.18
5/11/2021 5:15:00 AM 6.75 44.15 0.028 6.39 14.55 11.24
5/11/2021 5:30:00 AM 6.72 44.096 0.028 6.4 11.64 11.24
5/11/2021 5:45:00 AM 6.7 44.06 0.027 6.41 7.59 11.24
5/11/2021 6:00:00 AM 6.67 44.006 0.027 6.42 7.41 11.25
5/11/2021 6:15:00 AM 6.65 43.97 0.027 6.43 62.25 11.23
5/11/2021 6:30:00 AM 6.63 43.934 0.027 6.44 7.15 11.27
5/11/2021 6:45:00 AM 6.6 43.88 0.027 6.42 7.9 11.3
5/11/2021 7:00:00 AM 6.59 43.862 0.027 6.39 15.02 11.34
5/11/2021 7:15:00 AM 6.57 43.826 0.027 6.44 12.52 11.35
5/11/2021 7:30:00 AM 6.57 43.826 0.027 6.45 6.83 11.37
5/11/2021 7:45:00 AM 6.57 43.826 0.026 6.46 8.64 11.36
5/11/2021 8:00:00 AM 6.59 43.862 0.026 6.44 11.57 11.39
5/11/2021 8:15:00 AM 6.62 43.916 0.026 6.47 6.28 11.37
5/11/2021 8:30:00 AM 6.65 43.97 0.026 6.48 8.13 11.4
5/11/2021 8:45:00 AM 6.71 44.078 0.026 6.49 5.75 11.38
5/11/2021 9:00:00 AM 6.77 44.186 0.026 6.51 6.27 11.39
5/11/2021 9:15:00 AM 6.85 44.33 0.026 6.49 6.37 11.39
5/11/2021 9:30:00 AM 6.96 44.528 0.026 6.49 33.88 11.38
5/11/2021 9:45:00 AM 7.05 44.69 0.026 6.53 27.55 11.35
5/11/2021 10:00:00 AM 7.16 44.888 0.025 6.54 9.72 11.34
5/11/2021 10:15:00 AM 7.26 45.068 0.025 6.55 9.94 11.31
5/11/2021 10:30:00 AM 7.33 45.194 0.025 6.55 10.18 11.29
5/11/2021 10:45:00 AM 7.33 45.194 0.025 6.55 7.59 11.26
5/11/2021 11:00:00 AM 7.4 45.32 0.025 6.56 8 11.26
5/11/2021 11:15:00 AM 7.55 45.59 0.024 6.55 8.13 11.23
5/11/2021 11:30:00 AM 7.74 45.932 0.024 6.57 14.94 11.2
5/11/2021 11:45:00 AM 7.92 46.256 0.024 6.58 10.27 11.16
5/11/2021 12:00:00 PM 8.06 46.508 0.024 6.57 16.54 11.12
5/11/2021 12:15:00 PM 8.17 46.706 0.024 6.56 37.58 11.1
5/11/2021 12:30:00 PM 8.23 46.814 0.023 6.62 6.28 11.08
5/11/2021 12:45:00 PM 8.35 47.03 0.023 6.62 5.28 11.06
5/11/2021 1:00:00 PM 8.51 47.318 0.023 6.67 5.49 11.02
5/11/2021 1:15:00 PM 8.61 47.498 0.023 6.66 5.27 10.98
5/11/2021 1:30:00 PM 8.74 47.732 0.023 6.68 5.4 10.95
5/11/2021 1:45:00 PM 8.8 47.84 0.023 6.68 7.1 10.91
5/11/2021 2:00:00 PM 8.85 47.93 0.023 6.66 10.05 10.89
5/11/2021 2:15:00 PM 8.97 48.146 0.023 6.67 5.25 10.87
5/11/2021 2:30:00 PM 8.98 48.164 0.023 6.65 5.19 10.85
5/11/2021 2:45:00 PM 8.99 48.182 0.022 6.64 5.57 10.85
5/11/2021 3:00:00 PM 9.08 48.344 0.022 6.67 4.77 10.83
5/11/2021 3:15:00 PM 9.12 48.416 0.022 6.65 5.19 10.81
5/11/2021 3:30:00 PM 9.17 48.506 0.022 6.66 6.11 10.78
5/11/2021 3:45:00 PM 9.21 48.578 0.021 6.64 6.57 10.77
5/11/2021 4:00:00 PM 9.2 48.56 0.021 6.61 5.36 10.76
5/11/2021 4:15:00 PM 9.19 48.542 0.021 6.61 5.95 10.76
5/11/2021 4:30:00 PM 9.17 48.506 0.021 6.6 6.05 10.76
5/11/2021 4:45:00 PM 9.22 48.596 0.02 6.62 5.74 10.76
5/11/2021 5:00:00 PM 9.21 48.578 0.02 6.61 5.55 10.75
5/11/2021 5:15:00 PM 9.22 48.596 0.019 6.63 5.44 10.75
5/11/2021 5:30:00 PM 9.21 48.578 0.019 6.63 5.79 10.75
5/11/2021 5:45:00 PM 9.14 48.452 0.018 6.61 5.66 10.75
5/11/2021 6:00:00 PM 9.04 48.272 0.018 6.54 6.08 10.77
5/11/2021 6:15:00 PM 8.95 48.11 0.019 6.57 5.35 10.78
5/11/2021 6:30:00 PM 8.86 47.948 0.02 6.55 5.46 10.8
5/11/2021 6:45:00 PM 8.78 47.804 0.022 6.53 12 10.77
5/11/2021 7:00:00 PM 8.69 47.642 0.021 6.53 6.37 10.82
5/11/2021 7:15:00 PM 8.61 47.498 0.023 6.48 9.2 10.81
5/11/2021 7:30:00 PM 8.51 47.318 0.021 6.53 5.89 10.85
5/11/2021 7:45:00 PM 8.41 47.138 0.022 6.51 6.32 10.86
5/11/2021 8:00:00 PM 8.31 46.958 0.023 6.54 12.25 10.86
5/11/2021 8:15:00 PM 8.22 46.796 0.024 6.5 12.42 10.88
5/11/2021 8:30:00 PM 8.12 46.616 0.022 6.5 7.77 10.9
5/11/2021 8:45:00 PM 8.03 46.454 0.023 6.46 13.61 10.91
5/11/2021 9:00:00 PM 7.94 46.292 0.023 6.49 10.64 10.93
5/11/2021 9:15:00 PM 7.85 46.13 0.022 6.5 5.29 10.96
5/11/2021 9:30:00 PM 7.77 45.986 0.022 6.49 9.08 10.98
5/11/2021 9:45:00 PM 7.7 45.86 0.023 6.55 9.72 11
5/11/2021 10:00:00 PM 7.62 45.716 0.029 6.5 11.97 11.02
5/11/2021 10:15:00 PM 7.54 45.572 0.027 6.47 9.72 10.99
5/11/2021 10:30:00 PM 7.47 45.446 0.025 6.51 5.51 11.06
5/11/2021 10:45:00 PM 7.39 45.302 0.023 6.52 6.53 11.08
5/11/2021 11:00:00 PM 7.32 45.176 0.022 6.56 6.12 11.1
5/11/2021 11:15:00 PM 7.25 45.05 0.023 6.57 14.97 11.12
5/11/2021 11:30:00 PM 7.18 44.924 0.029 6.58 14.21 11.15
5/11/2021 11:45:00 PM 7.12 44.816 0.026 6.56 8.08 11.05
5/12/2021 12:00:00 AM 7.07 44.726 0.027 6.42 44.83 11.18
5/12/2021 12:15:00 AM 7.02 44.636 0.027 6.51 9.89 11.2
5/12/2021 12:30:00 AM 6.97 44.546 0.026 6.57 10.6 11.22
5/12/2021 12:45:00 AM 6.92 44.456 0.035 6.59 6.75 11.23
5/12/2021 1:00:00 AM 6.87 44.366 0.035 6.6 9.47 11.25
5/12/2021 1:15:00 AM 6.83 44.294 0.029 6.55 9.05 11.26
5/12/2021 1:30:00 AM 6.78 44.204 0.035 6.51 7.56 11.27
5/12/2021 1:45:00 AM 6.72 44.096 0.035 6.51 5.97 11.29
5/12/2021 2:00:00 AM 6.68 44.024 0.035 6.51 5.63 11.31
5/12/2021 2:15:00 AM 6.64 43.952 0.035 6.47 6.59 11.31
5/12/2021 2:30:00 AM 6.61 43.898 0.035 6.51 6.49 11.33
5/12/2021 2:45:00 AM 6.58 43.844 0.035 6.55 5.24 11.34
5/12/2021 3:00:00 AM 6.55 43.79 0.035 6.51 5.22 11.35
5/12/2021 3:15:00 AM 6.52 43.736 0.035 6.48 5.81 11.36
5/12/2021 3:30:00 AM 6.51 43.718 0.035 6.5 5.04 11.37
5/12/2021 3:45:00 AM 6.5 43.7 0.035 6.47 4.81 11.37
5/12/2021 4:00:00 AM 6.49 43.682 0.035 6.49 5.22 11.38
5/12/2021 4:15:00 AM 6.48 43.664 0.035 6.5 4.82 11.38
5/12/2021 4:30:00 AM 6.46 43.628 0.035 6.51 4.98 11.39
5/12/2021 4:45:00 AM 6.44 43.592 0.035 6.5 4.9 11.39
5/12/2021 5:00:00 AM 6.42 43.556 0.035 6.51 5.04 11.4
5/12/2021 5:15:00 AM 6.4 43.52 0.035 6.48 4.83 11.4
5/12/2021 5:30:00 AM 6.38 43.484 0.035 6.51 5.33 11.41
5/12/2021 5:45:00 AM 6.36 43.448 0.035 6.52 4.85 11.42
5/12/2021 6:00:00 AM 6.33 43.394 0.035 6.5 4.81 11.43
5/12/2021 6:15:00 AM 6.31 43.358 0.035 6.47 5.06 11.44
5/12/2021 6:30:00 AM 6.3 43.34 0.035 6.49 4.82 11.46
5/12/2021 6:45:00 AM 6.29 43.322 0.035 6.52 4.93 11.48
5/12/2021 7:00:00 AM 6.28 43.304 0.035 6.5 4.83 11.49
5/12/2021 7:15:00 AM 6.29 43.322 0.035 6.51 5.17 11.52
5/12/2021 7:30:00 AM 6.32 43.376 0.035 6.52 4.59 11.54
5/12/2021 7:45:00 AM 6.36 43.448 0.035 6.53 4.98 11.56
5/12/2021 8:00:00 AM 6.4 43.52 0.035 6.56 4.56 11.57
5/12/2021 8:15:00 AM 6.45 43.61 0.035 6.55 4.45 11.56
5/12/2021 8:30:00 AM 6.54 43.772 0.035 6.57 4.52 11.56
5/12/2021 8:45:00 AM 6.6 43.88 0.035 6.62 4.5 11.55
5/12/2021 9:00:00 AM 6.67 44.006 0.035 6.61 4.53 11.53
5/12/2021 9:15:00 AM 6.76 44.168 0.035 6.62 4.29 11.52
5/12/2021 9:30:00 AM 6.87 44.366 0.035 6.61 4.22 11.5
5/12/2021 9:45:00 AM 6.98 44.564 0.035 6.63 4.41 11.47
5/12/2021 10:00:00 AM 7.1 44.78 0.035 6.61 4.28 11.45
5/12/2021 10:15:00 AM 7.23 45.014 0.035 6.62 4.08 11.42
5/12/2021 10:30:00 AM 7.39 45.302 0.035 6.64 4.31 11.38
5/12/2021 10:45:00 AM 7.55 45.59 0.035 6.66 4.17 11.35
5/12/2021 11:00:00 AM 7.73 45.914 0.035 6.67 4.27 11.31
5/12/2021 11:15:00 AM 7.87 46.166 0.035 6.68 4.26 11.27
5/12/2021 11:30:00 AM 8.05 46.49 0.035 6.71 4.36 11.23
5/12/2021 11:45:00 AM 8.17 46.706 0.035 6.69 4.23 11.2
5/12/2021 12:00:00 PM 8.31 46.958 0.035 6.7 4.12 11.16
5/12/2021 12:15:00 PM 8.48 47.264 0.035 6.69 4.22 11.11
5/12/2021 12:30:00 PM 8.65 47.57 0.035 6.73 4.12 11.07
5/12/2021 12:45:00 PM 8.81 47.858 0.035 6.78 4.2 11.03
5/12/2021 1:00:00 PM 8.91 48.038 0.035 6.79 4.26 10.99
5/12/2021 1:15:00 PM 8.98 48.164 0.035 6.8 4.29 10.97
5/12/2021 1:30:00 PM 9.07 48.326 0.035 6.8 4.11 10.92
5/12/2021 1:45:00 PM 9.12 48.416 0.035 6.82 4.27 10.91
5/12/2021 2:00:00 PM 9.18 48.524 0.035 6.81 4.17 10.9
5/12/2021 2:15:00 PM 9.33 48.794 0.035 6.82 4.4 10.88
5/12/2021 2:30:00 PM 9.37 48.866 0.035 6.8 4.16 10.84
5/12/2021 2:45:00 PM 9.39 48.902 0.035 6.77 4.59 10.83
5/12/2021 3:00:00 PM 9.49 49.082 0.035 6.76 4.8 10.83
5/12/2021 3:15:00 PM 9.61 49.298 0.035 6.72 4.19 10.8
5/12/2021 3:30:00 PM 9.81 49.658 0.035 6.75 4.98 10.77
5/12/2021 3:45:00 PM 9.84 49.712 0.035 6.75 4.33 10.74
5/12/2021 4:00:00 PM 9.87 49.766 0.035 6.76 4.67 10.71
5/12/2021 4:15:00 PM 9.86 49.748 0.035 6.76 4.34 10.69
5/12/2021 4:30:00 PM 9.78 49.604 0.035 6.76 4.32 10.68
5/12/2021 4:45:00 PM 9.71 49.478 0.035 6.75 4.25 10.67
5/12/2021 5:00:00 PM 9.65 49.37 0.035 6.75 4.73 10.7
5/12/2021 5:15:00 PM 9.59 49.262 0.035 6.71 4.33 10.71
5/12/2021 5:30:00 PM 9.61 49.298 0.035 6.71 4.93 10.72
5/12/2021 5:45:00 PM 9.57 49.226 0.035 6.69 4.25 10.72
5/12/2021 6:00:00 PM 9.53 49.154 0.035 6.7 4.22 10.71
5/12/2021 6:15:00 PM 9.46 49.028 0.035 6.67 4.29 10.71
5/12/2021 6:30:00 PM 9.39 48.902 0.035 6.6 4.37 10.7
5/12/2021 6:45:00 PM 9.31 48.758 0.035 6.65 4.3 10.71
5/12/2021 7:00:00 PM 9.23 48.614 0.035 6.62 4.23 10.71
5/12/2021 7:15:00 PM 9.14 48.452 0.035 6.58 5.05 10.73
5/12/2021 7:30:00 PM 9.03 48.254 0.035 6.57 4.5 10.74
5/12/2021 7:45:00 PM 8.95 48.11 0.035 6.56 5.06 10.74
5/12/2021 8:00:00 PM 8.87 47.966 0.035 6.56 4.53 10.75
5/12/2021 8:15:00 PM 8.79 47.822 0.035 6.58 4.88 10.76
5/12/2021 8:30:00 PM 8.7 47.66 0.035 6.58 4.67 10.76
5/12/2021 8:45:00 PM 8.62 47.516 0.035 6.56 4.4 10.78
5/12/2021 9:00:00 PM 8.54 47.372 0.035 6.46 4.34 10.79
5/12/2021 9:15:00 PM 8.46 47.228 0.035 6.42 4.51 10.81
5/12/2021 9:30:00 PM 8.38 47.084 0.035 6.49 4.69 10.83
5/12/2021 9:45:00 PM 8.29 46.922 0.036 6.47 4.42 10.86
5/12/2021 10:00:00 PM 8.21 46.778 0.036 6.52 5.28 10.88
5/12/2021 10:15:00 PM 8.12 46.616 0.036 6.49 4.92 10.91
5/12/2021 10:30:00 PM 8.04 46.472 0.036 6.48 4.99 10.93
5/12/2021 10:45:00 PM 7.95 46.31 0.036 6.51 4.41 10.95
5/12/2021 11:00:00 PM 7.87 46.166 0.036 6.53 4.45 10.98
5/12/2021 11:15:00 PM 7.79 46.022 0.036 6.53 4.42 11
5/12/2021 11:30:00 PM 7.71 45.878 0.036 6.51 4.43 11.03
5/12/2021 11:45:00 PM 7.63 45.734 0.036 6.51 4.34 11.05
5/13/2021 12:00:00 AM 7.55 45.59 0.036 6.48 4.44 11.07
5/13/2021 12:15:00 AM 7.47 45.446 0.036 6.5 4.51 11.1
5/13/2021 12:30:00 AM 7.39 45.302 0.036 6.49 4.29 11.12
5/13/2021 12:45:00 AM 7.32 45.176 0.036 6.52 4.21 11.14
5/13/2021 1:00:00 AM 7.24 45.032 0.036 6.56 4.28 11.17
5/13/2021 1:15:00 AM 7.17 44.906 0.036 6.52 4.56 11.19
5/13/2021 1:30:00 AM 7.1 44.78 0.036 6.54 4.46 11.21
5/13/2021 1:45:00 AM 7.03 44.654 0.036 6.51 4.31 11.23
5/13/2021 2:00:00 AM 6.96 44.528 0.036 6.54 5.91 11.26
5/13/2021 2:15:00 AM 6.89 44.402 0.036 6.58 11.49 11.27
5/13/2021 2:30:00 AM 6.83 44.294 0.036 6.61 3.7 11.29
5/13/2021 2:45:00 AM 6.77 44.186 0.035 6.57 8.58 11.3
5/13/2021 3:00:00 AM 6.71 44.078 0.036 6.62 3.94 11.32
5/13/2021 3:15:00 AM 6.64 43.952 0.036 6.65 3.96 11.34
5/13/2021 3:30:00 AM 6.59 43.862 0.036 6.66 3.73 11.36
5/13/2021 3:45:00 AM 6.53 43.754 0.036 6.62 3.52 11.38
5/13/2021 4:00:00 AM 6.48 43.664 0.036 6.63 3.47 11.4
5/13/2021 4:15:00 AM 6.42 43.556 0.036 6.62 3.65 11.42
5/13/2021 4:30:00 AM 6.37 43.466 0.036 6.62 3.61 11.43
5/13/2021 4:45:00 AM 6.32 43.376 0.036 6.63 3.81 11.45
5/13/2021 5:00:00 AM 6.28 43.304 0.036 6.62 3.4 11.47
5/13/2021 5:15:00 AM 6.23 43.214 0.036 6.62 3.72 11.48
5/13/2021 5:30:00 AM 6.19 43.142 0.036 6.58 9.66 11.48
5/13/2021 5:45:00 AM 6.14 43.052 0.036 6.6 4.85 11.5
5/13/2021 6:00:00 AM 6.1 42.98 0.036 6.6 3.25 11.51
5/13/2021 6:15:00 AM 6.07 42.926 0.036 6.58 3.08 11.53
5/13/2021 6:30:00 AM 6.03 42.854 0.036 6.59 3.11 11.55
5/13/2021 6:45:00 AM 6 42.8 0.036 6.62 2.82 11.58
5/13/2021 7:00:00 AM 5.98 42.764 0.036 6.6 2.78 11.6
5/13/2021 7:15:00 AM 5.96 42.728 0.036 6.57 7.41 11.62
5/13/2021 7:30:00 AM 5.96 42.728 0.036 6.61 2.66 11.65
5/13/2021 7:45:00 AM 5.96 42.728 0.036 6.64 2.49 11.66
5/13/2021 8:00:00 AM 5.97 42.746 0.036 6.63 2.43 11.68
5/13/2021 8:15:00 AM 6 42.8 0.036 6.65 2.58 11.69
5/13/2021 8:30:00 AM 6.04 42.872 0.036 6.68 2.96 11.69
5/13/2021 8:45:00 AM 6.1 42.98 0.036 6.69 2.61 11.69
5/13/2021 9:00:00 AM 6.17 43.106 0.036 6.71 2.5 11.68
5/13/2021 9:15:00 AM 6.26 43.268 0.036 6.73 2.63 11.67
5/13/2021 9:30:00 AM 6.39 43.502 0.036 6.74 2.38 11.66
5/13/2021 9:45:00 AM 6.53 43.754 0.036 6.74 2.31 11.63
5/13/2021 10:00:00 AM 6.71 44.078 0.036 6.76 2.42 11.59
5/13/2021 10:15:00 AM 6.89 44.402 0.036 6.75 2.54 11.55
5/13/2021 10:30:00 AM 7.07 44.726 0.036 6.77 2.7 11.52
5/13/2021 10:45:00 AM 7.16 44.888 0.036 6.79 2.48 11.47
5/13/2021 11:00:00 AM 7.19 44.942 0.036 6.75 2.45 11.45
5/13/2021 11:15:00 AM 7.22 44.996 0.036 6.75 2.45 11.43
5/13/2021 11:30:00 AM 7.34 45.212 0.036 6.76 2.4 11.41
5/13/2021 11:45:00 AM 7.47 45.446 0.036 6.77 2.27 11.39
5/13/2021 12:00:00 PM 7.69 45.842 0.036 6.78 2.44 11.35
5/13/2021 12:15:00 PM 7.8 46.04 0.035 6.78 2.41 11.3
5/13/2021 12:30:00 PM 8 46.4 0.035 6.81 2.52 11.26
5/13/2021 12:45:00 PM 8.1 46.58 0.035 6.82 2.59 11.22
5/13/2021 1:00:00 PM 8.25 46.85 0.035 6.83 2.53 11.19
5/13/2021 1:15:00 PM 8.41 47.138 0.035 6.85 3.26 11.15
5/13/2021 1:30:00 PM 8.49 47.282 0.035 6.85 2.61 11.11
5/13/2021 1:45:00 PM 8.58 47.444 0.035 6.81 2.57 11.07
5/13/2021 2:00:00 PM 8.57 47.426 0.031 6.75 2.59 11.02
5/13/2021 2:15:00 PM 8.67 47.606 0.032 6.76 2.72 11.03
5/13/2021 2:30:00 PM 8.74 47.732 0.035 6.76 2.81 10.99
5/13/2021 2:45:00 PM 8.82 47.876 0.035 6.79 2.88 10.96
5/13/2021 3:00:00 PM 8.92 48.056 0.035 6.81 2.77 10.97
5/13/2021 3:15:00 PM 9.03 48.254 0.035 6.81 2.68 10.95
5/13/2021 3:30:00 PM 9.11 48.398 0.035 6.83 2.67 10.92
5/13/2021 3:45:00 PM 9.24 48.632 0.035 6.83 2.79 10.9
5/13/2021 4:00:00 PM 9.25 48.65 0.035 6.83 3.26 10.86
5/13/2021 4:15:00 PM 9.34 48.812 0.035 6.81 2.7 10.83
5/13/2021 4:30:00 PM 9.37 48.866 0.035 6.81 2.55 10.8
5/13/2021 4:45:00 PM 9.38 48.884 0.035 6.79 2.98 10.79
5/13/2021 5:00:00 PM 9.41 48.938 0.035 6.8 2.98 10.77
5/13/2021 5:15:00 PM 9.42 48.956 0.035 6.8 2.76 10.77
5/13/2021 5:30:00 PM 9.37 48.866 0.036 6.8 2.88 10.76
5/13/2021 5:45:00 PM 9.33 48.794 0.036 6.81 3.35 10.74
5/13/2021 6:00:00 PM 9.35 48.83 0.036 6.82 2.88 10.71
5/13/2021 6:15:00 PM 9.33 48.794 0.036 6.81 2.68 10.72
5/13/2021 6:30:00 PM 9.29 48.722 0.036 6.82 2.61 10.71
5/13/2021 6:45:00 PM 9.23 48.614 0.036 6.81 3.24 10.7
5/13/2021 7:00:00 PM 9.21 48.578 0.036 6.81 2.88 10.71
5/13/2021 7:15:00 PM 9.2 48.56 0.036 6.8 2.77 10.72
5/13/2021 7:30:00 PM 9.17 48.506 0.036 6.8 2.68 10.71
5/13/2021 7:45:00 PM 9.14 48.452 0.036 6.71 2.62 10.7
5/13/2021 8:00:00 PM 9.11 48.398 0.036 6.75 5.11 10.69
5/13/2021 8:15:00 PM 9.08 48.344 0.036 6.73 2.48 10.68
5/13/2021 8:30:00 PM 9.03 48.254 0.036 6.72 2.38 10.67
5/13/2021 8:45:00 PM 8.97 48.146 0.036 6.72 2.63 10.68
5/13/2021 9:00:00 PM 8.91 48.038 0.036 6.73 2.76 10.68
5/13/2021 9:15:00 PM 8.85 47.93 0.036 6.73 2.47 10.68
5/13/2021 9:30:00 PM 8.78 47.804 0.036 6.73 2.86 10.7
5/13/2021 9:45:00 PM 8.71 47.678 0.036 6.72 2.82 10.71
5/13/2021 10:00:00 PM 8.64 47.552 0.036 6.72 2.85 10.73
5/13/2021 10:15:00 PM 8.57 47.426 0.036 6.72 2.74 10.75
5/13/2021 10:30:00 PM 8.5 47.3 0.036 6.71 2.75 10.77
5/13/2021 10:45:00 PM 8.42 47.156 0.036 6.71 2.78 10.8
5/13/2021 11:00:00 PM 8.35 47.03 0.036 6.71 2.8 10.82
5/13/2021 11:15:00 PM 8.28 46.904 0.036 6.71 2.79 10.84
5/13/2021 11:30:00 PM 8.2 46.76 0.036 6.71 2.67 10.86
5/13/2021 11:45:00 PM 8.13 46.634 0.036 6.71 2.59 10.88
5/14/2021 12:00:00 AM 8.05 46.49 0.037 6.7 2.61 10.9
5/14/2021 12:15:00 AM 7.98 46.364 0.037 6.7 2.61 10.92
5/14/2021 12:30:00 AM 7.9 46.22 0.037 6.71 2.75 10.94
5/14/2021 12:45:00 AM 7.83 46.094 0.037 6.7 2.67 10.97
5/14/2021 1:00:00 AM 7.75 45.95 0.037 6.7 2.7 10.99
5/14/2021 1:15:00 AM 7.68 45.824 0.037 6.71 2.66 11.02
5/14/2021 1:30:00 AM 7.61 45.698 0.037 6.71 2.74 11.04
5/14/2021 1:45:00 AM 7.53 45.554 0.037 6.71 2.72 11.06
5/14/2021 2:00:00 AM 7.46 45.428 0.037 6.71 2.83 11.08
5/14/2021 2:15:00 AM 7.39 45.302 0.037 6.71 2.67 11.1
5/14/2021 2:30:00 AM 7.32 45.176 0.037 6.71 2.7 11.12
5/14/2021 2:45:00 AM 7.25 45.05 0.037 6.71 2.44 11.14
5/14/2021 3:00:00 AM 7.18 44.924 0.037 6.71 2.49 11.16
5/14/2021 3:15:00 AM 7.11 44.798 0.037 6.71 2.58 11.18
5/14/2021 3:30:00 AM 7.05 44.69 0.037 6.7 2.49 11.2
5/14/2021 3:45:00 AM 6.99 44.582 0.037 6.7 2.59 11.22
5/14/2021 4:00:00 AM 6.93 44.474 0.037 6.71 2.54 11.24
5/14/2021 4:15:00 AM 6.87 44.366 0.037 6.71 2.5 11.26
5/14/2021 4:30:00 AM 6.81 44.258 0.037 6.7 2.45 11.27
5/14/2021 4:45:00 AM 6.76 44.168 0.037 6.69 2.67 11.29
5/14/2021 5:00:00 AM 6.7 44.06 0.037 6.69 2.77 11.31
5/14/2021 5:15:00 AM 6.65 43.97 0.036 6.7 443.04 11.32
5/14/2021 5:30:00 AM 6.6 43.88 0.037 6.7 8.01 11.34
5/14/2021 5:45:00 AM 6.55 43.79 0.037 6.7 5.33 11.36
5/14/2021 6:00:00 AM 6.51 43.718 0.037 6.68 3.34 11.34
5/14/2021 6:15:00 AM 6.46 43.628 0.037 6.71 3.01 11.39
5/14/2021 6:30:00 AM 6.42 43.556 0.037 6.71 3.29 11.42
5/14/2021 6:45:00 AM 6.39 43.502 0.037 6.72 5.95 11.45
5/14/2021 7:00:00 AM 6.36 43.448 0.037 6.72 5.29 11.45
5/14/2021 7:15:00 AM 6.33 43.394 0.037 6.74 3.94 11.5
5/14/2021 7:30:00 AM 6.32 43.376 0.037 6.75 2.39 11.53
5/14/2021 7:45:00 AM 6.32 43.376 0.037 6.74 2.69 11.55
5/14/2021 8:00:00 AM 6.33 43.394 0.037 6.74 2.94 11.56
5/14/2021 8:15:00 AM 6.36 43.448 0.037 6.75 2.42 11.58
5/14/2021 8:30:00 AM 6.41 43.538 0.037 6.75 2.17 11.59
5/14/2021 8:45:00 AM 6.47 43.646 0.037 6.76 2.47 11.58
5/14/2021 9:00:00 AM 6.54 43.772 0.037 6.77 2.66 11.58
5/14/2021 9:15:00 AM 6.64 43.952 0.036 6.79 2.4 11.56
5/14/2021 9:30:00 AM 6.76 44.168 0.036 6.79 2.35 11.54
5/14/2021 9:45:00 AM 6.91 44.438 0.036 6.81 2.03 11.52
5/14/2021 10:00:00 AM 7.08 44.744 0.036 6.81 2.15 11.48
5/14/2021 10:15:00 AM 7.27 45.086 0.036 6.81 2.38 11.44
5/14/2021 10:30:00 AM 7.48 45.464 0.036 6.85 2.38 11.4
5/14/2021 10:45:00 AM 7.7 45.86 0.035 6.86 2.41 11.36
5/14/2021 11:00:00 AM 7.92 46.256 0.032 6.86 2.12 11.31
5/14/2021 11:15:00 AM 8.19 46.742 0.029 6.89 1.9 11.25
5/14/2021 11:30:00 AM 8.42 47.156 0.036 6.87 4.22 11.2
5/14/2021 11:45:00 AM 8.5 47.3 0.036 6.88 3.43 11.15
5/14/2021 12:00:00 PM 8.63 47.534 0.036 6.9 2.59 11.1
5/14/2021 12:15:00 PM 8.61 47.498 0.036 6.88 2.9 11.08
5/14/2021 12:30:00 PM 8.57 47.426 0.036 6.86 2.9 11.08
5/14/2021 12:45:00 PM 8.61 47.498 0.036 6.87 2.85 11.06
5/14/2021 1:00:00 PM 8.63 47.534 0.036 6.87 2.45 11.07
5/14/2021 1:15:00 PM 8.69 47.642 0.036 6.89 3.11 11.07
5/14/2021 1:30:00 PM 8.79 47.822 0.036 6.9 3.46 11.05
5/14/2021 1:45:00 PM 8.91 48.038 0.036 6.89 2.65 11.03
5/14/2021 2:00:00 PM 9.08 48.344 0.036 6.89 2.59 11.01
5/14/2021 2:15:00 PM 9.17 48.506 0.036 6.9 2.25 10.98
5/14/2021 2:30:00 PM 9.39 48.902 0.036 6.91 3.11 10.95
5/14/2021 2:45:00 PM 9.4 48.92 0.036 6.9 2.31 10.9
5/14/2021 3:00:00 PM 9.45 49.01 0.036 6.91 4.84 10.85
5/14/2021 3:15:00 PM 9.43 48.974 0.036 6.89 2.58 10.84
5/14/2021 3:30:00 PM 9.48 49.064 0.036 6.89 2.6 10.83
5/14/2021 3:45:00 PM 9.55 49.19 0.036 6.88 2.61 10.8
5/14/2021 4:00:00 PM 9.63 49.334 0.036 6.89 2.52 10.79
5/14/2021 4:15:00 PM 9.7 49.46 0.036 6.91 2.62 10.76
5/14/2021 4:30:00 PM 9.78 49.604 0.036 6.93 2.38 10.74
5/14/2021 4:45:00 PM 9.86 49.748 0.036 6.94 2.35 10.71
5/14/2021 5:00:00 PM 9.92 49.856 0.036 6.94 2.39 10.68
5/14/2021 5:15:00 PM 9.95 49.91 0.036 6.94 2.24 10.65
5/14/2021 5:30:00 PM 9.98 49.964 0.036 6.93 2.42 10.62
5/14/2021 5:45:00 PM 10 50 0.036 6.87 2.3 10.59
5/14/2021 6:00:00 PM 10.02 50.036 0.036 6.87 2.54 10.57
5/14/2021 6:15:00 PM 10.02 50.036 0.036 6.84 2.26 10.56
5/14/2021 6:30:00 PM 10 50 0.036 6.85 2.64 10.56
5/14/2021 6:45:00 PM 9.97 49.946 0.036 6.83 2.4 10.55
5/14/2021 7:00:00 PM 9.94 49.892 0.036 6.84 2.45 10.54
5/14/2021 7:15:00 PM 9.91 49.838 0.036 6.82 4.27 10.53
5/14/2021 7:30:00 PM 9.87 49.766 0.036 6.81 2.9 10.53
5/14/2021 7:45:00 PM 9.82 49.676 0.036 6.8 2.41 10.53
5/14/2021 8:00:00 PM 9.77 49.586 0.037 6.78 2.3 10.52
5/14/2021 8:15:00 PM 9.72 49.496 0.037 6.76 2.37 10.51
5/14/2021 8:30:00 PM 9.66 49.388 0.037 6.75 2.29 10.5
5/14/2021 8:45:00 PM 9.59 49.262 0.037 6.72 2.7 10.49
5/14/2021 9:00:00 PM 9.53 49.154 0.037 6.7 2.54 10.49
5/14/2021 9:15:00 PM 9.46 49.028 0.037 6.7 2.66 10.5
5/14/2021 9:30:00 PM 9.39 48.902 0.037 6.7 2.43 10.51
5/14/2021 9:45:00 PM 9.33 48.794 0.037 6.71 2.32 10.52
5/14/2021 10:00:00 PM 9.27 48.686 0.037 6.7 2.49 10.54
5/14/2021 10:15:00 PM 9.21 48.578 0.037 6.69 2.44 10.55
5/14/2021 10:30:00 PM 9.15 48.47 0.037 6.69 2.46 10.57
5/14/2021 10:45:00 PM 9.1 48.38 0.037 6.69 2.52 10.59
5/14/2021 11:00:00 PM 9.05 48.29 0.037 6.71 2.44 10.61
5/14/2021 11:15:00 PM 9 48.2 0.037 6.69 2.68 10.63
5/14/2021 11:30:00 PM 8.96 48.128 0.037 6.69 2.49 10.64
5/14/2021 11:45:00 PM 8.91 48.038 0.037 6.7 2.49 10.65
5/15/2021 12:00:00 AM 8.87 47.966 0.037 6.7 2.39 10.67
5/15/2021 12:15:00 AM 8.82 47.876 0.037 6.7 2.53 10.68
5/15/2021 12:30:00 AM 8.77 47.786 0.037 6.72 2.8 10.69
5/15/2021 12:45:00 AM 8.72 47.696 0.037 6.69 3.08 10.7
5/15/2021 1:00:00 AM 8.67 47.606 0.037 6.7 2.47 10.71
5/15/2021 1:15:00 AM 8.62 47.516 0.037 6.7 2.71 10.73
5/15/2021 1:30:00 AM 8.56 47.408 0.037 6.68 2.76 10.75
5/15/2021 1:45:00 AM 8.5 47.3 0.037 6.7 2.71 10.77
5/15/2021 2:00:00 AM 8.43 47.174 0.037 6.7 2.85 10.79
5/15/2021 2:15:00 AM 8.36 47.048 0.037 6.7 2.79 10.81
5/15/2021 2:30:00 AM 8.29 46.922 0.037 6.69 2.89 10.83
5/15/2021 2:45:00 AM 8.22 46.796 0.037 6.69 2.37 10.85
5/15/2021 3:00:00 AM 8.15 46.67 0.038 6.68 2.61 10.86
5/15/2021 3:15:00 AM 8.08 46.544 0.038 6.69 2.38 10.88
5/15/2021 3:30:00 AM 8.01 46.418 0.038 6.71 2.6 10.9
5/15/2021 3:45:00 AM 7.94 46.292 0.038 6.7 2.53 10.92
5/15/2021 4:00:00 AM 7.88 46.184 0.038 6.69 2.33 10.94
5/15/2021 4:15:00 AM 7.81 46.058 0.038 6.67 2.44 10.96
5/15/2021 4:30:00 AM 7.75 45.95 0.038 6.69 2.54 10.98
5/15/2021 4:45:00 AM 7.69 45.842 0.038 6.68 2.9 11
5/15/2021 5:00:00 AM 7.62 45.716 0.038 6.69 2.4 11.02
5/15/2021 5:15:00 AM 7.56 45.608 0.038 6.7 2.28 11.04
5/15/2021 5:30:00 AM 7.5 45.5 0.038 6.7 2.57 11.06
5/15/2021 5:45:00 AM 7.44 45.392 0.038 6.69 2.38 11.07
5/15/2021 6:00:00 AM 7.38 45.284 0.038 6.7 2.36 11.09
5/15/2021 6:15:00 AM 7.32 45.176 0.038 6.7 2.31 11.12
5/15/2021 6:30:00 AM 7.27 45.086 0.038 6.71 2.49 11.15
5/15/2021 6:45:00 AM 7.22 44.996 0.038 6.7 2.18 11.19
5/15/2021 7:00:00 AM 7.17 44.906 0.038 6.72 2.41 11.22
5/15/2021 7:15:00 AM 7.13 44.834 0.038 6.71 2.22 11.25
5/15/2021 7:30:00 AM 7.11 44.798 0.038 6.74 2.46 11.28
5/15/2021 7:45:00 AM 7.09 44.762 0.037 6.76 2.31 11.31
5/15/2021 8:00:00 AM 7.09 44.762 0.037 6.76 2.1 11.33
5/15/2021 8:15:00 AM 7.1 44.78 0.037 6.76 2.09 11.35
5/15/2021 8:30:00 AM 7.14 44.852 0.037 6.77 2.23 11.36
5/15/2021 8:45:00 AM 7.19 44.942 0.037 6.79 2.06 11.37
5/15/2021 9:00:00 AM 7.25 45.05 0.037 6.8 2.06 11.37
5/15/2021 9:15:00 AM 7.33 45.194 0.037 6.82 1.93 11.36
5/15/2021 9:30:00 AM 7.43 45.374 0.037 6.84 1.98 11.35
5/15/2021 9:45:00 AM 7.56 45.608 0.037 6.85 2.07 11.33
5/15/2021 10:00:00 AM 7.72 45.896 0.037 6.87 2.16 11.31
5/15/2021 10:15:00 AM 7.9 46.22 0.037 6.89 2.09 11.28
5/15/2021 10:30:00 AM 8.08 46.544 0.037 6.89 2.15 11.24
5/15/2021 10:45:00 AM 8.27 46.886 0.037 6.89 1.93 11.21
5/15/2021 11:00:00 AM 8.46 47.228 0.037 6.91 2.06 11.16
5/15/2021 11:15:00 AM 8.66 47.588 0.037 6.91 2.16 11.12
5/15/2021 11:30:00 AM 8.89 48.002 0.037 6.93 2.18 11.07
5/15/2021 11:45:00 AM 9.15 48.47 0.037 6.94 2.13 11.01
5/15/2021 12:00:00 PM 9.44 48.992 0.037 6.97 2.04 10.96
5/15/2021 12:15:00 PM 9.73 49.514 0.037 6.97 1.97 10.9
5/15/2021 12:30:00 PM 9.94 49.892 0.037 6.98 2.36 10.83
5/15/2021 12:45:00 PM 10.09 50.162 0.037 6.99 2.15 10.77
5/15/2021 1:00:00 PM 10.25 50.45 0.037 7 2.13 10.74
5/15/2021 1:15:00 PM 10.31 50.558 0.037 6.98 2.17 10.7
5/15/2021 1:30:00 PM 10.41 50.738 0.037 6.99 2.54 10.65
5/15/2021 1:45:00 PM 10.39 50.702 0.037 6.97 2.28 10.62
5/15/2021 2:00:00 PM 10.37 50.666 0.037 6.96 2.19 10.63
5/15/2021 2:15:00 PM 10.44 50.792 0.037 6.96 2.59 10.62
5/15/2021 2:30:00 PM 10.43 50.774 0.037 6.97 2.28 10.6
5/15/2021 2:45:00 PM 10.45 50.81 0.037 6.97 2.3 10.58
5/15/2021 3:00:00 PM 10.44 50.792 0.037 6.92 2.29 10.58
5/15/2021 3:15:00 PM 10.45 50.81 0.037 6.94 2.21 10.59
5/15/2021 3:30:00 PM 10.47 50.846 0.037 6.94 2.07 10.57
5/15/2021 3:45:00 PM 10.55 50.99 0.037 6.96 2.17 10.56
5/15/2021 4:00:00 PM 10.61 51.098 0.037 6.96 2.33 10.53
5/15/2021 4:15:00 PM 10.6 51.08 0.037 6.94 2.27 10.52
5/15/2021 4:30:00 PM 10.63 51.134 0.037 6.93 2.22 10.5
5/15/2021 4:45:00 PM 10.66 51.188 0.037 6.94 2.2 10.49
5/15/2021 5:00:00 PM 10.69 51.242 0.037 6.94 2.54 10.49
5/15/2021 5:15:00 PM 10.71 51.278 0.037 6.95 2.2 10.47
5/15/2021 5:30:00 PM 10.73 51.314 0.037 6.93 2.17 10.46
5/15/2021 5:45:00 PM 10.76 51.368 0.037 6.94 2.12 10.46
5/15/2021 6:00:00 PM 10.74 51.332 0.037 6.95 2.29 10.41
5/15/2021 6:15:00 PM 10.7 51.26 0.037 6.95 2.51 10.4
5/15/2021 6:30:00 PM 10.65 51.17 0.037 6.92 2.25 10.38
5/15/2021 6:45:00 PM 10.62 51.116 0.037 6.92 2.38 10.37
5/15/2021 7:00:00 PM 10.57 51.026 0.037 6.91 2.16 10.37
5/15/2021 7:15:00 PM 10.52 50.936 0.037 6.92 2.08 10.37
5/15/2021 7:30:00 PM 10.49 50.882 0.037 6.89 2.26 10.35
5/15/2021 7:45:00 PM 10.43 50.774 0.037 6.88 2.13 10.35
5/15/2021 8:00:00 PM 10.37 50.666 0.037 6.88 2.22 10.34
5/15/2021 8:15:00 PM 10.29 50.522 0.037 6.86 2.34 10.34
5/15/2021 8:30:00 PM 10.21 50.378 0.037 6.86 2.11 10.33
5/15/2021 8:45:00 PM 10.15 50.27 0.037 6.84 2.37 10.33
5/15/2021 9:00:00 PM 10.09 50.162 0.038 6.84 2.21 10.33
5/15/2021 9:15:00 PM 10.04 50.072 0.038 6.82 2.55 10.33
5/15/2021 9:30:00 PM 9.99 49.982 0.038 6.79 2.35 10.34
5/15/2021 9:45:00 PM 9.95 49.91 0.038 6.79 2.07 10.34
5/15/2021 10:00:00 PM 9.9 49.82 0.038 6.8 2.34 10.36
5/15/2021 10:15:00 PM 9.84 49.712 0.038 6.79 2.29 10.37
5/15/2021 10:30:00 PM 9.78 49.604 0.038 6.79 2.56 10.38
5/15/2021 10:45:00 PM 9.72 49.496 0.038 6.8 2.28 10.39
5/15/2021 11:00:00 PM 9.66 49.388 0.038 6.79 2.26 10.41
5/15/2021 11:15:00 PM 9.6 49.28 0.038 6.8 2.66 10.43
5/15/2021 11:30:00 PM 9.54 49.172 0.038 6.8 2.82 10.45
5/15/2021 11:45:00 PM 9.49 49.082 0.038 6.79 2.45 10.46
5/16/2021 12:00:00 AM 9.43 48.974 0.038 6.78 2.46 10.48
5/16/2021 12:15:00 AM 9.37 48.866 0.038 6.78 2.24 10.49
5/16/2021 12:30:00 AM 9.32 48.776 0.038 6.79 2.46 10.51
5/16/2021 12:45:00 AM 9.27 48.686 0.038 6.79 2.52 10.52
5/16/2021 1:00:00 AM 9.21 48.578 0.038 6.79 2.31 10.54
5/16/2021 1:15:00 AM 9.16 48.488 0.038 6.8 2.51 10.55
5/16/2021 1:30:00 AM 9.1 48.38 0.038 6.8 2.32 10.57
5/16/2021 1:45:00 AM 9.05 48.29 0.038 6.79 2.44 10.59
5/16/2021 2:00:00 AM 8.99 48.182 0.038 6.79 2.33 10.61
5/16/2021 2:15:00 AM 8.92 48.056 0.038 6.8 2.44 10.62
5/16/2021 2:30:00 AM 8.86 47.948 0.038 6.79 2.51 10.64
5/16/2021 2:45:00 AM 8.79 47.822 0.038 6.78 2.38 10.66
5/16/2021 3:00:00 AM 8.72 47.696 0.038 6.8 2.31 10.67
5/16/2021 3:15:00 AM 8.66 47.588 0.038 6.79 2.6 10.68
5/16/2021 3:30:00 AM 8.6 47.48 0.038 6.78 2.7 10.71
5/16/2021 3:45:00 AM 8.54 47.372 0.038 6.78 2.24 10.72
5/16/2021 4:00:00 AM 8.48 47.264 0.038 6.78 2.28 10.74
5/16/2021 4:15:00 AM 8.43 47.174 0.038 6.78 2.52 10.76
5/16/2021 4:30:00 AM 8.38 47.084 0.038 6.76 2.21 10.78
5/16/2021 4:45:00 AM 8.34 47.012 0.038 6.78 2.19 10.79
5/16/2021 5:00:00 AM 8.29 46.922 0.038 6.79 2.31 10.8
5/16/2021 5:15:00 AM 8.25 46.85 0.038 6.79 2.14 10.82
5/16/2021 5:30:00 AM 8.22 46.796 0.038 6.79 2.26 10.83
5/16/2021 5:45:00 AM 8.19 46.742 0.038 6.79 2.19 10.84
5/16/2021 6:00:00 AM 8.16 46.688 0.038 6.8 2.2 10.85
5/16/2021 6:15:00 AM 8.12 46.616 0.038 6.81 2.26 10.86
5/16/2021 6:30:00 AM 8.1 46.58 0.038 6.8 2.22 10.88
5/16/2021 6:45:00 AM 8.08 46.544 0.038 6.81 2.34 10.9
5/16/2021 7:00:00 AM 8.06 46.508 0.038 6.82 2.3 10.94
5/16/2021 7:15:00 AM 8.05 46.49 0.038 6.83 2.2 10.97
5/16/2021 7:30:00 AM 8.05 46.49 0.038 6.83 2.05 11
5/16/2021 7:45:00 AM 8.06 46.508 0.038 6.86 2.12 11.02
5/16/2021 8:00:00 AM 8.08 46.544 0.038 6.86 2 11.06
5/16/2021 8:15:00 AM 8.1 46.58 0.038 6.88 2.17 11.07
5/16/2021 8:30:00 AM 8.13 46.634 0.038 6.88 2.05 11.1
5/16/2021 8:45:00 AM 8.17 46.706 0.038 6.89 2.01 11.1
5/16/2021 9:00:00 AM 8.21 46.778 0.038 6.9 2.14 11.11
5/16/2021 9:15:00 AM 8.27 46.886 0.038 6.91 2.89 11.12
5/16/2021 9:30:00 AM 8.33 46.994 0.038 6.94 1.97 11.12
5/16/2021 9:45:00 AM 8.4 47.12 0.038 6.93 1.95 11.11
5/16/2021 10:00:00 AM 8.49 47.282 0.038 6.94 1.93 11.11
5/16/2021 10:15:00 AM 8.59 47.462 0.038 6.95 1.91 11.08
5/16/2021 10:30:00 AM 8.69 47.642 0.038 6.95 1.96 11.08
5/16/2021 10:45:00 AM 8.8 47.84 0.038 6.97 2.01 11.06
5/16/2021 11:00:00 AM 8.92 48.056 0.038 6.99 1.83 11.04
5/16/2021 11:15:00 AM 9.03 48.254 0.038 6.99 1.88 11.01
5/16/2021 11:30:00 AM 9.13 48.434 0.038 7 2 10.99
5/16/2021 11:45:00 AM 9.23 48.614 0.038 7 1.99 10.96
5/16/2021 12:00:00 PM 9.34 48.812 0.038 7.01 1.79 10.92
5/16/2021 12:15:00 PM 9.43 48.974 0.038 7.01 1.91 10.92
5/16/2021 12:30:00 PM 9.48 49.064 0.038 7 1.81 10.87
5/16/2021 12:45:00 PM 9.5 49.1 0.038 6.99 2.02 10.83
5/16/2021 1:00:00 PM 9.52 49.136 0.038 6.98 2.01 10.78
5/16/2021 1:15:00 PM 9.54 49.172 0.038 6.97 2.15 10.77
5/16/2021 1:30:00 PM 9.58 49.244 0.038 6.97 1.97 10.79
5/16/2021 1:45:00 PM 9.65 49.37 0.037 6.99 1.95 10.8
5/16/2021 2:00:00 PM 9.74 49.532 0.037 7.01 1.79 10.79
5/16/2021 2:15:00 PM 9.85 49.73 0.037 7 1.84 10.77
5/16/2021 2:30:00 PM 9.97 49.946 0.037 7.02 1.97 10.75
5/16/2021 2:45:00 PM 10.05 50.09 0.037 7.02 2.24 10.72
5/16/2021 3:00:00 PM 10.08 50.144 0.037 7.02 1.9 10.67
5/16/2021 3:15:00 PM 10.16 50.288 0.037 7.01 2.28 10.66
5/16/2021 3:30:00 PM 10.22 50.396 0.037 7.01 2.1 10.66
5/16/2021 3:45:00 PM 10.26 50.468 0.037 7.02 2.02 10.64
5/16/2021 4:00:00 PM 10.31 50.558 0.037 7 1.92 10.59
5/16/2021 4:15:00 PM 10.41 50.738 0.037 7 2.07 10.57
5/16/2021 4:30:00 PM 10.45 50.81 0.037 7 1.87 10.56
5/16/2021 4:45:00 PM 10.54 50.972 0.037 7.02 2.06 10.56
5/16/2021 5:00:00 PM 10.6 51.08 0.037 7.01 1.98 10.53
5/16/2021 5:15:00 PM 10.58 51.044 0.037 7 2.09 10.51
5/16/2021 5:30:00 PM 10.62 51.116 0.037 7 1.97 10.5
5/16/2021 5:45:00 PM 10.66 51.188 0.037 6.99 2.06 10.5
5/16/2021 6:00:00 PM 10.69 51.242 0.037 6.99 1.94 10.48
5/16/2021 6:15:00 PM 10.68 51.224 0.037 6.99 1.82 10.45
5/16/2021 6:30:00 PM 10.67 51.206 0.038 6.98 2.02 10.41
5/16/2021 6:45:00 PM 10.64 51.152 0.038 6.97 2.41 10.38
5/16/2021 7:00:00 PM 10.61 51.098 0.038 6.96 2.47 10.37
5/16/2021 7:15:00 PM 10.58 51.044 0.038 6.96 2.01 10.36
5/16/2021 7:30:00 PM 10.53 50.954 0.038 6.95 2 10.34
5/16/2021 7:45:00 PM 10.48 50.864 0.038 6.91 2.06 10.33
5/16/2021 8:00:00 PM 10.42 50.756 0.038 6.9 2.03 10.31
5/16/2021 8:15:00 PM 10.35 50.63 0.038 6.88 1.9 10.32
5/16/2021 8:30:00 PM 10.28 50.504 0.038 6.86 1.96 10.31
5/16/2021 8:45:00 PM 10.21 50.378 0.038 6.86 2.24 10.31
5/16/2021 9:00:00 PM 10.14 50.252 0.038 6.85 2.04 10.31
5/16/2021 9:15:00 PM 10.06 50.108 0.038 6.84 2.06 10.32
5/16/2021 9:30:00 PM 9.98 49.964 0.038 6.82 2.11 10.33
5/16/2021 9:45:00 PM 9.9 49.82 0.038 6.82 2.21 10.34
5/16/2021 10:00:00 PM 9.83 49.694 0.038 6.83 2.16 10.36
5/16/2021 10:15:00 PM 9.75 49.55 0.039 6.82 2.35 10.38
5/16/2021 10:30:00 PM 9.67 49.406 0.039 6.82 3.01 10.41
5/16/2021 10:45:00 PM 9.59 49.262 0.039 6.8 2.31 10.43
5/16/2021 11:00:00 PM 9.51 49.118 0.039 6.8 2.17 10.45
5/16/2021 11:15:00 PM 9.44 48.992 0.039 6.81 2.09 10.47
5/16/2021 11:30:00 PM 9.36 48.848 0.039 6.82 2.14 10.49
5/16/2021 11:45:00 PM 9.28 48.704 0.039 6.8 2.26 10.51
5/17/2021 12:00:00 AM 9.2 48.56 0.039 6.81 2.71 10.53
5/17/2021 12:15:00 AM 9.12 48.416 0.039 6.81 2.22 10.56
5/17/2021 12:30:00 AM 9.04 48.272 0.039 6.81 2.21 10.59
5/17/2021 12:45:00 AM 8.97 48.146 0.039 6.81 2.18 10.61
5/17/2021 1:00:00 AM 8.89 48.002 0.039 6.8 2.17 10.63
5/17/2021 1:15:00 AM 8.82 47.876 0.039 6.79 2.52 10.65
5/17/2021 1:30:00 AM 8.75 47.75 0.039 6.81 2.06 10.67
5/17/2021 1:45:00 AM 8.69 47.642 0.039 6.81 2.29 10.69
5/17/2021 2:00:00 AM 8.62 47.516 0.039 6.82 2.23 10.71
5/17/2021 2:15:00 AM 8.55 47.39 0.039 6.81 2.11 10.73
5/17/2021 2:30:00 AM 8.49 47.282 0.039 6.81 2.65 10.75
5/17/2021 2:45:00 AM 8.42 47.156 0.039 6.81 2.04 10.77
5/17/2021 3:00:00 AM 8.35 47.03 0.039 6.82 2.14 10.79
5/17/2021 3:15:00 AM 8.29 46.922 0.039 6.81 2.27 10.82
5/17/2021 3:30:00 AM 8.22 46.796 0.039 6.81 2.28 10.83
5/17/2021 3:45:00 AM 8.15 46.67 0.039 6.81 2.05 10.85
5/17/2021 4:00:00 AM 8.09 46.562 0.039 6.81 2.13 10.86
5/17/2021 4:15:00 AM 8.02 46.436 0.039 6.78 2.21 10.88
5/17/2021 4:30:00 AM 7.96 46.328 0.039 6.78 2.32 10.9
5/17/2021 4:45:00 AM 7.89 46.202 0.039 6.78 2.28 10.92
5/17/2021 5:00:00 AM 7.83 46.094 0.039 6.8 2.08 10.95
5/17/2021 5:15:00 AM 7.76 45.968 0.039 6.8 2.04 10.97
5/17/2021 5:30:00 AM 7.7 45.86 0.039 6.8 2.14 10.98
5/17/2021 5:45:00 AM 7.64 45.752 0.039 6.81 2.29 11
5/17/2021 6:00:00 AM 7.58 45.644 0.039 6.81 2.17 11.02
5/17/2021 6:15:00 AM 7.52 45.536 0.039 6.81 2.84 11.04
5/17/2021 6:30:00 AM 7.47 45.446 0.039 6.83 4685.38 11.08
5/17/2021 6:45:00 AM 7.42 45.356 0.039 6.82 2.01 11.11
5/17/2021 7:00:00 AM 7.38 45.284 0.039 6.83 1.93 11.12
5/17/2021 7:15:00 AM 7.34 45.212 0.039 6.85 3.06 11.16
5/17/2021 7:30:00 AM 7.33 45.194 0.039 6.85 2.01 11.21
5/17/2021 7:45:00 AM 7.32 45.176 0.039 6.84 2.16 11.25
5/17/2021 8:00:00 AM 7.33 45.194 0.039 6.83 2.25 11.26
5/17/2021 8:15:00 AM 7.35 45.23 0.039 6.86 2.13 11.28
5/17/2021 8:30:00 AM 7.4 45.32 0.039 6.87 1.91 11.29
5/17/2021 8:45:00 AM 7.47 45.446 0.039 6.9 1.96 11.29
5/17/2021 9:00:00 AM 7.56 45.608 0.039 6.91 1.7 11.29
5/17/2021 9:15:00 AM 7.66 45.788 0.039 6.92 1.84 11.29
5/17/2021 9:30:00 AM 7.8 46.04 0.039 6.94 1.83 11.27
5/17/2021 9:45:00 AM 7.95 46.31 0.039 6.96 1.95 11.24
5/17/2021 10:00:00 AM 8.13 46.634 0.039 6.96 1.84 11.22
5/17/2021 10:15:00 AM 8.32 46.976 0.039 6.98 1.86 11.18
5/17/2021 10:30:00 AM 8.53 47.354 0.039 6.99 2.03 11.14
5/17/2021 10:45:00 AM 8.75 47.75 0.039 7 1.96 11.09
5/17/2021 11:00:00 AM 8.98 48.164 0.039 7 1.66 11.06
5/17/2021 11:15:00 AM 9.23 48.614 0.039 7 1.77 10.99
5/17/2021 11:30:00 AM 9.49 49.082 0.038 7.03 1.71 10.92
5/17/2021 11:45:00 AM 9.77 49.586 0.038 7.05 1.81 10.88
5/17/2021 12:00:00 PM 10.02 50.036 0.038 7.05 1.7 10.82
5/17/2021 12:15:00 PM 10.29 50.522 0.038 7.06 1.73 10.76
5/17/2021 12:30:00 PM 10.55 50.99 0.038 7.07 1.85 10.7
5/17/2021 12:45:00 PM 10.85 51.53 0.038 7.08 1.82 10.64
5/17/2021 1:00:00 PM 11.1 51.98 0.038 7.1 2.04 10.56
5/17/2021 1:15:00 PM 11.36 52.448 0.038 7.11 1.69 10.52
5/17/2021 1:30:00 PM 11.64 52.952 0.038 7.12 2 10.45
5/17/2021 1:45:00 PM 11.81 53.258 0.038 7.12 1.97 10.36
5/17/2021 2:00:00 PM 11.92 53.456 0.038 7.11 1.75 10.35
5/17/2021 2:15:00 PM 11.84 53.312 0.038 7.08 1.88 10.3
5/17/2021 2:30:00 PM 11.96 53.528 0.038 7.1 1.94 10.29
5/17/2021 2:45:00 PM 11.85 53.33 0.038 7.07 1.91 10.26
5/17/2021 3:00:00 PM 11.89 53.402 0.038 7.07 1.92 10.26
5/17/2021 3:15:00 PM 11.98 53.564 0.038 7.09 3.85 10.25
5/17/2021 3:30:00 PM 12.06 53.708 0.038 7.08 1.9 10.25
5/17/2021 3:45:00 PM 12.17 53.906 0.038 7.09 2.03 10.23
5/17/2021 4:00:00 PM 12.36 54.248 0.038 7.12 2.11 10.19
5/17/2021 4:15:00 PM 12.54 54.572 0.038 7.14 1.87 10.15
5/17/2021 4:30:00 PM 12.68 54.824 0.038 7.13 1.73 10.11
5/17/2021 4:45:00 PM 12.74 54.932 0.038 7.11 1.96 10.07
5/17/2021 5:00:00 PM 12.74 54.932 0.038 7.11 2 10.05
5/17/2021 5:15:00 PM 12.75 54.95 0.038 7.1 1.84 10.02
5/17/2021 5:30:00 PM 12.74 54.932 0.038 7.11 2.02 10.02
5/17/2021 5:45:00 PM 12.73 54.914 0.038 7.11 2.09 10
5/17/2021 6:00:00 PM 12.7 54.86 0.038 7.08 1.91 9.96
5/17/2021 6:15:00 PM 12.61 54.698 0.038 7.06 2.08 9.94
5/17/2021 6:30:00 PM 12.51 54.518 0.038 7.02 1.88 9.93
5/17/2021 6:45:00 PM 12.39 54.302 0.038 6.97 2.04 9.91
5/17/2021 7:00:00 PM 12.31 54.158 0.038 6.94 2.09 9.91
5/17/2021 7:15:00 PM 12.2 53.96 0.038 6.94 2.06 9.92
5/17/2021 7:30:00 PM 12.1 53.78 0.039 6.91 2.06 9.92
5/17/2021 7:45:00 PM 12.02 53.636 0.039 6.89 2 9.92
5/17/2021 8:00:00 PM 11.95 53.51 0.039 6.89 1.91 9.91
5/17/2021 8:15:00 PM 11.86 53.348 0.039 6.89 1.99 9.92
5/17/2021 8:30:00 PM 11.75 53.15 0.039 6.89 2.08 9.92
5/17/2021 8:45:00 PM 11.64 52.952 0.039 6.88 2.27 9.93
5/17/2021 9:00:00 PM 11.53 52.754 0.039 6.87 2.04 9.95
5/17/2021 9:15:00 PM 11.42 52.556 0.039 6.86 1.96 9.96
5/17/2021 9:30:00 PM 11.33 52.394 0.039 6.86 2.1 9.97
5/17/2021 9:45:00 PM 11.24 52.232 0.039 6.86 2.17 10
5/17/2021 10:00:00 PM 11.16 52.088 0.039 6.85 2.36 10.01
5/17/2021 10:15:00 PM 11.08 51.944 0.039 6.85 2.25 10.03
5/17/2021 10:30:00 PM 11 51.8 0.039 6.86 2.31 10.05
5/17/2021 10:45:00 PM 10.92 51.656 0.039 6.85 2.49 10.07
5/17/2021 11:00:00 PM 10.84 51.512 0.039 6.86 2.39 10.09
5/17/2021 11:15:00 PM 10.77 51.386 0.04 6.85 2.36 10.12
5/17/2021 11:30:00 PM 10.71 51.278 0.04 6.86 2.21 10.13
5/17/2021 11:45:00 PM 10.66 51.188 0.04 6.86 2.32 10.15
5/18/2021 12:00:00 AM 10.6 51.08 0.04 6.88 2.28 10.16
5/18/2021 12:15:00 AM 10.54 50.972 0.04 6.88 2.27 10.18
5/18/2021 12:30:00 AM 10.47 50.846 0.04 6.88 2.37 10.2
5/18/2021 12:45:00 AM 10.39 50.702 0.04 6.87 2.18 10.22
5/18/2021 1:00:00 AM 10.32 50.576 0.04 6.86 2.33 10.24
5/18/2021 1:15:00 AM 10.23 50.414 0.04 6.84 2.8 10.27
5/18/2021 1:30:00 AM 10.15 50.27 0.04 6.83 2.09 10.29
5/18/2021 1:45:00 AM 10.07 50.126 0.04 6.83 2.37 10.31
5/18/2021 2:00:00 AM 9.99 49.982 0.04 6.83 2.37 10.32
5/18/2021 2:15:00 AM 9.92 49.856 0.04 6.82 2.38 10.34
5/18/2021 2:30:00 AM 9.85 49.73 0.04 6.83 2.24 10.37
5/18/2021 2:45:00 AM 9.77 49.586 0.04 6.85 2.48 10.38
5/18/2021 3:00:00 AM 9.7 49.46 0.04 6.83 2.29 10.4
5/18/2021 3:15:00 AM 9.63 49.334 0.04 6.83 2.29 10.42
5/18/2021 3:30:00 AM 9.55 49.19 0.04 6.84 2.15 10.45
5/18/2021 3:45:00 AM 9.48 49.064 0.04 6.83 2.36 10.47
5/18/2021 4:00:00 AM 9.41 48.938 0.04 6.84 2 10.48
5/18/2021 4:15:00 AM 9.35 48.83 0.04 6.85 2.3 10.5
5/18/2021 4:30:00 AM 9.27 48.686 0.04 6.84 2.25 10.52
5/18/2021 4:45:00 AM 9.21 48.578 0.04 6.84 2.55 10.55
5/18/2021 5:00:00 AM 9.13 48.434 0.04 6.83 2.07 10.56
5/18/2021 5:15:00 AM 9.06 48.308 0.04 6.83 2.34 10.59
5/18/2021 5:30:00 AM 9 48.2 0.04 6.83 2.19 10.6
5/18/2021 5:45:00 AM 8.93 48.074 0.04 6.84 2.27 10.63
5/18/2021 6:00:00 AM 8.87 47.966 0.04 6.86 2.27 10.65
5/18/2021 6:15:00 AM 8.8 47.84 0.04 6.86 2.58 10.68
5/18/2021 6:30:00 AM 8.74 47.732 0.04 6.86 2.31 10.71
5/18/2021 6:45:00 AM 8.69 47.642 0.04 6.86 2.36 10.76
5/18/2021 7:00:00 AM 8.64 47.552 0.04 6.86 2.16 10.79
5/18/2021 7:15:00 AM 8.6 47.48 0.04 6.88 2.21 10.82
5/18/2021 7:30:00 AM 8.58 47.444 0.04 6.89 2.08 10.86
5/18/2021 7:45:00 AM 8.57 47.426 0.04 6.89 2.06 10.89
5/18/2021 8:00:00 AM 8.57 47.426 0.04 6.91 1.9 10.92
5/18/2021 8:15:00 AM 8.59 47.462 0.04 6.93 1.99 10.93
5/18/2021 8:30:00 AM 8.63 47.534 0.04 6.94 2.16 10.95
5/18/2021 8:45:00 AM 8.7 47.66 0.04 6.96 1.94 10.95
5/18/2021 9:00:00 AM 8.77 47.786 0.04 6.96 2.15 10.95
5/18/2021 9:15:00 AM 8.87 47.966 0.04 6.98 2.01 10.95
5/18/2021 9:30:00 AM 8.99 48.182 0.04 7 1.9 10.94
5/18/2021 9:45:00 AM 9.14 48.452 0.04 7.02 1.91 10.92
5/18/2021 10:00:00 AM 9.3 48.74 0.04 7.02 1.8 10.9
5/18/2021 10:15:00 AM 9.48 49.064 0.04 7.04 2.16 10.88
5/18/2021 10:30:00 AM 9.69 49.442 0.039 7.05 2.04 10.85
5/18/2021 10:45:00 AM 9.94 49.892 0.039 7.07 1.89 10.78
5/18/2021 11:00:00 AM 10.18 50.324 0.039 7.08 1.91 10.75
5/18/2021 11:15:00 AM 10.44 50.792 0.037 7.11 1.79 10.7
5/18/2021 11:30:00 AM 10.61 51.098 0.036 7.13 1.83 10.65
5/18/2021 11:45:00 AM 10.91 51.638 0.034 7.15 1.94 10.62
5/18/2021 12:00:00 PM 11.2 52.16 0.033 7.16 2.02 10.56
5/18/2021 12:15:00 PM 11.45 52.61 0.032 7.18 1.91 10.47
5/18/2021 12:30:00 PM 11.69 53.042 0.03 7.18 2.11 10.42
5/18/2021 12:45:00 PM 12.03 53.654 0.027 7.2 1.68 10.36
5/18/2021 1:00:00 PM 12.28 54.104 0.025 7.2 2.11 10.3
5/18/2021 1:15:00 PM 12.57 54.626 0.023 7.11 1.98 10.24
5/18/2021 1:30:00 PM 12.84 55.112 0.039 7.23 2.3 10.2
5/18/2021 1:45:00 PM 13.02 55.436 0.039 7.24 2.18 10.15
5/18/2021 2:00:00 PM 13.24 55.832 0.039 7.25 1.69 10.1
5/18/2021 2:15:00 PM 13.45 56.21 0.039 7.26 1.92 10.04
5/18/2021 2:30:00 PM 13.54 56.372 0.039 7.27 1.77 10
5/18/2021 2:45:00 PM 13.59 56.462 0.039 7.28 2.23 9.95
5/18/2021 3:00:00 PM 13.69 56.642 0.039 7.26 2.12 9.9
5/18/2021 3:15:00 PM 13.43 56.174 0.039 7.25 1.76 9.9
5/18/2021 3:30:00 PM 13.41 56.138 0.039 7.23 1.88 9.93
5/18/2021 3:45:00 PM 13.34 56.012 0.039 7.21 2.13 9.92
5/18/2021 4:00:00 PM 13.29 55.922 0.039 7.19 1.97 9.89
5/18/2021 4:15:00 PM 13.24 55.832 0.039 7.2 1.89 9.89
5/18/2021 4:30:00 PM 13.24 55.832 0.039 7.18 1.82 9.87
5/18/2021 4:45:00 PM 13.3 55.94 0.039 7.17 1.87 9.84
5/18/2021 5:00:00 PM 13.36 56.048 0.039 7.18 1.89 9.79
5/18/2021 5:15:00 PM 13.5 56.3 0.039 7.19 1.98 9.79
5/18/2021 5:30:00 PM 13.6 56.48 0.039 7.19 1.8 9.75
5/18/2021 5:45:00 PM 13.65 56.57 0.039 7.19 1.76 9.73
5/18/2021 6:00:00 PM 13.68 56.624 0.039 7.19 1.83 9.7
5/18/2021 6:15:00 PM 13.7 56.66 0.039 7.18 1.99 9.68
5/18/2021 6:30:00 PM 13.72 56.696 0.039 7.17 1.8 9.64
5/18/2021 6:45:00 PM 13.69 56.642 0.039 7.17 1.84 9.6
5/18/2021 7:00:00 PM 13.63 56.534 0.039 7.15 2.13 9.6
5/18/2021 7:15:00 PM 13.54 56.372 0.039 7.12 1.91 9.59
5/18/2021 7:30:00 PM 13.44 56.192 0.039 7.1 1.94 9.6
5/18/2021 7:45:00 PM 13.34 56.012 0.039 7.07 1.95 9.59
5/18/2021 8:00:00 PM 13.23 55.814 0.04 7.06 2.03 9.59
5/18/2021 8:15:00 PM 13.12 55.616 0.04 7.04 1.93 9.6
5/18/2021 8:30:00 PM 13 55.4 0.04 7.03 1.93 9.6
5/18/2021 8:45:00 PM 12.87 55.166 0.04 7.01 2.12 9.61
5/18/2021 9:00:00 PM 12.75 54.95 0.04 6.99 2.15 9.62
5/18/2021 9:15:00 PM 12.63 54.734 0.04 6.99 2 9.64
5/18/2021 9:30:00 PM 12.51 54.518 0.04 7 1.89 9.66
5/18/2021 9:45:00 PM 12.4 54.32 0.04 6.99 2.07 9.68
5/18/2021 10:00:00 PM 12.3 54.14 0.04 6.98 2.15 9.7
5/18/2021 10:15:00 PM 12.21 53.978 0.04 6.98 2.18 9.72
5/18/2021 10:30:00 PM 12.12 53.816 0.04 6.98 2.29 9.75
5/18/2021 10:45:00 PM 12.04 53.672 0.04 6.97 2.02 9.76
5/18/2021 11:00:00 PM 11.95 53.51 0.04 6.98 2.14 9.79
5/18/2021 11:15:00 PM 11.87 53.366 0.04 6.99 2.3 9.81
5/18/2021 11:30:00 PM 11.78 53.204 0.04 6.98 2.23 9.83
5/18/2021 11:45:00 PM 11.7 53.06 0.04 6.98 2.34 9.86
5/19/2021 12:00:00 AM 11.62 52.916 0.04 6.97 2.26 9.89
5/19/2021 12:15:00 AM 11.54 52.772 0.041 6.98 2.12 9.9
5/19/2021 12:30:00 AM 11.46 52.628 0.041 6.98 2.48 9.91
5/19/2021 12:45:00 AM 11.37 52.466 0.041 6.97 2.32 9.94
5/19/2021 1:00:00 AM 11.28 52.304 0.041 6.97 2.2 9.97
5/19/2021 1:15:00 AM 11.19 52.142 0.041 6.96 2.61 9.98
5/19/2021 1:30:00 AM 11.11 51.998 0.041 6.97 2.21 10.01
5/19/2021 1:45:00 AM 11.02 51.836 0.041 6.96 4.68 10.03
5/19/2021 2:00:00 AM 10.93 51.674 0.041 6.96 2.43 10.04
5/19/2021 2:15:00 AM 10.84 51.512 0.041 6.96 2.44 10.07
5/19/2021 2:30:00 AM 10.76 51.368 0.041 6.96 2.56 10.1
5/19/2021 2:45:00 AM 10.68 51.224 0.041 6.96 2.56 10.13
5/19/2021 3:00:00 AM 10.59 51.062 0.041 6.96 2.21 10.14
5/19/2021 3:15:00 AM 10.51 50.918 0.041 6.96 2.37 10.17
5/19/2021 3:30:00 AM 10.43 50.774 0.041 6.95 2.3 10.2
5/19/2021 3:45:00 AM 10.35 50.63 0.041 6.96 2.49 10.22
5/19/2021 4:00:00 AM 10.27 50.486 0.041 6.95 2.49 10.23
5/19/2021 4:15:00 AM 10.19 50.342 0.041 6.93 2.13 10.25
5/19/2021 4:30:00 AM 10.12 50.216 0.041 6.93 2.15 10.29
5/19/2021 4:45:00 AM 10.05 50.09 0.041 6.93 2.33 10.3
5/19/2021 5:00:00 AM 9.98 49.964 0.041 6.92 2.29 10.33
5/19/2021 5:15:00 AM 9.91 49.838 0.041 6.93 2.22 10.34
5/19/2021 5:30:00 AM 9.84 49.712 0.041 6.93 2.23 10.36
5/19/2021 5:45:00 AM 9.77 49.586 0.041 6.94 2.19 10.39
5/19/2021 6:00:00 AM 9.7 49.46 0.041 6.94 2.19 10.41
5/19/2021 6:15:00 AM 9.64 49.352 0.041 6.94 2.06 10.45
5/19/2021 6:30:00 AM 9.58 49.244 0.041 6.95 2.31 10.48
5/19/2021 6:45:00 AM 9.53 49.154 0.041 6.95 1.98 10.51
5/19/2021 7:00:00 AM 9.48 49.064 0.041 6.97 2.18 10.55
5/19/2021 7:15:00 AM 9.45 49.01 0.041 6.97 2.2 10.58
5/19/2021 7:30:00 AM 9.43 48.974 0.041 6.99 2.23 10.62
5/19/2021 7:45:00 AM 9.43 48.974 0.041 6.99 2.16 10.65
5/19/2021 8:00:00 AM 9.43 48.974 0.041 7.01 3.42 10.66
5/19/2021 8:15:00 AM 9.46 49.028 0.041 7.03 1.91 10.68
5/19/2021 8:30:00 AM 9.5 49.1 0.041 7.04 2.04 10.72
5/19/2021 8:45:00 AM 9.56 49.208 0.04 7.05 2.06 10.71
5/19/2021 9:00:00 AM 9.64 49.352 0.04 7.06 2.02 10.7
5/19/2021 9:15:00 AM 9.74 49.532 0.04 7.08 2.23 10.7
5/19/2021 9:30:00 AM 9.86 49.748 0.04 7.08 2.03 10.69
5/19/2021 9:45:00 AM 10.01 50.018 0.04 7.1 2.9 10.7
5/19/2021 10:00:00 AM 10.18 50.324 0.04 7.12 2.05 10.66
5/19/2021 10:15:00 AM 10.35 50.63 0.04 7.13 2.44 10.66
5/19/2021 10:30:00 AM 10.56 51.008 0.04 7.14 3.39 10.61
5/19/2021 10:45:00 AM 10.79 51.422 0.04 7.16 1.86 10.58
5/19/2021 11:00:00 AM 11.05 51.89 0.04 7.17 1.9 10.53
5/19/2021 11:15:00 AM 11.31 52.358 0.04 7.18 1.94 10.48
5/19/2021 11:30:00 AM 11.56 52.808 0.04 7.2 2.14 10.44
5/19/2021 11:45:00 AM 11.83 53.294 0.04 7.21 2.03 10.39
5/19/2021 12:00:00 PM 12.1 53.78 0.04 7.22 2 10.33
5/19/2021 12:15:00 PM 12.39 54.302 0.04 7.23 1.9 10.27
5/19/2021 12:30:00 PM 12.67 54.806 0.04 7.25 2.07 10.23
5/19/2021 12:45:00 PM 12.91 55.238 0.04 7.26 1.84 10.17
5/19/2021 1:00:00 PM 13.19 55.742 0.04 7.27 1.87 10.11
5/19/2021 1:15:00 PM 13.45 56.21 0.04 7.29 1.94 10.05
5/19/2021 1:30:00 PM 13.7 56.66 0.04 7.3 2.18 9.98
5/19/2021 1:45:00 PM 13.94 57.092 0.04 7.31 2.31 9.94
5/19/2021 2:00:00 PM 14.12 57.416 0.04 7.32 2.01 9.89
5/19/2021 2:15:00 PM 14.38 57.884 0.04 7.34 1.89 9.84
5/19/2021 2:30:00 PM 14.61 58.298 0.04 7.36 2.05 9.78
5/19/2021 2:45:00 PM 14.84 58.712 0.04 7.38 1.94 9.73
5/19/2021 3:00:00 PM 15 59 0.04 7.4 1.79 9.67
5/19/2021 3:15:00 PM 15.21 59.378 0.04 7.42 1.7 9.62
5/19/2021 3:30:00 PM 15.39 59.702 0.04 7.42 1.76 9.57
5/19/2021 3:45:00 PM 15.49 59.882 0.04 7.43 2.06 9.54
5/19/2021 4:00:00 PM 15.6 60.08 0.039 7.44 1.89 9.49
5/19/2021 4:15:00 PM 15.66 60.188 0.04 7.43 1.76 9.45
5/19/2021 4:30:00 PM 15.66 60.188 0.04 7.42 2.04 9.45
5/19/2021 4:45:00 PM 15.66 60.188 0.039 7.41 2.28 9.42
5/19/2021 5:00:00 PM 15.62 60.116 0.04 7.34 1.75 9.41
5/19/2021 5:15:00 PM 15.5 59.9 0.04 7.36 1.82 9.41
5/19/2021 5:30:00 PM 15.41 59.738 0.04 7.35 1.79 9.39
5/19/2021 5:45:00 PM 15.34 59.612 0.04 7.34 1.88 9.4
5/19/2021 6:00:00 PM 15.25 59.45 0.04 7.35 1.95 9.4
5/19/2021 6:15:00 PM 15.17 59.306 0.04 7.34 1.97 9.39
5/19/2021 6:30:00 PM 15.09 59.162 0.04 7.32 1.92 9.38
5/19/2021 6:45:00 PM 15.01 59.018 0.04 7.31 1.98 9.38
5/19/2021 7:00:00 PM 14.93 58.874 0.04 7.31 2.27 9.36
5/19/2021 7:15:00 PM 14.86 58.748 0.04 7.29 2.22 9.34
5/19/2021 7:30:00 PM 14.75 58.55 0.04 7.27 2.02 9.36
5/19/2021 7:45:00 PM 14.67 58.406 0.04 7.25 1.99 9.31
5/19/2021 8:00:00 PM 14.56 58.208 0.04 7.21 1.85 9.31
5/19/2021 8:15:00 PM 14.46 58.028 0.04 7.19 1.89 9.29
5/19/2021 8:30:00 PM 14.36 57.848 0.04 7.18 2.09 9.28
5/19/2021 8:45:00 PM 14.25 57.65 0.04 7.16 2.33 9.27
5/19/2021 9:00:00 PM 14.13 57.434 0.04 7.15 2.08 9.29
5/19/2021 9:15:00 PM 14.03 57.254 0.041 7.12 2.14 9.29
5/19/2021 9:30:00 PM 13.92 57.056 0.041 7.11 2.55 9.3
5/19/2021 9:45:00 PM 13.82 56.876 0.041 7.11 2.17 9.31
5/19/2021 10:00:00 PM 13.73 56.714 0.041 7.1 1.98 9.35
5/19/2021 10:15:00 PM 13.63 56.534 0.041 7.1 2.09 9.35
5/19/2021 10:30:00 PM 13.54 56.372 0.041 7.09 2.09 9.37
5/19/2021 10:45:00 PM 13.45 56.21 0.041 7.09 2.2 9.37
5/19/2021 11:00:00 PM 13.36 56.048 0.041 7.07 2.48 9.42
5/19/2021 11:15:00 PM 13.27 55.886 0.041 7.04 2.16 9.43
5/19/2021 11:30:00 PM 13.18 55.724 0.041 7.04 2.43 9.45
5/19/2021 11:45:00 PM 13.09 55.562 0.041 7.04 2.35 9.48
5/20/2021 12:00:00 AM 13 55.4 0.041 7.04 1.98 9.47
5/20/2021 12:15:00 AM 12.91 55.238 0.041 7.04 2.36 9.52
5/20/2021 12:30:00 AM 12.83 55.094 0.041 7.04 2.3 9.53
5/20/2021 12:45:00 AM 12.74 54.932 0.041 7.03 2.2 9.56
5/20/2021 1:00:00 AM 12.66 54.788 0.041 7.04 2.2 9.57
5/20/2021 1:15:00 AM 12.57 54.626 0.041 7.03 2.39 9.59
5/20/2021 1:30:00 AM 12.48 54.464 0.041 7.04 2.41 9.63
5/20/2021 1:45:00 AM 12.4 54.32 0.041 7.03 2.22 9.62
5/20/2021 2:00:00 AM 12.32 54.176 0.041 7.03 2.33 9.65
5/20/2021 2:15:00 AM 12.24 54.032 0.041 7.02 2.29 9.69
5/20/2021 2:30:00 AM 12.15 53.87 0.041 7.03 2.46 9.71
5/20/2021 2:45:00 AM 12.07 53.726 0.041 7.03 2.61 9.74
5/20/2021 3:00:00 AM 11.98 53.564 0.042 7.03 2.16 9.77
5/20/2021 3:15:00 AM 11.9 53.42 0.042 7.03 2.51 9.79
5/20/2021 3:30:00 AM 11.82 53.276 0.042 7.03 2.31 9.79
5/20/2021 3:45:00 AM 11.73 53.114 0.042 7.03 2.31 9.83
5/20/2021 4:00:00 AM 11.65 52.97 0.042 7.02 2.23 9.85
5/20/2021 4:15:00 AM 11.58 52.844 0.042 7.03 2.37 9.86
5/20/2021 4:30:00 AM 11.5 52.7 0.042 7.02 2.29 9.87
5/20/2021 4:45:00 AM 11.43 52.574 0.042 7.03 2.17 9.92
5/20/2021 5:00:00 AM 11.37 52.466 0.04 7.02 3.49 9.93
5/20/2021 5:15:00 AM 11.3 52.34 0.042 7.01 4.26 9.93
5/20/2021 5:30:00 AM 11.24 52.232 0.042 7.02 5.02 9.96
5/20/2021 5:45:00 AM 11.17 52.106 0.042 7.02 2.76 9.98
5/20/2021 6:00:00 AM 11.1 51.98 0.042 7.02 4.18 10
5/20/2021 6:15:00 AM 11.04 51.872 0.042 7.01 6.9 9.98
5/20/2021 6:30:00 AM 10.97 51.746 0.042 7.02 2.49 10.06
5/20/2021 6:45:00 AM 10.91 51.638 0.042 7.02 2.38 10.13
5/20/2021 7:00:00 AM 10.85 51.53 0.042 7.01 2.2 10.17
5/20/2021 7:15:00 AM 10.81 51.458 0.042 7.03 2.01 10.2
5/20/2021 7:30:00 AM 10.77 51.386 0.041 7.04 12.81 10.22
5/20/2021 7:45:00 AM 10.74 51.332 0.041 7.05 2.11 10.26
5/20/2021 8:00:00 AM 10.75 51.35 0.041 7.07 2.04 10.32
5/20/2021 8:15:00 AM 10.76 51.368 0.041 7.08 2.44 10.33
5/20/2021 8:30:00 AM 10.76 51.368 0.041 7.09 2 10.37
5/20/2021 8:45:00 AM 10.8 51.44 0.041 7.1 231.23 10.36
5/20/2021 9:00:00 AM 10.88 51.584 0.041 7.11 2.45 10.38
5/20/2021 9:15:00 AM 10.95 51.71 0.041 7.13 272.09 10.4
5/20/2021 9:30:00 AM 11.05 51.89 0.041 7.15 2.96 10.41
5/20/2021 9:45:00 AM 11.2 52.16 0.041 7.17 1.91 10.4
5/20/2021 10:00:00 AM 11.37 52.466 0.041 7.19 1.68 10.39
5/20/2021 10:15:00 AM 11.53 52.754 0.041 7.2 1.76 10.33
5/20/2021 10:30:00 AM 11.68 53.024 0.041 7.22 2.01 10.3
5/20/2021 10:45:00 AM 11.9 53.42 0.041 7.24 1.99 10.29
5/20/2021 11:00:00 AM 12.12 53.816 0.041 7.25 2.17 10.25
5/20/2021 11:15:00 AM 12.38 54.284 0.041 7.26 1.78 10.23
5/20/2021 11:30:00 AM 12.68 54.824 0.041 7.28 1.77 10.17
5/20/2021 11:45:00 AM 12.95 55.31 0.041 7.29 2.08 10.13
5/20/2021 12:00:00 PM 13.23 55.814 0.041 7.29 1.98 10.05
5/20/2021 12:15:00 PM 13.53 56.354 0.035 7.32 1.69 9.96
5/20/2021 12:30:00 PM 13.82 56.876 0.033 7.33 1.85 9.61
5/20/2021 12:45:00 PM 14.1 57.38 0.032 7.35 1.67 9.57
5/20/2021 1:00:00 PM 14.41 57.938 0.028 7.35 1.62 9.69
5/20/2021 1:15:00 PM 14.7 58.46 0.04 7.35 2 9.78
5/20/2021 1:30:00 PM 14.91 58.838 0.04 7.37 1.9 9.69
5/20/2021 1:45:00 PM 15.17 59.306 0.04 7.39 1.76 9.67
5/20/2021 2:00:00 PM 15.44 59.792 0.04 7.42 1.9 9.63
5/20/2021 2:15:00 PM 15.62 60.116 0.04 7.41 1.66 9.55
5/20/2021 2:30:00 PM 15.83 60.494 0.038 7.42 2.92 9.48
5/20/2021 2:45:00 PM 16.12 61.016 0.038 7.43 3.33 9.45
5/20/2021 3:00:00 PM 16.29 61.322 0.038 7.43 3.14 9.4
5/20/2021 3:15:00 PM 16.45 61.61 0.038 7.41 3.09 9.35
5/20/2021 3:30:00 PM 16.62 61.916 0.04 7.44 2.08 9.3
5/20/2021 3:45:00 PM 16.69 62.042 0.038 7.44 2.73 9.25
5/20/2021 4:00:00 PM 16.8 62.24 0.038 7.41 2.78 9.23
5/20/2021 4:15:00 PM 16.86 62.348 0.04 7.42 1.71 9.18
5/20/2021 4:30:00 PM 16.97 62.546 0.038 7.45 2.84 9.17
5/20/2021 4:45:00 PM 16.96 62.528 0.038 7.5 3.05 9.15
5/20/2021 5:00:00 PM 16.9 62.42 0.04 7.5 1.73 9.13
5/20/2021 5:15:00 PM 16.88 62.384 0.04 7.51 1.82 9.15
5/20/2021 5:30:00 PM 16.73 62.114 0.038 7.48 2.97 9.11
5/20/2021 5:45:00 PM 16.62 61.916 0.041 7.46 2.12 9.09
5/20/2021 6:00:00 PM 16.48 61.664 0.039 7.42 3.02 9.08
5/20/2021 6:15:00 PM 16.36 61.448 0.041 7.38 1.69 9.1
5/20/2021 6:30:00 PM 16.25 61.25 0.041 7.34 1.75 9.07
5/20/2021 6:45:00 PM 16.13 61.034 0.041 7.33 1.85 9.05
5/20/2021 7:00:00 PM 16.01 60.818 0.041 7.31 1.75 9.03
5/20/2021 7:15:00 PM 15.9 60.62 0.041 7.29 1.73 9.06
5/20/2021 7:30:00 PM 15.76 60.368 0.041 7.27 1.6 9.03
5/20/2021 7:45:00 PM 15.64 60.152 0.041 7.26 1.85 9.04
5/20/2021 8:00:00 PM 15.53 59.954 0.041 7.23 1.87 9.04
5/20/2021 8:15:00 PM 15.41 59.738 0.041 7.22 3.23 9.04
5/20/2021 8:30:00 PM 15.3 59.54 0.041 7.2 2.15 9.05
5/20/2021 8:45:00 PM 15.18 59.324 0.041 7.18 1.84 9.06
5/20/2021 9:00:00 PM 15.05 59.09 0.041 7.18 1.83 9.07
5/20/2021 9:15:00 PM 14.92 58.856 0.042 7.17 1.73 9.06
5/20/2021 9:30:00 PM 14.8 58.64 0.042 7.15 2.02 9.09
5/20/2021 9:45:00 PM 14.67 58.406 0.042 7.14 2.23 9.11
5/20/2021 10:00:00 PM 14.55 58.19 0.042 7.14 2.18 9.15
5/20/2021 10:15:00 PM 14.43 57.974 0.042 7.14 2.12 9.18
5/20/2021 10:30:00 PM 14.32 57.776 0.042 7.13 2.16 9.18
5/20/2021 10:45:00 PM 14.22 57.596 0.042 7.15 2.2 9.2
5/20/2021 11:00:00 PM 14.12 57.416 0.042 7.14 2.16 9.24
5/20/2021 11:15:00 PM 14.02 57.236 0.042 7.13 2.21 9.29
5/20/2021 11:30:00 PM 13.92 57.056 0.04 7.13 3.38 9.27
5/20/2021 11:45:00 PM 13.83 56.894 0.042 7.14 1.97 9.33
5/21/2021 12:00:00 AM 13.73 56.714 0.042 7.14 1.92 9.33
5/21/2021 12:15:00 AM 13.65 56.57 0.042 7.14 1.96 9.35
5/21/2021 12:30:00 AM 13.56 56.408 0.042 7.13 1.93 9.37
5/21/2021 12:45:00 AM 13.48 56.264 0.042 7.13 2.04 9.4
5/21/2021 1:00:00 AM 13.39 56.102 0.042 7.13 2.01 9.42
5/21/2021 1:15:00 AM 13.31 55.958 0.042 7.09 2.2 9.46
5/21/2021 1:30:00 AM 13.23 55.814 0.04 7.07 3.62 9.47
5/21/2021 1:45:00 AM 13.15 55.67 0.042 7.07 2.46 9.5
5/21/2021 2:00:00 AM 13.07 55.526 0.042 7.06 2.31 9.53
5/21/2021 2:15:00 AM 12.99 55.382 0.042 7.07 2.15 9.53
5/21/2021 2:30:00 AM 12.9 55.22 0.042 7.08 2.16 9.55
5/21/2021 2:45:00 AM 12.83 55.094 0.042 7.07 1.98 9.57
5/21/2021 3:00:00 AM 12.76 54.968 0.042 7.05 2.19 9.59
5/21/2021 3:15:00 AM 12.68 54.824 0.042 7.06 2.69 9.61
5/21/2021 3:30:00 AM 12.59 54.662 0.042 7.06 2.2 9.65
5/21/2021 3:45:00 AM 12.52 54.536 0.042 7.05 1.91 9.67
5/21/2021 4:00:00 AM 12.44 54.392 0.042 7.06 2.27 9.68
5/21/2021 4:15:00 AM 12.36 54.248 0.042 7.05 2.23 9.69
5/21/2021 4:30:00 AM 12.28 54.104 0.042 7.05 2.1 9.68
5/21/2021 4:45:00 AM 12.21 53.978 0.042 7.06 1.89 9.74
5/21/2021 5:00:00 AM 12.13 53.834 0.042 7.03 2.42 9.74
5/21/2021 5:15:00 AM 12.06 53.708 0.042 7.04 2.24 9.77
5/21/2021 5:30:00 AM 11.98 53.564 0.042 7.04 1.98 9.78
5/21/2021 5:45:00 AM 11.91 53.438 0.042 7.03 2.28 9.79
5/21/2021 6:00:00 AM 11.84 53.312 0.042 7.05 2.45 9.82
5/21/2021 6:15:00 AM 11.79 53.222 0.042 7.05 2.52 9.82
5/21/2021 6:30:00 AM 11.72 53.096 0.042 7.05 2.39 9.91
5/21/2021 6:45:00 AM 11.67 53.006 0.042 7.04 4.22 9.9
5/21/2021 7:00:00 AM 11.62 52.916 0.042 7.06 2.48 9.97
5/21/2021 7:15:00 AM 11.59 52.862 0.042 7.07 1.96 10.03
5/21/2021 7:30:00 AM 11.56 52.808 0.042 7.07 2.18 10.05
5/21/2021 7:45:00 AM 11.56 52.808 0.042 7.09 2.4 10.08
5/21/2021 8:00:00 AM 11.56 52.808 0.042 7.1 1.89 10.12
5/21/2021 8:15:00 AM 11.59 52.862 0.042 7.11 1.93 10.13
5/21/2021 8:30:00 AM 11.63 52.934 0.042 7.11 2.43 10.16
5/21/2021 8:45:00 AM 11.69 53.042 0.042 7.13 2.04 10.18
5/21/2021 9:00:00 AM 11.77 53.186 0.041 7.14 3.62 10.17
5/21/2021 9:15:00 AM 11.87 53.366 0.042 7.15 2.38 10.17
5/21/2021 9:30:00 AM 11.99 53.582 0.04 7.17 4.36 10.16
5/21/2021 9:45:00 AM 12.16 53.888 0.041 7.19 3.05 10.17
5/21/2021 10:00:00 AM 12.33 54.194 0.042 7.2 2 10.13
5/21/2021 10:15:00 AM 12.52 54.536 0.042 7.24 1.86 10.12
5/21/2021 10:30:00 AM 12.73 54.914 0.042 7.25 1.91 10.08
5/21/2021 10:45:00 AM 12.97 55.346 0.042 7.27 1.72 10.05
5/21/2021 11:00:00 AM 13.19 55.742 0.042 7.28 2.14 10.03
5/21/2021 11:15:00 AM 13.44 56.192 0.042 7.29 1.72 9.98
5/21/2021 11:30:00 AM 13.71 56.678 0.042 7.31 2.04 9.95
5/21/2021 11:45:00 AM 14.04 57.272 0.042 7.33 2.19 9.88
5/21/2021 12:00:00 PM 14.33 57.794 0.042 7.35 1.74 9.84
5/21/2021 12:15:00 PM 14.64 58.352 0.042 7.38 1.64 9.8
5/21/2021 12:30:00 PM 14.92 58.856 0.042 7.39 1.81 9.73
5/21/2021 12:45:00 PM 15.16 59.288 0.041 7.4 1.79 9.7
5/21/2021 1:00:00 PM 15.49 59.882 0.041 7.42 1.75 9.66
5/21/2021 1:15:00 PM 15.76 60.368 0.04 7.43 3.08 9.62
5/21/2021 1:30:00 PM 15.98 60.764 0.04 7.44 3.09 9.55
5/21/2021 1:45:00 PM 16.24 61.232 0.04 7.46 2.96 9.54
5/21/2021 2:00:00 PM 16.48 61.664 0.04 7.43 6.78 9.44
5/21/2021 2:15:00 PM 16.71 62.078 0.04 7.47 3.31 9.4
5/21/2021 2:30:00 PM 16.95 62.51 0.041 7.51 1.78 9.39
5/21/2021 2:45:00 PM 17.03 62.654 0.041 7.5 1.74 9.29
5/21/2021 3:00:00 PM 17.3 63.14 0.041 7.54 1.85 9.27
5/21/2021 3:15:00 PM 17.35 63.23 0.041 7.54 1.96 9.22
5/21/2021 3:30:00 PM 17.56 63.608 0.04 7.54 3.18 9.18
5/21/2021 3:45:00 PM 17.66 63.788 0.041 7.52 2.16 9.14
5/21/2021 4:00:00 PM 17.62 63.716 0.04 7.54 3.62 9.1
5/21/2021 4:15:00 PM 17.59 63.662 0.041 7.5 1.83 9.05
5/21/2021 4:30:00 PM 17.71 63.878 0.039 7.51 3.23 9.05
5/21/2021 4:45:00 PM 17.74 63.932 0.041 7.49 1.86 9.03
5/21/2021 5:00:00 PM 17.66 63.788 0.04 7.46 3.11 9.03
5/21/2021 5:15:00 PM 17.54 63.572 0.041 7.45 1.79 9.01
5/21/2021 5:30:00 PM 17.41 63.338 0.041 7.44 1.82 9
5/21/2021 5:45:00 PM 17.29 63.122 0.04 7.41 3.17 8.99
5/21/2021 6:00:00 PM 17.17 62.906 0.041 7.4 1.83 8.99
5/21/2021 6:15:00 PM 17.05 62.69 0.04 7.38 3.03 8.98
5/21/2021 6:30:00 PM 16.96 62.528 0.042 7.37 1.72 8.99
5/21/2021 6:45:00 PM 16.85 62.33 0.042 7.37 1.78 8.97
5/21/2021 7:00:00 PM 16.73 62.114 0.042 7.34 1.89 8.93
5/21/2021 7:15:00 PM 16.6 61.88 0.042 7.33 1.88 8.93
5/21/2021 7:30:00 PM 16.49 61.682 0.041 7.31 2.84 8.92
5/21/2021 7:45:00 PM 16.37 61.466 0.042 7.31 1.84 8.92
5/21/2021 8:00:00 PM 16.25 61.25 0.04 7.28 3.05 8.91
5/21/2021 8:15:00 PM 16.13 61.034 0.041 7.24 3.06 8.91
5/21/2021 8:30:00 PM 16.01 60.818 0.042 7.22 1.93 8.92
5/21/2021 8:45:00 PM 15.91 60.638 0.041 7.2 3.07 8.92
5/21/2021 9:00:00 PM 15.79 60.422 0.041 7.18 3 8.93
5/21/2021 9:15:00 PM 15.67 60.206 0.042 7.17 1.94 8.94
5/21/2021 9:30:00 PM 15.55 59.99 0.043 7.16 2.04 8.97
5/21/2021 9:45:00 PM 15.42 59.756 0.043 7.16 2.01 8.98
5/21/2021 10:00:00 PM 15.3 59.54 0.043 7.16 2.02 9.02
5/21/2021 10:15:00 PM 15.19 59.342 0.043 7.16 2.32 9.03
5/21/2021 10:30:00 PM 15.07 59.126 0.043 7.16 2.02 9.06
5/21/2021 10:45:00 PM 14.97 58.946 0.043 7.15 1.92 9.08
5/21/2021 11:00:00 PM 14.86 58.748 0.043 7.15 2.06 9.1
5/21/2021 11:15:00 PM 14.76 58.568 0.043 7.16 2.21 9.13
5/21/2021 11:30:00 PM 14.66 58.388 0.043 7.15 2.09 9.15
5/21/2021 11:45:00 PM 14.56 58.208 0.043 7.14 2.13 9.16
5/22/2021 12:00:00 AM 14.48 58.064 0.043 7.13 2.14 9.18
5/22/2021 12:15:00 AM 14.39 57.902 0.043 7.13 2.11 9.21
5/22/2021 12:30:00 AM 14.31 57.758 0.043 7.13 2.5 9.22
5/22/2021 12:45:00 AM 14.22 57.596 0.043 7.13 2.24 9.25
5/22/2021 1:00:00 AM 14.14 57.452 0.043 7.13 1.98 9.27
5/22/2021 1:15:00 AM 14.06 57.308 0.043 7.12 2.09 9.28
5/22/2021 1:30:00 AM 13.98 57.164 0.043 7.12 2.1 9.3
5/22/2021 1:45:00 AM 13.9 57.02 0.043 7.11 2.22 9.32
5/22/2021 2:00:00 AM 13.82 56.876 0.043 7.11 2.26 9.34
5/22/2021 2:15:00 AM 13.73 56.714 0.043 7.11 1.92 9.35
5/22/2021 2:30:00 AM 13.66 56.588 0.043 7.11 2.23 9.37
5/22/2021 2:45:00 AM 13.57 56.426 0.043 7.12 2.27 9.39
5/22/2021 3:00:00 AM 13.49 56.282 0.043 7.11 2.03 9.41
5/22/2021 3:15:00 AM 13.41 56.138 0.043 7.11 2.26 9.44
5/22/2021 3:30:00 AM 13.32 55.976 0.043 7.1 5.42 9.42
5/22/2021 3:45:00 AM 13.24 55.832 0.043 7.1 2.23 9.47
5/22/2021 4:00:00 AM 13.17 55.706 0.043 7.11 2.05 9.49
5/22/2021 4:15:00 AM 13.09 55.562 0.043 7.1 4.12 9.47
5/22/2021 4:30:00 AM 13.02 55.436 0.043 7.08 2.24 9.51
5/22/2021 4:45:00 AM 12.94 55.292 0.043 7.07 3.72 9.53
5/22/2021 5:00:00 AM 12.86 55.148 0.043 7.08 2.31 9.57
5/22/2021 5:15:00 AM 12.78 55.004 0.043 7.07 2.12 9.58
5/22/2021 5:30:00 AM 12.71 54.878 0.043 7.08 2.13 9.6
5/22/2021 5:45:00 AM 12.64 54.752 0.043 7.08 2.23 9.62
5/22/2021 6:00:00 AM 12.57 54.626 0.043 7.07 2.57 9.64
5/22/2021 6:15:00 AM 12.5 54.5 0.043 7.07 3.07 9.67
5/22/2021 6:30:00 AM 12.44 54.392 0.041 7.07 5.07 9.71
5/22/2021 6:45:00 AM 12.4 54.32 0.043 7.09 2.09 9.74
5/22/2021 7:00:00 AM 12.37 54.266 0.043 7.1 2.3 9.8
5/22/2021 7:15:00 AM 12.36 54.248 0.043 7.11 2.52 9.86
5/22/2021 7:30:00 AM 12.34 54.212 0.043 7.12 1.99 9.89
5/22/2021 7:45:00 AM 12.32 54.176 0.043 7.14 2.12 9.92
5/22/2021 8:00:00 AM 12.34 54.212 0.043 7.15 2.33 9.95
5/22/2021 8:15:00 AM 12.37 54.266 0.043 7.18 2.32 9.97
5/22/2021 8:30:00 AM 12.42 54.356 0.043 7.19 1.93 10.01
5/22/2021 8:45:00 AM 12.48 54.464 0.043 7.22 2.32 10.03
5/22/2021 9:00:00 AM 12.52 54.536 0.043 7.23 2.09 10.04
5/22/2021 9:15:00 AM 12.6 54.68 0.043 7.24 2.51 10.05
5/22/2021 9:30:00 AM 12.71 54.878 0.043 7.26 1.83 10.06
5/22/2021 9:45:00 AM 12.78 55.004 0.042 7.27 1.9 10.05
5/22/2021 10:00:00 AM 12.91 55.238 0.042 7.28 1.84 10.05
5/22/2021 10:15:00 AM 13.01 55.418 0.042 7.3 1.85 10.05
5/22/2021 10:30:00 AM 13.1 55.58 0.042 7.32 1.97 10.04
5/22/2021 10:45:00 AM 13.23 55.814 0.042 7.33 1.79 10.02
5/22/2021 11:00:00 AM 13.37 56.066 0.042 7.35 1.64 10.02
5/22/2021 11:15:00 AM 13.51 56.318 0.042 7.35 1.74 10
5/22/2021 11:30:00 AM 13.66 56.588 0.042 7.36 1.94 9.97
5/22/2021 11:45:00 AM 13.88 56.984 0.042 7.39 1.85 9.94
5/22/2021 12:00:00 PM 14.06 57.308 0.042 7.4 1.8 9.9
5/22/2021 12:15:00 PM 14.27 57.686 0.042 7.41 1.62 9.86
5/22/2021 12:30:00 PM 14.61 58.298 0.042 7.44 1.91 9.83
5/22/2021 12:45:00 PM 14.78 58.604 0.042 7.43 2.1 9.77
5/22/2021 1:00:00 PM 14.87 58.766 0.042 7.44 1.7 9.7
5/22/2021 1:15:00 PM 15.01 59.018 0.042 7.43 1.89 9.67
5/22/2021 1:30:00 PM 15.08 59.144 0.041 7.43 3.62 9.63
5/22/2021 1:45:00 PM 15.22 59.396 0.04 7.42 3.86 9.6
5/22/2021 2:00:00 PM 15.33 59.594 0.04 7.44 3.19 9.6
5/22/2021 2:15:00 PM 15.37 59.666 0.042 7.44 1.99 9.57
5/22/2021 2:30:00 PM 15.47 59.846 0.042 7.45 1.8 9.55
5/22/2021 2:45:00 PM 15.51 59.918 0.042 7.46 2.08 9.55
5/22/2021 3:00:00 PM 15.54 59.972 0.042 7.44 1.86 9.51
5/22/2021 3:15:00 PM 15.56 60.008 0.041 7.43 4.18 9.48
5/22/2021 3:30:00 PM 15.63 60.134 0.042 7.43 1.77 9.46
5/22/2021 3:45:00 PM 15.81 60.458 0.04 7.44 3.64 9.45
5/22/2021 4:00:00 PM 15.88 60.584 0.039 7.46 6.56 9.43
5/22/2021 4:15:00 PM 15.95 60.71 0.042 7.48 2.13 9.44
5/22/2021 4:30:00 PM 15.95 60.71 0.039 7.47 3.08 9.41
5/22/2021 4:45:00 PM 16 60.8 0.042 7.45 1.88 9.38
5/22/2021 5:00:00 PM 15.99 60.782 0.042 7.46 1.77 9.35
5/22/2021 5:15:00 PM 16.03 60.854 0.042 7.47 1.89 9.32
5/22/2021 5:30:00 PM 16.05 60.89 0.042 7.46 1.99 9.29
5/22/2021 5:45:00 PM 16.02 60.836 0.042 7.44 1.84 9.29
5/22/2021 6:00:00 PM 16.02 60.836 0.041 7.46 4.61 9.26
5/22/2021 6:15:00 PM 15.95 60.71 0.042 7.4 2.12 9.23
5/22/2021 6:30:00 PM 15.91 60.638 0.042 7.39 2.06 9.2
5/22/2021 6:45:00 PM 15.83 60.494 0.04 7.37 3.71 9.19
5/22/2021 7:00:00 PM 15.77 60.386 0.041 7.35 3.4 9.17
5/22/2021 7:15:00 PM 15.73 60.314 0.042 7.34 1.67 9.13
5/22/2021 7:30:00 PM 15.67 60.206 0.041 7.33 4.86 9.11
5/22/2021 7:45:00 PM 15.59 60.062 0.042 7.31 1.89 9.09
5/22/2021 8:00:00 PM 15.5 59.9 0.04 7.28 4.09 9.05
5/22/2021 8:15:00 PM 15.43 59.774 0.041 7.26 5.71 9.02
5/22/2021 8:30:00 PM 15.36 59.648 0.042 7.25 4.96 9.01
5/22/2021 8:45:00 PM 15.29 59.522 0.043 7.24 2.02 9.02
5/22/2021 9:00:00 PM 15.21 59.378 0.043 7.24 2.25 9.01
5/22/2021 9:15:00 PM 15.16 59.288 0.043 7.23 2.09 8.99
5/22/2021 9:30:00 PM 15.09 59.162 0.043 7.22 2.87 9.01
5/22/2021 9:45:00 PM 15.03 59.054 0.043 7.21 3.6 8.99
5/22/2021 10:00:00 PM 14.96 58.928 0.043 7.2 2.38 9.01
5/22/2021 10:15:00 PM 14.9 58.82 0.043 7.2 2.55 9
5/22/2021 10:30:00 PM 14.84 58.712 0.043 7.19 2.02 9.04
5/22/2021 10:45:00 PM 14.79 58.622 0.043 7.2 1.99 9.04
5/22/2021 11:00:00 PM 14.72 58.496 0.043 7.2 2.71 9.07
5/22/2021 11:15:00 PM 14.66 58.388 0.043 7.19 1.98 9.08
5/22/2021 11:30:00 PM 14.6 58.28 0.043 7.18 2.08 9.08
5/22/2021 11:45:00 PM 14.55 58.19 0.044 7.17 2.25 9.1
5/23/2021 12:00:00 AM 14.51 58.118 0.044 7.17 2.37 9.1
5/23/2021 12:15:00 AM 14.43 57.974 0.044 7.16 2.19 9.13
5/23/2021 12:30:00 AM 14.37 57.866 0.044 7.14 2.29 9.12
5/23/2021 12:45:00 AM 14.32 57.776 0.044 7.15 2.26 9.14
5/23/2021 1:00:00 AM 14.26 57.668 0.044 7.14 2.12 9.15
5/23/2021 1:15:00 AM 14.21 57.578 0.044 7.14 1.91 9.17
5/23/2021 1:30:00 AM 14.15 57.47 0.044 7.15 2.2 9.18
5/23/2021 1:45:00 AM 14.1 57.38 0.044 7.14 2.6 9.19
5/23/2021 2:00:00 AM 14.04 57.272 0.044 7.14 2.11 9.2
5/23/2021 2:15:00 AM 13.98 57.164 0.044 7.14 2.12 9.23
5/23/2021 2:30:00 AM 13.92 57.056 0.044 7.14 2.29 9.24
5/23/2021 2:45:00 AM 13.86 56.948 0.044 7.13 2.33 9.25
5/23/2021 3:00:00 AM 13.8 56.84 0.044 7.11 2.17 9.25
5/23/2021 3:15:00 AM 13.73 56.714 0.044 7.1 2.22 9.26
5/23/2021 3:30:00 AM 13.68 56.624 0.044 7.11 2.31 9.27
5/23/2021 3:45:00 AM 13.62 56.516 0.044 7.11 2.2 9.29
5/23/2021 4:00:00 AM 13.56 56.408 0.044 7.11 2.43 9.29
5/23/2021 4:15:00 AM 13.49 56.282 0.042 7.1 3.86 9.33
5/23/2021 4:30:00 AM 13.43 56.174 0.044 7.11 2.12 9.34
5/23/2021 4:45:00 AM 13.36 56.048 0.044 7.1 2.12 9.35
5/23/2021 5:00:00 AM 13.3 55.94 0.044 7.1 2.06 9.37
5/23/2021 5:15:00 AM 13.25 55.85 0.044 7.1 2.69 9.37
5/23/2021 5:30:00 AM 13.19 55.742 0.044 7.1 2.08 9.4
5/23/2021 5:45:00 AM 13.13 55.634 0.044 7.11 2.39 9.4
5/23/2021 6:00:00 AM 13.07 55.526 0.044 7.1 2.26 9.42
5/23/2021 6:15:00 AM 13.03 55.454 0.044 7.1 2.07 9.44
5/23/2021 6:30:00 AM 12.98 55.364 0.044 7.11 2.48 9.46
5/23/2021 6:45:00 AM 12.94 55.292 0.044 7.12 2.05 9.5
5/23/2021 7:00:00 AM 12.91 55.238 0.044 7.12 2.09 9.54
5/23/2021 7:15:00 AM 12.88 55.184 0.044 7.14 2.23 9.56
5/23/2021 7:30:00 AM 12.86 55.148 0.044 7.15 2.22 9.61
5/23/2021 7:45:00 AM 12.86 55.148 0.044 7.15 1.92 9.64
5/23/2021 8:00:00 AM 12.87 55.166 0.044 7.17 2.04 9.65
5/23/2021 8:15:00 AM 12.89 55.202 0.044 7.19 1.81 9.68
5/23/2021 8:30:00 AM 12.95 55.31 0.044 7.2 1.96 9.69
5/23/2021 8:45:00 AM 13.02 55.436 0.044 7.23 1.9 9.7
5/23/2021 9:00:00 AM 13.14 55.652 0.044 7.25 2.1 9.71
5/23/2021 9:15:00 AM 13.26 55.868 0.044 7.26 1.96 9.69
5/23/2021 9:30:00 AM 13.46 56.228 0.043 7.29 1.97 9.71
5/23/2021 9:45:00 AM 13.68 56.624 0.043 7.32 1.81 9.71
5/23/2021 10:00:00 AM 13.92 57.056 0.043 7.35 2.01 9.71
5/23/2021 10:15:00 AM 14.14 57.452 0.043 7.37 1.95 9.71
5/23/2021 10:30:00 AM 14.34 57.812 0.043 7.39 2.01 9.68
5/23/2021 10:45:00 AM 14.45 58.01 0.043 7.39 1.85 9.65
5/23/2021 11:00:00 AM 14.65 58.37 0.043 7.41 1.79 9.63
5/23/2021 11:15:00 AM 14.76 58.568 0.043 7.42 1.81 9.59
5/23/2021 11:30:00 AM 14.94 58.892 0.043 7.43 1.78 9.57
5/23/2021 11:45:00 AM 14.96 58.928 0.043 7.43 1.73 9.55
5/23/2021 12:00:00 PM 15.12 59.216 0.042 7.43 3.19 9.52
5/23/2021 12:15:00 PM 15.29 59.522 0.043 7.45 1.84 9.52
5/23/2021 12:30:00 PM 15.49 59.882 0.043 7.46 1.86 9.46
5/23/2021 12:45:00 PM 15.82 60.476 0.042 7.47 3.19 9.43
5/23/2021 1:00:00 PM 15.93 60.674 0.042 7.46 3.08 9.39
5/23/2021 1:15:00 PM 16.2 61.16 0.04 7.49 2.98 9.36
5/23/2021 1:30:00 PM 16.48 61.664 0.043 7.52 1.91 9.31
5/23/2021 1:45:00 PM 16.69 62.042 0.042 7.52 3.02 9.31
5/23/2021 2:00:00 PM 16.72 62.096 0.043 7.51 1.8 9.24
5/23/2021 2:15:00 PM 16.86 62.348 0.042 7.52 3.01 9.18
5/23/2021 2:30:00 PM 17.17 62.906 0.043 7.54 1.83 9.17
5/23/2021 2:45:00 PM 17.25 63.05 0.042 7.55 1.75 9.13
5/23/2021 3:00:00 PM 17.27 63.086 0.042 7.53 1.79 9.07
5/23/2021 3:15:00 PM 17.52 63.536 0.042 7.54 1.81 9.03
5/23/2021 3:30:00 PM 17.61 63.698 0.042 7.54 2.02 9.01
5/23/2021 3:45:00 PM 17.79 64.022 0.042 7.56 1.73 8.98
5/23/2021 4:00:00 PM 17.84 64.112 0.042 7.56 1.83 8.99
5/23/2021 4:15:00 PM 17.86 64.148 0.042 7.56 1.88 8.96
5/23/2021 4:30:00 PM 18.11 64.598 0.042 7.58 1.95 8.91
5/23/2021 4:45:00 PM 18.17 64.706 0.042 7.57 1.84 8.85
5/23/2021 5:00:00 PM 18.36 65.048 0.042 7.59 1.98 8.8
5/23/2021 5:15:00 PM 18.32 64.976 0.041 7.57 3.11 8.79
5/23/2021 5:30:00 PM 18.23 64.814 0.042 7.57 1.94 8.75
5/23/2021 5:45:00 PM 18.21 64.778 0.042 7.55 3.49 8.75
5/23/2021 6:00:00 PM 18.12 64.616 0.043 7.53 1.88 8.74
5/23/2021 6:15:00 PM 17.98 64.364 0.043 7.49 1.93 8.73
5/23/2021 6:30:00 PM 17.8 64.04 0.043 7.46 1.81 8.73
5/23/2021 6:45:00 PM 17.71 63.878 0.042 7.44 3.07 8.72
5/23/2021 7:00:00 PM 17.6 63.68 0.043 7.44 1.77 8.73
5/23/2021 7:15:00 PM 17.47 63.446 0.043 7.42 1.91 8.67
5/23/2021 7:30:00 PM 17.35 63.23 0.043 7.41 1.72 8.67
5/23/2021 7:45:00 PM 17.2 62.96 0.043 7.37 1.98 8.64
5/23/2021 8:00:00 PM 17.08 62.744 0.043 7.36 1.91 8.64
5/23/2021 8:15:00 PM 16.96 62.528 0.042 7.36 3.85 8.64
5/23/2021 8:30:00 PM 16.87 62.366 0.043 7.35 2.19 8.63
5/23/2021 8:45:00 PM 16.77 62.186 0.044 7.34 2.01 8.62
5/23/2021 9:00:00 PM 16.68 62.024 0.043 7.32 3.37 8.62
5/23/2021 9:15:00 PM 16.57 61.826 0.044 7.32 2.05 8.65
5/23/2021 9:30:00 PM 16.49 61.682 0.044 7.31 2.17 8.65
5/23/2021 9:45:00 PM 16.4 61.52 0.044 7.3 2.66 8.66
5/23/2021 10:00:00 PM 16.32 61.376 0.042 7.31 3.47 8.68
5/23/2021 10:15:00 PM 16.23 61.214 0.042 7.31 3.49 8.69
5/23/2021 10:30:00 PM 16.16 61.088 0.042 7.31 4.18 8.7
5/23/2021 10:45:00 PM 16.07 60.926 0.043 7.31 3.58 8.72
5/23/2021 11:00:00 PM 15.99 60.782 0.043 7.3 3.2 8.75
5/23/2021 11:15:00 PM 15.89 60.602 0.044 7.3 2.25 8.78
5/23/2021 11:30:00 PM 15.79 60.422 0.044 7.31 2.07 8.8
5/23/2021 11:45:00 PM 15.72 60.296 0.044 7.3 2.52 8.8
5/24/2021 12:00:00 AM 15.62 60.116 0.044 7.3 2.23 8.83
5/24/2021 12:15:00 AM 15.55 59.99 0.043 7.29 3.31 8.85
5/24/2021 12:30:00 AM 15.47 59.846 0.044 7.29 2.23 8.87
5/24/2021 12:45:00 AM 15.38 59.684 0.043 7.28 3.35 8.89
5/24/2021 1:00:00 AM 15.27 59.486 0.044 7.28 2.82 8.92
5/24/2021 1:15:00 AM 15.19 59.342 0.044 7.28 2.1 8.94
5/24/2021 1:30:00 AM 15.09 59.162 0.044 7.27 2.39 8.94
5/24/2021 1:45:00 AM 14.99 58.982 0.044 7.27 2.24 8.97
5/24/2021 2:00:00 AM 14.9 58.82 0.044 7.27 2.52 8.99
5/24/2021 2:15:00 AM 14.81 58.658 0.044 7.26 2.18 9.01
5/24/2021 2:30:00 AM 14.7 58.46 0.044 7.25 2.13 9.05
5/24/2021 2:45:00 AM 14.62 58.316 0.044 7.24 2.14 9.06
5/24/2021 3:00:00 AM 14.53 58.154 0.043 7.24 3.49 9.08
5/24/2021 3:15:00 AM 14.44 57.992 0.044 7.24 2.35 9.11
5/24/2021 3:30:00 AM 14.36 57.848 0.044 7.24 2.6 9.12
5/24/2021 3:45:00 AM 14.27 57.686 0.044 7.23 2.78 9.13
5/24/2021 4:00:00 AM 14.18 57.524 0.044 7.23 2.3 9.15
5/24/2021 4:15:00 AM 14.09 57.362 0.044 7.22 2.48 9.17
5/24/2021 4:30:00 AM 14 57.2 0.044 7.24 2.67 9.2
5/24/2021 4:45:00 AM 13.9 57.02 0.044 7.23 2.33 9.22
5/24/2021 5:00:00 AM 13.8 56.84 0.044 7.22 2.32 9.25
5/24/2021 5:15:00 AM 13.72 56.696 0.044 7.21 2.28 9.26
5/24/2021 5:30:00 AM 13.64 56.552 0.044 7.21 2.3 9.29
5/24/2021 5:45:00 AM 13.56 56.408 0.042 7.2 4.15 9.3
5/24/2021 6:00:00 AM 13.49 56.282 0.044 7.21 2.11 9.33
5/24/2021 6:15:00 AM 13.43 56.174 0.044 7.21 2.6 9.34
5/24/2021 6:30:00 AM 13.36 56.048 0.044 7.2 2.44 9.4
5/24/2021 6:45:00 AM 13.31 55.958 0.044 7.21 2.67 9.43
5/24/2021 7:00:00 AM 13.26 55.868 0.044 7.22 2.44 9.49
5/24/2021 7:15:00 AM 13.22 55.796 0.044 7.24 2.17 9.56
5/24/2021 7:30:00 AM 13.2 55.76 0.044 7.25 2.01 9.61
5/24/2021 7:45:00 AM 13.18 55.724 0.044 7.28 1.98 9.67
5/24/2021 8:00:00 AM 13.16 55.688 0.043 7.28 3.75 9.7
5/24/2021 8:15:00 AM 13.15 55.67 0.044 7.3 1.86 9.75
5/24/2021 8:30:00 AM 13.15 55.67 0.044 7.33 1.89 9.77
5/24/2021 8:45:00 AM 13.23 55.814 0.044 7.35 2.96 9.8
5/24/2021 9:00:00 AM 13.25 55.85 0.044 7.35 2.04 9.81
5/24/2021 9:15:00 AM 13.3 55.94 0.044 7.36 1.91 9.84
5/24/2021 9:30:00 AM 13.39 56.102 0.044 7.37 1.81 9.85
5/24/2021 9:45:00 AM 13.45 56.21 0.043 7.38 1.8 9.83
5/24/2021 10:00:00 AM 13.55 56.39 0.043 7.39 2.05 9.82
5/24/2021 10:15:00 AM 13.62 56.516 0.043 7.4 1.99 9.83
5/24/2021 10:30:00 AM 13.63 56.534 0.043 7.41 1.87 9.82
5/24/2021 10:45:00 AM 13.67 56.606 0.043 7.41 1.86 9.81
5/24/2021 11:00:00 AM 13.8 56.84 0.043 7.42 1.84 9.8
5/24/2021 11:15:00 AM 13.96 57.128 0.043 7.43 1.86 9.8
5/24/2021 11:30:00 AM 14.07 57.326 0.043 7.44 1.82 9.8
5/24/2021 11:45:00 AM 14.19 57.542 0.043 7.46 1.8 9.79
5/24/2021 12:00:00 PM 14.27 57.686 0.043 7.48 1.76 9.79
5/24/2021 12:15:00 PM 14.45 58.01 0.043 7.49 1.85 9.77
5/24/2021 12:30:00 PM 14.64 58.352 0.043 7.49 1.88 9.76
5/24/2021 12:45:00 PM 14.84 58.712 0.043 7.51 1.82 9.73
5/24/2021 1:00:00 PM 14.94 58.892 0.043 7.52 1.83 9.68
5/24/2021 1:15:00 PM 15.16 59.288 0.043 7.53 1.77 9.66
5/24/2021 1:30:00 PM 15.17 59.306 0.043 7.52 1.96 9.63
5/24/2021 1:45:00 PM 15.25 59.45 0.043 7.53 1.84 9.6
5/24/2021 2:00:00 PM 15.32 59.576 0.043 7.53 2.01 9.59
5/24/2021 2:15:00 PM 15.38 59.684 0.041 7.51 3.02 9.53
5/24/2021 2:30:00 PM 15.55 59.99 0.041 7.51 3.12 9.52
5/24/2021 2:45:00 PM 15.58 60.044 0.042 7.52 2.98 9.5
5/24/2021 3:00:00 PM 15.54 59.972 0.042 7.47 3.85 9.47
5/24/2021 3:15:00 PM 15.51 59.918 0.043 7.47 1.85 9.48
5/24/2021 3:30:00 PM 15.52 59.936 0.043 7.47 1.91 9.46
5/24/2021 3:45:00 PM 15.48 59.864 0.043 7.46 1.91 9.43
5/24/2021 4:00:00 PM 15.45 59.81 0.042 7.44 3.08 9.41
5/24/2021 4:15:00 PM 15.44 59.792 0.043 7.44 1.81 9.43
5/24/2021 4:30:00 PM 15.4 59.72 0.043 7.43 1.81 9.41
5/24/2021 4:45:00 PM 15.36 59.648 0.043 7.42 1.77 9.39
5/24/2021 5:00:00 PM 15.33 59.594 0.042 7.41 3.23 9.38
5/24/2021 5:15:00 PM 15.29 59.522 0.043 7.41 1.77 9.38
5/24/2021 5:30:00 PM 15.27 59.486 0.043 7.4 1.94 9.36
5/24/2021 5:45:00 PM 15.25 59.45 0.043 7.4 1.97 9.37
5/24/2021 6:00:00 PM 15.2 59.36 0.043 7.38 2.06 9.36
5/24/2021 6:15:00 PM 15.17 59.306 0.043 7.39 1.97 9.37
5/24/2021 6:30:00 PM 15.11 59.198 0.042 7.38 2.99 9.32
5/24/2021 6:45:00 PM 15.07 59.126 0.041 7.36 2.92 9.3
5/24/2021 7:00:00 PM 14.99 58.982 0.043 7.35 1.81 9.26
5/24/2021 7:15:00 PM 14.93 58.874 0.042 7.32 3.02 9.24
5/24/2021 7:30:00 PM 14.86 58.748 0.043 7.32 1.89 9.22
5/24/2021 7:45:00 PM 14.78 58.604 0.043 7.29 1.84 9.2
5/24/2021 8:00:00 PM 14.69 58.442 0.044 7.27 2.04 9.17
5/24/2021 8:15:00 PM 14.62 58.316 0.044 7.27 1.96 9.17
5/24/2021 8:30:00 PM 14.54 58.172 0.044 7.26 2.06 9.17
5/24/2021 8:45:00 PM 14.46 58.028 0.044 7.24 1.94 9.17
5/24/2021 9:00:00 PM 14.39 57.902 0.044 7.24 2.26 9.17
5/24/2021 9:15:00 PM 14.32 57.776 0.044 7.23 2.26 9.17
5/24/2021 9:30:00 PM 14.26 57.668 0.044 7.23 2.32 9.18
5/24/2021 9:45:00 PM 14.2 57.56 0.044 7.22 2.25 9.18
5/24/2021 10:00:00 PM 14.15 57.47 0.044 7.22 2.44 9.19
5/24/2021 10:15:00 PM 14.08 57.344 0.044 7.22 2.27 9.21
5/24/2021 10:30:00 PM 14.03 57.254 0.044 7.23 1.98 9.23
5/24/2021 10:45:00 PM 13.98 57.164 0.044 7.21 2.15 9.24
5/24/2021 11:00:00 PM 13.92 57.056 0.044 7.2 2.22 9.25
5/24/2021 11:15:00 PM 13.88 56.984 0.045 7.21 2.25 9.26
5/24/2021 11:30:00 PM 13.83 56.894 0.045 7.22 2.3 9.27
5/24/2021 11:45:00 PM 13.78 56.804 0.045 7.22 2.08 9.28
5/25/2021 12:00:00 AM 13.74 56.732 0.045 7.21 1.99 9.28
5/25/2021 12:15:00 AM 13.7 56.66 0.045 7.2 2.07 9.3
5/25/2021 12:30:00 AM 13.67 56.606 0.045 7.2 2.45 9.29
5/25/2021 12:45:00 AM 13.63 56.534 0.045 7.2 2.31 9.31
5/25/2021 1:00:00 AM 13.59 56.462 0.045 7.2 2.24 9.31
5/25/2021 1:15:00 AM 13.55 56.39 0.045 7.19 2.26 9.33
5/25/2021 1:30:00 AM 13.52 56.336 0.045 7.2 2.2 9.34
5/25/2021 1:45:00 AM 13.48 56.264 0.045 7.2 2.07 9.35
5/25/2021 2:00:00 AM 13.45 56.21 0.045 7.21 2.15 9.36
5/25/2021 2:15:00 AM 13.42 56.156 0.045 7.19 2.19 9.37
5/25/2021 2:30:00 AM 13.39 56.102 0.045 7.2 2.14 9.38
5/25/2021 2:45:00 AM 13.36 56.048 0.045 7.2 2.18 9.38
5/25/2021 3:00:00 AM 13.33 55.994 0.045 7.2 2.47 9.39
5/25/2021 3:15:00 AM 13.3 55.94 0.045 7.2 2.37 9.39
5/25/2021 3:30:00 AM 13.27 55.886 0.045 7.2 2.37 9.4
5/25/2021 3:45:00 AM 13.25 55.85 0.045 7.2 2 9.4
5/25/2021 4:00:00 AM 13.22 55.796 0.045 7.2 2.1 9.41
5/25/2021 4:15:00 AM 13.19 55.742 0.045 7.2 2.07 9.42
5/25/2021 4:30:00 AM 13.17 55.706 0.045 7.19 2.24 9.42
5/25/2021 4:45:00 AM 13.14 55.652 0.045 7.2 2.17 9.43
5/25/2021 5:00:00 AM 13.11 55.598 0.045 7.18 2.22 9.43
5/25/2021 5:15:00 AM 13.09 55.562 0.045 7.19 2.21 9.43
5/25/2021 5:30:00 AM 13.07 55.526 0.045 7.2 2.36 9.44
5/25/2021 5:45:00 AM 13.05 55.49 0.045 7.19 2.84 9.44
5/25/2021 6:00:00 AM 13.02 55.436 0.045 7.19 15.57 9.44
5/25/2021 6:15:00 AM 12.99 55.382 0.045 7.19 2.97 9.47
5/25/2021 6:30:00 AM 12.98 55.364 0.045 7.2 2.5 9.48
5/25/2021 6:45:00 AM 12.96 55.328 0.045 7.2 2.2 9.5
5/25/2021 7:00:00 AM 12.94 55.292 0.045 7.2 2.56 9.54
5/25/2021 7:15:00 AM 12.93 55.274 0.045 7.19 3.44 9.54
5/25/2021 7:30:00 AM 12.93 55.274 0.045 7.2 2.51 9.56
5/25/2021 7:45:00 AM 12.92 55.256 0.045 7.21 2.53 9.59
5/25/2021 8:00:00 AM 12.93 55.274 0.045 7.21 2.36 9.64
5/25/2021 8:15:00 AM 12.94 55.292 0.045 7.23 2.15 9.67
5/25/2021 8:30:00 AM 12.94 55.292 0.045 7.24 2.16 9.7
5/25/2021 8:45:00 AM 12.96 55.328 0.045 7.26 1.92 9.74
5/25/2021 9:00:00 AM 12.99 55.382 0.044 7.27 1.75 9.78
5/25/2021 9:15:00 AM 13.04 55.472 0.044 7.28 1.67 9.8
5/25/2021 9:30:00 AM 13.07 55.526 0.044 7.3 1.8 9.82
5/25/2021 9:45:00 AM 13.12 55.616 0.044 7.31 1.79 9.84
5/25/2021 10:00:00 AM 13.17 55.706 0.044 7.32 1.78 9.85
5/25/2021 10:15:00 AM 13.24 55.832 0.044 7.31 1.92 9.85
5/25/2021 10:30:00 AM 13.32 55.976 0.044 7.35 1.62 9.88
5/25/2021 10:45:00 AM 13.41 56.138 0.044 7.35 1.69 9.89
5/25/2021 11:00:00 AM 13.51 56.318 0.044 7.38 1.68 9.89
5/25/2021 11:15:00 AM 13.61 56.498 0.044 7.39 1.64 9.88
5/25/2021 11:30:00 AM 13.73 56.714 0.044 7.41 1.76 9.87
5/25/2021 11:45:00 AM 13.85 56.93 0.044 7.41 1.89 9.87
5/25/2021 12:00:00 PM 13.97 57.146 0.044 7.43 1.91 9.87
5/25/2021 12:15:00 PM 14.11 57.398 0.044 7.45 2 9.85
5/25/2021 12:30:00 PM 14.29 57.722 0.044 7.46 1.73 9.82
5/25/2021 12:45:00 PM 14.48 58.064 0.043 7.47 1.69 9.8
5/25/2021 1:00:00 PM 14.71 58.478 0.043 7.49 1.78 9.78
5/25/2021 1:15:00 PM 14.99 58.982 0.043 7.52 1.73 9.73
5/25/2021 1:30:00 PM 15.29 59.522 0.043 7.53 1.7 9.68
5/25/2021 1:45:00 PM 15.75 60.35 0.043 7.54 1.73 9.6
5/25/2021 2:00:00 PM 16.05 60.89 0.043 7.56 1.77 9.53
5/25/2021 2:15:00 PM 16.4 61.52 0.041 7.56 3.22 9.48
5/25/2021 2:30:00 PM 16.71 62.078 0.041 7.57 3.01 9.37
5/25/2021 2:45:00 PM 16.97 62.546 0.043 7.57 1.67 9.34
5/25/2021 3:00:00 PM 16.98 62.564 0.042 7.56 2.91 9.26
5/25/2021 3:15:00 PM 17.2 62.96 0.043 7.57 1.66 9.23
5/25/2021 3:30:00 PM 17.22 62.996 0.043 7.58 1.74 9.19
5/25/2021 3:45:00 PM 17.28 63.104 0.043 7.56 1.85 9.15
5/25/2021 4:00:00 PM 17.39 63.302 0.043 7.57 1.73 9.13
5/25/2021 4:15:00 PM 17.36 63.248 0.043 7.56 1.81 9.09
5/25/2021 4:30:00 PM 17.27 63.086 0.043 7.54 1.69 9.04
5/25/2021 4:45:00 PM 17.28 63.104 0.042 7.52 3.08 9.03
5/25/2021 5:00:00 PM 17.34 63.212 0.043 7.53 1.72 9.03
5/25/2021 5:15:00 PM 17.26 63.068 0.043 7.51 1.8 9
5/25/2021 5:30:00 PM 17.09 62.762 0.042 7.47 2.95 8.94
5/25/2021 5:45:00 PM 17.03 62.654 0.043 7.47 1.85 8.96
5/25/2021 6:00:00 PM 16.94 62.492 0.042 7.44 2.93 8.94
5/25/2021 6:15:00 PM 16.87 62.366 0.044 7.44 4.45 8.94
5/25/2021 6:30:00 PM 16.77 62.186 0.043 7.42 3.14 8.93
5/25/2021 6:45:00 PM 16.69 62.042 0.044 7.41 1.81 8.93
5/25/2021 7:00:00 PM 16.63 61.934 0.043 7.39 2.93 8.92
5/25/2021 7:15:00 PM 16.58 61.844 0.044 7.4 1.72 8.93
5/25/2021 7:30:00 PM 16.53 61.754 0.044 7.39 1.71 8.93
5/25/2021 7:45:00 PM 16.43 61.574 0.044 7.38 1.82 8.88
5/25/2021 8:00:00 PM 16.32 61.376 0.043 7.34 2.25 8.86
5/25/2021 8:15:00 PM 16.24 61.232 0.044 7.33 1.85 8.84
5/25/2021 8:30:00 PM 16.16 61.088 0.044 7.31 1.96 8.8
5/25/2021 8:45:00 PM 16.08 60.944 0.044 7.28 2.23 8.79
5/25/2021 9:00:00 PM 15.99 60.782 0.044 7.25 3.32 8.77
5/25/2021 9:15:00 PM 15.91 60.638 0.044 7.25 3.24 8.79
5/25/2021 9:30:00 PM 15.81 60.458 0.045 7.25 1.98 8.79
5/25/2021 9:45:00 PM 15.72 60.296 0.044 7.22 3.62 8.8
5/25/2021 10:00:00 PM 15.62 60.116 0.045 7.21 2.62 8.8
5/25/2021 10:15:00 PM 15.52 59.936 0.044 7.21 3.69 8.82
5/25/2021 10:30:00 PM 15.43 59.774 0.045 7.19 2.38 8.84
5/25/2021 10:45:00 PM 15.34 59.612 0.044 7.2 3.57 8.85
5/25/2021 11:00:00 PM 15.25 59.45 0.045 7.2 2.33 8.88
5/25/2021 11:15:00 PM 15.18 59.324 0.045 7.19 2.44 8.89
5/25/2021 11:30:00 PM 15.11 59.198 0.045 7.18 2.21 8.9
5/25/2021 11:45:00 PM 15.04 59.072 0.044 7.18 3.19 8.91
5/26/2021 12:00:00 AM 14.96 58.928 0.046 7.18 2.13 8.93
5/26/2021 12:15:00 AM 14.87 58.766 0.046 7.19 2.2 8.96
5/26/2021 12:30:00 AM 14.8 58.64 0.045 7.18 3.8 8.97
5/26/2021 12:45:00 AM 14.72 58.496 0.046 7.18 2.24 8.99
5/26/2021 1:00:00 AM 14.64 58.352 0.046 7.18 2.21 9.02
5/26/2021 1:15:00 AM 14.57 58.226 0.046 7.18 2.3 9.02
5/26/2021 1:30:00 AM 14.49 58.082 0.046 7.18 2.45 9.04
5/26/2021 1:45:00 AM 14.42 57.956 0.046 7.18 2.08 9.06
5/26/2021 2:00:00 AM 14.36 57.848 0.046 7.18 2.07 9.07
5/26/2021 2:15:00 AM 14.28 57.704 0.046 7.18 2.15 9.09
5/26/2021 2:30:00 AM 14.22 57.596 0.046 7.17 2.12 9.09
5/26/2021 2:45:00 AM 14.17 57.506 0.046 7.17 2.17 9.11
5/26/2021 3:00:00 AM 14.11 57.398 0.046 7.18 1.9 9.14
5/26/2021 3:15:00 AM 14.06 57.308 0.046 7.18 2.01 9.14
5/26/2021 3:30:00 AM 14 57.2 0.046 7.17 2.06 9.16
5/26/2021 3:45:00 AM 13.94 57.092 0.046 7.17 2.24 9.16
5/26/2021 4:00:00 AM 13.9 57.02 0.046 7.17 2.08 9.18
5/26/2021 4:15:00 AM 13.86 56.948 0.046 7.17 2.16 9.18
5/26/2021 4:30:00 AM 13.8 56.84 0.046 7.16 2.02 9.2
5/26/2021 4:45:00 AM 13.75 56.75 0.046 7.16 2.05 9.2
5/26/2021 5:00:00 AM 13.71 56.678 0.046 7.17 2.42 9.22
5/26/2021 5:15:00 AM 13.67 56.606 0.046 7.17 2.21 9.24
5/26/2021 5:30:00 AM 13.62 56.516 0.046 7.17 2.43 9.24
5/26/2021 5:45:00 AM 13.57 56.426 0.046 7.16 2.35 9.25
5/26/2021 6:00:00 AM 13.54 56.372 0.046 7.16 2.3 9.26
5/26/2021 6:15:00 AM 13.51 56.318 0.046 7.17 2.3 9.29
5/26/2021 6:30:00 AM 13.49 56.282 0.046 7.17 2.21 9.32
5/26/2021 6:45:00 AM 13.49 56.282 0.046 7.18 2.2 9.36
5/26/2021 7:00:00 AM 13.47 56.246 0.046 7.17 2.2 9.37
5/26/2021 7:15:00 AM 13.47 56.246 0.046 7.18 2.32 9.41
5/26/2021 7:30:00 AM 13.49 56.282 0.046 7.21 2.97 9.47
5/26/2021 7:45:00 AM 13.54 56.372 0.045 7.23 3.27 9.52
5/26/2021 8:00:00 AM 13.57 56.426 0.045 7.24 3.47 9.56
5/26/2021 8:15:00 AM 13.58 56.444 0.045 7.26 2.66 9.58
5/26/2021 8:30:00 AM 13.67 56.606 0.045 7.26 2.43 9.62
5/26/2021 8:45:00 AM 13.72 56.696 0.045 7.28 2.38 9.63
5/26/2021 9:00:00 AM 13.78 56.804 0.045 7.29 2.2 9.64
5/26/2021 9:15:00 AM 13.88 56.984 0.045 7.31 2.4 9.64
5/26/2021 9:30:00 AM 13.99 57.182 0.045 7.32 2.21 9.63
5/26/2021 9:45:00 AM 14.18 57.524 0.045 7.34 2.3 9.61
5/26/2021 10:00:00 AM 14.32 57.776 0.045 7.37 2.02 9.57
5/26/2021 10:15:00 AM 14.52 58.136 0.045 7.39 1.93 9.56
5/26/2021 10:30:00 AM 14.74 58.532 0.045 7.42 2.03 9.54
5/26/2021 10:45:00 AM 15.04 59.072 0.045 7.43 1.77 9.49
5/26/2021 11:00:00 AM 15.32 59.576 0.043 7.44 3.21 9.45
5/26/2021 11:15:00 AM 15.61 60.098 0.045 7.47 2.01 9.42
5/26/2021 11:30:00 AM 15.92 60.656 0.042 7.49 3.08 9.37
5/26/2021 11:45:00 AM 16.24 61.232 0.042 7.52 3.27 9.34
5/26/2021 12:00:00 PM 16.48 61.664 0.045 7.55 1.87 9.28
5/26/2021 12:15:00 PM 16.59 61.862 0.043 7.49 3.88 9.17
5/26/2021 12:30:00 PM 17.06 62.708 0.044 7.54 1.83 9.19
5/26/2021 12:45:00 PM 17.16 62.888 0.043 7.55 5.03 9.12
5/26/2021 1:00:00 PM 17.12 62.816 0.042 7.49 3.44 8.99
5/26/2021 1:15:00 PM 17.53 63.554 0.044 7.53 2.38 9
5/26/2021 1:30:00 PM 17.36 63.248 0.044 7.48 4.18 8.92
5/26/2021 1:45:00 PM 17.75 63.95 0.044 7.52 1.8 8.96
5/26/2021 2:00:00 PM 17.77 63.986 0.044 7.55 1.97 8.97
5/26/2021 2:15:00 PM 17.67 63.806 0.043 7.54 3.12 8.96
5/26/2021 2:30:00 PM 17.6 63.68 0.043 7.51 3.24 8.93
5/26/2021 2:45:00 PM 17.51 63.518 0.044 7.49 1.86 8.87
5/26/2021 3:00:00 PM 17.76 63.968 0.044 7.5 1.97 8.89
5/26/2021 3:15:00 PM 18.07 64.526 0.044 7.54 1.85 8.87
5/26/2021 3:30:00 PM 18.25 64.85 0.044 7.56 1.86 8.9
5/26/2021 3:45:00 PM 18.36 65.048 0.044 7.57 2 8.86
5/26/2021 4:00:00 PM 18.46 65.228 0.044 7.57 1.7 8.86
5/26/2021 4:15:00 PM 18.51 65.318 0.044 7.57 1.73 8.83
5/26/2021 4:30:00 PM 18.41 65.138 0.044 7.51 2.58 8.68
5/26/2021 4:45:00 PM 18.41 65.138 0.044 7.48 2.51 8.67
5/26/2021 5:00:00 PM 18.36 65.048 0.044 7.48 2.51 8.59
5/26/2021 5:15:00 PM 18.3 64.94 0.044 7.45 3.02 8.57
5/26/2021 5:30:00 PM 18.15 64.67 0.044 7.41 2.85 8.53
5/26/2021 5:45:00 PM 18.05 64.49 0.044 7.44 2.37 8.58
5/26/2021 6:00:00 PM 17.91 64.238 0.044 7.41 2.62 8.58
5/26/2021 6:15:00 PM 17.73 63.914 0.044 7.38 2.84 8.55
5/26/2021 6:30:00 PM 17.57 63.626 0.044 7.34 3.18 8.53
5/26/2021 6:45:00 PM 17.45 63.41 0.044 7.31 4.23 8.51
5/26/2021 7:00:00 PM 17.34 63.212 0.045 7.28 2.89 8.46
5/26/2021 7:15:00 PM 17.22 62.996 0.045 7.25 2.92 8.42
5/26/2021 7:30:00 PM 17.11 62.798 0.044 7.24 4.78 8.41
5/26/2021 7:45:00 PM 16.98 62.564 0.044 7.23 3.66 8.44
5/26/2021 8:00:00 PM 16.86 62.348 0.044 7.23 3.84 8.46
5/26/2021 8:15:00 PM 16.75 62.15 0.044 7.22 3.73 8.47
5/26/2021 8:30:00 PM 16.64 61.952 0.044 7.21 3.9 8.47
5/26/2021 8:45:00 PM 16.54 61.772 0.046 7.21 2.65 8.45
5/26/2021 9:00:00 PM 16.45 61.61 0.046 7.2 2.73 8.47
5/26/2021 9:15:00 PM 16.37 61.466 0.045 7.2 3.9 8.48
5/26/2021 9:30:00 PM 16.29 61.322 0.044 7.18 4.41 8.46
5/26/2021 9:45:00 PM 16.19 61.142 0.046 7.19 4.24 8.5
5/26/2021 10:00:00 PM 16.09 60.962 0.047 7.2 2.8 8.53
5/26/2021 10:15:00 PM 15.99 60.782 0.047 7.21 3.64 8.56
5/26/2021 10:30:00 PM 15.9 60.62 0.047 7.21 2.86 8.57
5/26/2021 10:45:00 PM 15.81 60.458 0.047 7.21 2.82 8.6
5/26/2021 11:00:00 PM 15.69 60.242 0.047 7.21 3.06 8.62
5/26/2021 11:15:00 PM 15.6 60.08 0.047 7.21 3.01 8.65
5/26/2021 11:30:00 PM 15.49 59.882 0.047 7.2 2.93 8.66
5/26/2021 11:45:00 PM 15.38 59.684 0.047 7.2 2.66 8.72
5/27/2021 12:00:00 AM 15.31 59.558 0.047 7.2 3.12 8.73
5/27/2021 12:15:00 AM 15.21 59.378 0.047 7.19 2.79 8.76
5/27/2021 12:30:00 AM 15.13 59.234 0.047 7.2 3.2 8.76
5/27/2021 12:45:00 AM 15.05 59.09 0.047 7.2 3.03 8.8
5/27/2021 1:00:00 AM 14.99 58.982 0.047 7.2 2.51 8.83
5/27/2021 1:15:00 AM 14.92 58.856 0.046 7.19 3.02 8.83
5/27/2021 1:30:00 AM 14.86 58.748 0.046 7.19 2.25 8.85
5/27/2021 1:45:00 AM 14.79 58.622 0.046 7.2 2.64 8.87
5/27/2021 2:00:00 AM 14.73 58.514 0.046 7.2 2.4 8.89
5/27/2021 2:15:00 AM 14.67 58.406 0.046 7.2 2.7 8.91
5/27/2021 2:30:00 AM 14.62 58.316 0.046 7.19 2.57 8.92
5/27/2021 2:45:00 AM 14.56 58.208 0.046 7.2 2.21 8.94
5/27/2021 3:00:00 AM 14.5 58.1 0.046 7.19 2.43 8.95
5/27/2021 3:15:00 AM 14.44 57.992 0.046 7.19 2.22 8.97
5/27/2021 3:30:00 AM 14.39 57.902 0.046 7.2 2.09 8.98
5/27/2021 3:45:00 AM 14.34 57.812 0.047 7.19 2.3 8.99
5/27/2021 4:00:00 AM 14.29 57.722 0.047 7.2 2.5 9.02
5/27/2021 4:15:00 AM 14.24 57.632 0.047 7.19 2.3 9.02
5/27/2021 4:30:00 AM 14.21 57.578 0.047 7.2 2.59 9.03
5/27/2021 4:45:00 AM 14.16 57.488 0.047 7.2 2.54 9.05
5/27/2021 5:00:00 AM 14.12 57.416 0.047 7.2 2.32 9.07
5/27/2021 5:15:00 AM 14.08 57.344 0.047 7.2 2.36 9.07
5/27/2021 5:30:00 AM 14.04 57.272 0.047 7.2 2.39 9.09
5/27/2021 5:45:00 AM 13.99 57.182 0.047 7.22 2.39 9.11
5/27/2021 6:00:00 AM 13.94 57.092 0.047 7.21 2.21 9.12
5/27/2021 6:15:00 AM 13.89 57.002 0.047 7.21 2.08 9.15
5/27/2021 6:30:00 AM 13.85 56.93 0.047 7.22 1.98 9.19
5/27/2021 6:45:00 AM 13.82 56.876 0.047 7.23 2.2 9.23
5/27/2021 7:00:00 AM 13.78 56.804 0.046 7.23 2.5 9.27
5/27/2021 7:15:00 AM 13.69 56.642 0.046 7.23 2.69 9.29
5/27/2021 7:30:00 AM 13.64 56.552 0.046 7.24 3.78 9.29
5/27/2021 7:45:00 AM 13.58 56.444 0.046 7.25 2.31 9.35
5/27/2021 8:00:00 AM 13.54 56.372 0.046 7.26 2.22 9.38
5/27/2021 8:15:00 AM 13.5 56.3 0.046 7.26 2.62 9.42
5/27/2021 8:30:00 AM 13.49 56.282 0.046 7.28 2.65 9.44
5/27/2021 8:45:00 AM 13.51 56.318 0.044 7.28 3.64 9.48
5/27/2021 9:00:00 AM 13.54 56.372 0.046 7.3 2.28 9.49
5/27/2021 9:15:00 AM 13.59 56.462 0.046 7.31 2.24 9.5
5/27/2021 9:30:00 AM 13.68 56.624 0.046 7.33 2.1 9.52
5/27/2021 9:45:00 AM 13.8 56.84 0.044 7.33 3.05 9.52
5/27/2021 10:00:00 AM 13.94 57.092 0.046 7.36 1.96 9.53
5/27/2021 10:15:00 AM 14.06 57.308 0.046 7.37 2.16 9.51
5/27/2021 10:30:00 AM 14.23 57.614 0.046 7.37 2.14 9.48
5/27/2021 10:45:00 AM 14.41 57.938 0.046 7.39 1.93 9.48
5/27/2021 11:00:00 AM 14.56 58.208 0.046 7.4 1.92 9.45
5/27/2021 11:15:00 AM 14.77 58.586 0.046 7.42 1.89 9.43
5/27/2021 11:30:00 AM 15.08 59.144 0.046 7.44 2.05 9.41
5/27/2021 11:45:00 AM 15.21 59.378 0.044 7.44 3.23 9.38
5/27/2021 12:00:00 PM 15.53 59.954 0.044 7.45 3.05 9.35
5/27/2021 12:15:00 PM 15.79 60.422 0.045 7.47 1.95 9.35
5/27/2021 12:30:00 PM 16.13 61.034 0.044 7.48 2.96 9.28
5/27/2021 12:45:00 PM 16.34 61.412 0.044 7.49 3.01 9.26
5/27/2021 1:00:00 PM 16.66 61.988 0.045 7.52 2.09 9.24
5/27/2021 1:15:00 PM 16.88 62.384 0.045 7.54 1.83 9.22
5/27/2021 1:30:00 PM 17.1 62.78 0.045 7.55 1.96 9.2
5/27/2021 1:45:00 PM 17.16 62.888 0.045 7.55 1.95 9.14
5/27/2021 2:00:00 PM 17.39 63.302 0.045 7.56 1.91 9.14
5/27/2021 2:15:00 PM 17.56 63.608 0.045 7.56 1.88 9.1
5/27/2021 2:30:00 PM 17.61 63.698 0.045 7.57 1.83 9.11
5/27/2021 2:45:00 PM 17.68 63.824 0.045 7.58 1.81 9.09
5/27/2021 3:00:00 PM 17.55 63.59 0.045 7.57 1.8 9.05
5/27/2021 3:15:00 PM 17.73 63.914 0.045 7.57 1.87 9.04
5/27/2021 3:30:00 PM 17.83 64.094 0.045 7.58 1.8 8.99
5/27/2021 3:45:00 PM 17.91 64.238 0.045 7.58 2.19 8.97
5/27/2021 4:00:00 PM 17.97 64.346 0.045 7.57 2.12 8.93
5/27/2021 4:15:00 PM 18.04 64.472 0.045 7.57 1.72 8.89
5/27/2021 4:30:00 PM 17.83 64.094 0.045 7.54 1.79 8.87
5/27/2021 4:45:00 PM 17.79 64.022 0.045 7.52 1.74 8.84
5/27/2021 5:00:00 PM 17.83 64.094 0.045 7.55 1.74 8.89
5/27/2021 5:15:00 PM 17.75 63.95 0.045 7.52 2.03 8.85
5/27/2021 5:30:00 PM 17.62 63.716 0.045 7.47 1.67 8.82
5/27/2021 5:45:00 PM 17.49 63.482 0.045 7.47 1.79 8.82
5/27/2021 6:00:00 PM 17.31 63.158 0.045 7.44 1.82 8.81
5/27/2021 6:15:00 PM 17.16 62.888 0.045 7.43 5.28 8.81
5/27/2021 6:30:00 PM 17 62.6 0.045 7.41 1.71 8.77
5/27/2021 6:45:00 PM 16.83 62.294 0.045 7.37 2.17 8.75
5/27/2021 7:00:00 PM 16.66 61.988 0.045 7.36 1.94 8.75
5/27/2021 7:15:00 PM 16.53 61.754 0.044 7.34 2.78 8.8
5/27/2021 7:30:00 PM 16.37 61.466 0.046 7.33 1.83 8.8
5/27/2021 7:45:00 PM 16.22 61.196 0.045 7.31 3 8.79
5/27/2021 8:00:00 PM 16.06 60.908 0.046 7.3 1.91 8.79
5/27/2021 8:15:00 PM 15.89 60.602 0.046 7.29 2.54 8.79
5/27/2021 8:30:00 PM 15.73 60.314 0.046 7.27 2.26 8.79
5/27/2021 8:45:00 PM 15.58 60.044 0.046 7.26 2.09 8.8
5/27/2021 9:00:00 PM 15.41 59.738 0.046 7.25 2.19 8.82
5/27/2021 9:15:00 PM 15.27 59.486 0.046 7.24 2.19 8.84
5/27/2021 9:30:00 PM 15.11 59.198 0.046 7.24 2.41 8.87
5/27/2021 9:45:00 PM 14.97 58.946 0.046 7.23 2.44 8.88
5/27/2021 10:00:00 PM 14.81 58.658 0.046 7.22 2.2 8.9
5/27/2021 10:15:00 PM 14.68 58.424 0.047 7.22 2.3 8.94
5/27/2021 10:30:00 PM 14.55 58.19 0.047 7.22 1.98 8.98
5/27/2021 10:45:00 PM 14.43 57.974 0.047 7.21 2.1 8.99
5/27/2021 11:00:00 PM 14.31 57.758 0.047 7.21 2.3 9.02
5/27/2021 11:15:00 PM 14.2 57.56 0.047 7.21 2.32 9.05
5/27/2021 11:30:00 PM 14.09 57.362 0.047 7.21 2.22 9.07
5/27/2021 11:45:00 PM 13.99 57.182 0.047 7.22 2.07 9.12
5/28/2021 12:00:00 AM 13.9 57.02 0.047 7.22 2.15 9.12
5/28/2021 12:15:00 AM 13.81 56.858 0.047 7.21 1.95 9.15
5/28/2021 12:30:00 AM 13.72 56.696 0.047 7.22 2.16 9.16
5/28/2021 12:45:00 AM 13.64 56.552 0.047 7.22 2.92 9.2
5/28/2021 1:00:00 AM 13.57 56.426 0.047 7.22 2.39 9.2
5/28/2021 1:15:00 AM 13.49 56.282 0.047 7.21 2.34 9.22
5/28/2021 1:30:00 AM 13.42 56.156 0.047 7.22 2.22 9.26
5/28/2021 1:45:00 AM 13.35 56.03 0.047 7.21 2.28 9.27
5/28/2021 2:00:00 AM 13.28 55.904 0.047 7.22 2.23 9.28
5/28/2021 2:15:00 AM 13.21 55.778 0.047 7.21 2.25 9.31
5/28/2021 2:30:00 AM 13.14 55.652 0.047 7.21 2.11 9.32
5/28/2021 2:45:00 AM 13.06 55.508 0.046 7.2 3.22 9.33
5/28/2021 3:00:00 AM 12.98 55.364 0.045 7.19 3.66 9.34
5/28/2021 3:15:00 AM 12.91 55.238 0.045 7.19 3.34 9.36
5/28/2021 3:30:00 AM 12.82 55.076 0.047 7.2 2.03 9.4
5/28/2021 3:45:00 AM 12.74 54.932 0.047 7.19 2.04 9.42
5/28/2021 4:00:00 AM 12.66 54.788 0.047 7.19 2.23 9.43
5/28/2021 4:15:00 AM 12.57 54.626 0.047 7.19 2.17 9.44
5/28/2021 4:30:00 AM 12.47 54.446 0.047 7.19 2.42 9.46
5/28/2021 4:45:00 AM 12.37 54.266 0.047 7.19 2.29 9.49
5/28/2021 5:00:00 AM 12.28 54.104 0.047 7.2 2.44 9.52
5/28/2021 5:15:00 AM 12.18 53.924 0.047 7.19 2.24 9.54
5/28/2021 5:30:00 AM 12.12 53.816 0.047 7.18 3.59 9.55
5/28/2021 5:45:00 AM 12.03 53.654 0.047 7.18 2.19 9.58
5/28/2021 6:00:00 AM 11.96 53.528 0.047 7.18 2.65 9.59
5/28/2021 6:15:00 AM 11.9 53.42 0.047 7.19 2.2 9.62
5/28/2021 6:30:00 AM 11.84 53.312 0.047 7.19 2.18 9.66
5/28/2021 6:45:00 AM 11.79 53.222 0.047 7.2 2.25 9.69
5/28/2021 7:00:00 AM 11.76 53.168 0.047 7.22 2.38 9.74
5/28/2021 7:15:00 AM 11.74 53.132 0.047 7.22 2.27 9.75
5/28/2021 7:30:00 AM 11.71 53.078 0.047 7.23 2.13 9.78
5/28/2021 7:45:00 AM 11.68 53.024 0.047 7.23 1.86 9.82
5/28/2021 8:00:00 AM 11.67 53.006 0.047 7.23 1.86 9.82
5/28/2021 8:15:00 AM 11.65 52.97 0.047 7.24 1.76 9.84
5/28/2021 8:30:00 AM 11.64 52.952 0.047 7.25 1.77 9.86
5/28/2021 8:45:00 AM 11.62 52.916 0.047 7.24 1.71 9.87
5/28/2021 9:00:00 AM 11.61 52.898 0.046 7.26 1.67 9.91
5/28/2021 9:15:00 AM 11.61 52.898 0.046 7.26 1.73 9.94
5/28/2021 9:30:00 AM 11.59 52.862 0.046 7.27 1.81 9.97
5/28/2021 9:45:00 AM 11.59 52.862 0.046 7.27 1.72 10
5/28/2021 10:00:00 AM 11.6 52.88 0.046 7.29 1.82 10.02
5/28/2021 10:15:00 AM 11.61 52.898 0.046 7.3 1.94 10.05
5/28/2021 10:30:00 AM 11.62 52.916 0.046